Provisional Data: Sing Sing Creek near Big Flats, NY


Please select a monitoring station.
Please select start date.
Please select start date.

Toggle Unit: C/F Toggle Unit: C/F
Sample Time Temperature (C) Temperature (F) Specific Conductivity (mS/cm) pH   Turbidity (NTU+) DO (mg/L)
12/4/2020 12:00:00 AM 3.79 38.822 0.371 8.06 20.94 12.65
12/4/2020 12:15:00 AM 3.77 38.786 0.372 8.05 21 12.59
12/4/2020 12:30:00 AM 3.77 38.786 0.372 8.04 21.23 12.52
12/4/2020 12:45:00 AM 3.77 38.786 0.372 8.04 20.31 12.47
12/4/2020 1:00:00 AM 3.76 38.768 0.373 8.03 20.52 12.41
12/4/2020 1:15:00 AM 3.76 38.768 0.373 8.02 20.69 12.39
12/4/2020 1:30:00 AM 3.76 38.768 0.374 8.02 20.85 12.34
12/4/2020 1:45:00 AM 3.75 38.75 0.374 8 20.89 12.31
12/4/2020 2:00:00 AM 3.73 38.714 0.374 8 20.66 12.29
12/4/2020 2:15:00 AM 3.72 38.696 0.375 7.99 20.95 12.22
12/4/2020 2:30:00 AM 3.71 38.678 0.375 7.99 21.34 12.19
12/4/2020 2:45:00 AM 3.69 38.642 0.376 7.98 20.78 12.18
12/4/2020 3:00:00 AM 3.68 38.624 0.376 7.98 20.49 12.16
12/4/2020 3:15:00 AM 3.66 38.588 0.377 7.97 21.27 12.12
12/4/2020 3:30:00 AM 3.65 38.57 0.377 7.96 20.56 12.1
12/4/2020 3:45:00 AM 3.64 38.552 0.377 7.96 21.51 12.07
12/4/2020 4:00:00 AM 3.63 38.534 0.378 7.95 21.16 12.01
12/4/2020 4:15:00 AM 3.62 38.516 0.379 7.95 21.48 11.97
12/4/2020 4:30:00 AM 3.62 38.516 0.379 7.94 20.85 11.96
12/4/2020 4:45:00 AM 3.61 38.498 0.379 7.93 21.4 11.91
12/4/2020 5:00:00 AM 3.61 38.498 0.38 7.93 21.78 11.89
12/4/2020 5:15:00 AM 3.61 38.498 0.38 7.93 21.12 11.89
12/4/2020 5:30:00 AM 3.61 38.498 0.38 7.93 21.06 11.86
12/4/2020 5:45:00 AM 3.61 38.498 0.381 7.92 21.4 11.86
12/4/2020 6:00:00 AM 3.61 38.498 0.382 7.91 21.03 11.83
12/4/2020 6:15:00 AM 3.61 38.498 0.381 7.92 21.54 11.81
12/4/2020 6:30:00 AM 3.61 38.498 0.382 7.91 24.84 11.83
12/4/2020 6:45:00 AM 3.6 38.48 0.382 7.91 22.66 11.85
12/4/2020 7:00:00 AM 3.61 38.498 0.382 7.91 23.45 11.78
12/4/2020 7:15:00 AM 3.61 38.498 0.382 7.91 21.58 11.79
12/4/2020 7:30:00 AM 3.62 38.516 0.383 7.91 21.2 11.77
12/4/2020 7:45:00 AM 3.62 38.516 0.383 7.9 22.37 11.76
12/4/2020 8:00:00 AM 3.63 38.534 0.383 7.9 21.57 11.73
12/4/2020 8:15:00 AM 3.64 38.552 0.384 7.9 21.68 11.79
12/4/2020 8:30:00 AM 3.66 38.588 0.384 7.91 21.62 11.82
12/4/2020 8:45:00 AM 3.68 38.624 0.384 7.91 21.53 11.83
12/4/2020 9:00:00 AM 3.71 38.678 0.385 7.91 21.06 11.88
12/4/2020 9:15:00 AM 3.74 38.732 0.384 7.92 21.93 11.97
12/4/2020 9:30:00 AM 3.77 38.786 0.385 7.92 20.78 11.97
12/4/2020 9:45:00 AM 3.82 38.876 0.385 7.93 20.08 12.07
12/4/2020 10:00:00 AM 3.86 38.948 0.385 7.94 20.4 12.19
12/4/2020 10:15:00 AM 3.92 39.056 0.386 7.95 22.37 12.27
12/4/2020 10:30:00 AM 3.98 39.164 0.386 7.96 20.36 12.35
12/4/2020 10:45:00 AM 4.04 39.272 0.386 7.97 20.43 12.44
12/4/2020 11:00:00 AM 4.1 39.38 0.386 7.98 21.18 12.51
12/4/2020 11:15:00 AM 4.17 39.506 0.387 7.99 21.8 12.55
12/4/2020 11:30:00 AM 4.23 39.614 0.387 7.99 20.88 12.62
12/4/2020 11:45:00 AM 4.3 39.74 0.388 8.01 20.48 12.69
12/4/2020 12:00:00 PM 4.38 39.884 0.388 8.02 20.95 12.78
12/4/2020 12:15:00 PM 4.45 40.01 0.389 8.02 20.71 12.78
12/4/2020 12:30:00 PM 4.5 40.1 0.389 8.03 20.81 12.85
12/4/2020 12:45:00 PM 4.57 40.226 0.389 8.05 28.01 13.02
12/4/2020 1:00:00 PM 4.63 40.334 0.39 8.06 25.79 13.06
12/4/2020 1:15:00 PM 4.73 40.514 0.39 8.1 23.37 13.13
12/4/2020 1:30:00 PM 4.78 40.604 0.39 8.11 28.64 13.23
12/4/2020 1:45:00 PM 4.84 40.712 0.391 8.13 27.25 13.29
12/4/2020 2:00:00 PM 4.87 40.766 0.391 8.14 24.59 13.37
12/4/2020 2:15:00 PM 4.9 40.82 0.391 8.15 24.37 13.43
12/4/2020 2:30:00 PM 4.93 40.874 0.392 8.16 25.16 13.49
12/4/2020 2:45:00 PM 4.95 40.91 0.392 8.17 22.74 13.51
12/4/2020 3:00:00 PM 4.96 40.928 0.392 8.18 22.88 13.53
12/4/2020 3:15:00 PM 4.97 40.946 0.392 8.19 22.21 13.53
12/4/2020 3:30:00 PM 4.99 40.982 0.393 8.2 21.76 13.5
12/4/2020 3:45:00 PM 5.01 41.018 0.393 8.2 21.84 13.51
12/4/2020 4:00:00 PM 5.02 41.036 0.393 8.21 21.68 13.48
12/4/2020 4:15:00 PM 5.03 41.054 0.393 8.21 21.47 13.36
12/4/2020 4:30:00 PM 5.03 41.054 0.393 8.2 22.18 13.33
12/4/2020 4:45:00 PM 5.04 41.072 0.393 8.2 22.29 13.25
12/4/2020 5:00:00 PM 5.04 41.072 0.393 8.19 22.23 13.12
12/4/2020 5:15:00 PM 5.04 41.072 0.393 8.19 21.63 13.08
12/4/2020 5:30:00 PM 5.05 41.09 0.393 8.19 21.75 13.04
12/4/2020 5:45:00 PM 5.05 41.09 0.394 8.18 21.63 13.02
12/4/2020 6:00:00 PM 5.05 41.09 0.393 8.18 22.46 12.9
12/4/2020 6:15:00 PM 5.06 41.108 0.394 8.17 22.75 12.96
12/4/2020 6:30:00 PM 5.06 41.108 0.394 8.16 25.26 12.84
12/4/2020 6:45:00 PM 5.07 41.126 0.395 8.15 27.35 12.8
12/4/2020 7:00:00 PM 5.07 41.126 0.394 8.15 24.9 12.72
12/4/2020 7:15:00 PM 5.07 41.126 0.394 8.14 25.21 12.76
12/4/2020 7:30:00 PM 5.08 41.144 0.394 8.14 24.04 12.66
12/4/2020 7:45:00 PM 5.08 41.144 0.394 8.13 23.07 12.58
12/4/2020 8:00:00 PM 5.09 41.162 0.394 8.12 23.4 12.56
12/4/2020 8:15:00 PM 5.09 41.162 0.393 8.12 24.97 12.54
12/4/2020 8:30:00 PM 5.1 41.18 0.394 8.11 24.12 12.47
12/4/2020 8:45:00 PM 5.11 41.198 0.393 8.11 22.73 12.47
12/4/2020 9:00:00 PM 5.12 41.216 0.393 8.1 22.56 12.4
12/4/2020 9:15:00 PM 5.14 41.252 0.392 8.09 24.83 12.4
12/4/2020 9:30:00 PM 5.15 41.27 0.392 8.09 24.47 12.38
12/4/2020 9:45:00 PM 5.17 41.306 0.393 8.09 24.54 12.31
12/4/2020 10:00:00 PM 5.19 41.342 0.392 8.09 23.62 12.26
12/4/2020 10:15:00 PM 5.2 41.36 0.392 8.08 23.94 12.25
12/4/2020 10:30:00 PM 5.22 41.396 0.392 8.08 24.03 12.22
12/4/2020 10:45:00 PM 5.23 41.414 0.392 8.07 23.27 12.15
12/4/2020 11:00:00 PM 5.25 41.45 0.393 8.07 24.85 12.13
12/4/2020 11:15:00 PM 5.26 41.468 0.392 8.07 23.88 12.07
12/4/2020 11:30:00 PM 5.27 41.486 0.392 8.06 23.8 11.99
12/4/2020 11:45:00 PM 5.28 41.504 0.393 8.06 23.96 12
12/5/2020 12:00:00 AM 5.29 41.522 0.393 8.06 24.06 11.94
12/5/2020 12:15:00 AM 5.3 41.54 0.393 8.05 23.69 11.93
12/5/2020 12:30:00 AM 5.3 41.54 0.394 8.05 23.16 11.86
12/5/2020 12:45:00 AM 5.31 41.558 0.394 8.04 22.99 11.83
12/5/2020 1:00:00 AM 5.32 41.576 0.394 8.04 23.52 11.76
12/5/2020 1:15:00 AM 5.32 41.576 0.394 8.03 23.02 11.75
12/5/2020 1:30:00 AM 5.32 41.576 0.395 8.03 22.4 11.72
12/5/2020 1:45:00 AM 5.32 41.576 0.395 8.02 22.68 11.73
12/5/2020 2:00:00 AM 5.32 41.576 0.396 8.02 22.63 11.63
12/5/2020 2:15:00 AM 5.32 41.576 0.396 8.01 22.21 11.45
12/5/2020 2:30:00 AM 5.31 41.558 0.397 8 22.84 11.39
12/5/2020 2:45:00 AM 5.31 41.558 0.397 7.99 23.08 11.37
12/5/2020 3:00:00 AM 5.3 41.54 0.397 7.98 22.75 11.32
12/5/2020 3:15:00 AM 5.3 41.54 0.398 7.98 27.33 11.32
12/5/2020 3:30:00 AM 5.29 41.522 0.398 7.97 27.6 11.06
12/5/2020 3:45:00 AM 5.29 41.522 0.398 7.97 24.02 10.93
12/5/2020 4:00:00 AM 5.29 41.522 0.399 7.96 23.49 11.05
12/5/2020 4:15:00 AM 5.28 41.504 0.399 7.95 24.08 11.26
12/5/2020 4:30:00 AM 5.28 41.504 0.4 7.94 26.54 11.23
12/5/2020 4:45:00 AM 5.27 41.486 0.4 7.94 24.49 11.09
12/5/2020 5:00:00 AM 5.26 41.468 0.401 7.93 23.86 11.06
12/5/2020 5:15:00 AM 5.26 41.468 0.401 7.92 24.08 10.96
12/5/2020 5:30:00 AM 5.25 41.45 0.402 7.91 23.17 10.94
12/5/2020 5:45:00 AM 5.24 41.432 0.401 7.91 23.44 10.96
12/5/2020 6:00:00 AM 5.23 41.414 0.401 7.91 23 11.02
12/5/2020 6:15:00 AM 5.23 41.414 0.401 7.91 23.06 11.08
12/5/2020 6:30:00 AM 5.22 41.396 0.402 7.91 22.66 11.08
12/5/2020 6:45:00 AM 5.22 41.396 0.402 7.91 24.11 11.08
12/5/2020 7:00:00 AM 5.21 41.378 0.402 7.9 24.94 11.03
12/5/2020 7:15:00 AM 5.21 41.378 0.402 7.9 24.31 10.96
12/5/2020 7:30:00 AM 5.21 41.378 0.403 7.9 25.18 10.91
12/5/2020 7:45:00 AM 5.2 41.36 0.403 7.89 23.32 10.98
12/5/2020 8:00:00 AM 5.21 41.378 0.403 7.89 24.39 10.93
12/5/2020 8:15:00 AM 5.21 41.378 0.403 7.89 26.61 10.88
12/5/2020 8:30:00 AM 5.2 41.36 0.403 7.89 25.82 10.95
12/5/2020 8:45:00 AM 5.2 41.36 0.403 7.9 23.51 11.01
12/5/2020 9:00:00 AM 5.21 41.378 0.404 7.9 24.07 11.03
12/5/2020 9:15:00 AM 5.21 41.378 0.404 7.9 24.88 11.15
12/5/2020 9:30:00 AM 5.22 41.396 0.404 7.9 24.18 11.16
12/5/2020 9:45:00 AM 5.24 41.432 0.404 7.9 23.73 11.18
12/5/2020 10:00:00 AM 5.25 41.45 0.404 7.91 23.35 11.25
12/5/2020 10:15:00 AM 5.27 41.486 0.404 7.92 22.93 11.39
12/5/2020 10:30:00 AM 5.27 41.486 0.404 7.92 22.65 11.47
12/5/2020 10:45:00 AM 5.27 41.486 0.405 7.94 24.61 11.46
12/5/2020 11:00:00 AM 5.28 41.504 0.405 7.94 25.2 11.48
12/5/2020 11:15:00 AM 5.29 41.522 0.405 7.95 23.85 11.66
12/5/2020 11:30:00 AM 5.29 41.522 0.405 7.97 22.27 11.73
12/5/2020 11:45:00 AM 5.3 41.54 0.404 7.98 23.35 11.8
12/5/2020 12:00:00 PM 5.32 41.576 0.405 7.98 22.52 11.96
12/5/2020 12:15:00 PM 5.36 41.648 0.405 8 22.97 12.07
12/5/2020 12:30:00 PM 5.4 41.72 0.405 8.01 22.11 12.2
12/5/2020 12:45:00 PM 5.41 41.738 0.405 8.02 22.1 12.26
12/5/2020 1:00:00 PM 5.44 41.792 0.405 8.03 21.92 12.34
12/5/2020 1:15:00 PM 5.46 41.828 0.405 8.05 21.92 12.42
12/5/2020 1:30:00 PM 5.45 41.81 0.405 8.06 21.87 12.43
12/5/2020 1:45:00 PM 5.44 41.792 0.405 8.06 23.21 12.44
12/5/2020 2:00:00 PM 5.44 41.792 0.405 8.06 22.04 12.45
12/5/2020 2:15:00 PM 5.44 41.792 0.406 8.07 21.85 12.48
12/5/2020 2:30:00 PM 5.44 41.792 0.406 8.07 22.01 12.54
12/5/2020 2:45:00 PM 5.35 41.63 0.405 8.09 22.29 12.56
12/5/2020 3:00:00 PM 5.33 41.594 0.406 8.1 22.68 12.56
12/5/2020 3:15:00 PM 5.32 41.576 0.406 8.09 22.26 12.56
12/5/2020 3:30:00 PM 5.31 41.558 0.406 8.1 22.07 12.53
12/5/2020 3:45:00 PM 5.3 41.54 0.406 8.1 22.16 12.48
12/5/2020 4:00:00 PM 5.29 41.522 0.406 8.1 22.13 12.53
12/5/2020 4:15:00 PM 5.28 41.504 0.407 8.1 21.8 12.51
12/5/2020 4:30:00 PM 5.26 41.468 0.407 8.1 22.24 12.41
12/5/2020 4:45:00 PM 5.24 41.432 0.407 8.11 22.34 12.39
12/5/2020 5:00:00 PM 5.22 41.396 0.408 8.11 23.16 12.42
12/5/2020 5:15:00 PM 5.2 41.36 0.408 8.1 22.46 12.38
12/5/2020 5:30:00 PM 5.2 41.36 0.408 8.1 22.36 12.33
12/5/2020 5:45:00 PM 5.17 41.306 0.408 8.09 22.52 12.25
12/5/2020 6:00:00 PM 5.14 41.252 0.409 8.09 22.38 12.14
12/5/2020 6:15:00 PM 5.12 41.216 0.409 8.08 22.19 12.05
12/5/2020 6:30:00 PM 5.11 41.198 0.41 8.08 22.7 12.06
12/5/2020 6:45:00 PM 5.1 41.18 0.41 8.07 22.33 11.99
12/5/2020 7:00:00 PM 5.08 41.144 0.41 8.06 22.24 11.93
12/5/2020 7:15:00 PM 5.07 41.126 0.41 8.05 22.09 11.99
12/5/2020 7:30:00 PM 5.06 41.108 0.411 8.03 22.83 11.82
12/5/2020 7:45:00 PM 5.04 41.072 0.41 8.03 22.57 11.87
12/5/2020 8:00:00 PM 5.02 41.036 0.41 8.04 22.55 11.87
12/5/2020 8:15:00 PM 5 41 0.409 8.04 22.58 11.9
12/5/2020 8:30:00 PM 4.99 40.982 0.41 8.04 22.4 11.84
12/5/2020 8:45:00 PM 4.98 40.964 0.41 8.04 21.95 11.85
12/5/2020 9:00:00 PM 4.96 40.928 0.41 8.03 22.25 11.83
12/5/2020 9:15:00 PM 4.95 40.91 0.409 8.03 21.99 11.86
12/5/2020 9:30:00 PM 4.95 40.91 0.41 8.02 22.47 11.78
12/5/2020 9:45:00 PM 4.92 40.856 0.409 8.03 22.02 11.81
12/5/2020 10:00:00 PM 4.91 40.838 0.409 8.03 22.64 11.75
12/5/2020 10:15:00 PM 4.91 40.838 0.409 8.03 22.39 11.68
12/5/2020 10:30:00 PM 4.89 40.802 0.409 8.02 22.12 11.48
12/5/2020 10:45:00 PM 4.87 40.766 0.409 8.02 22.14 11.51
12/5/2020 11:00:00 PM 4.86 40.748 0.409 8.02 22.33 11.65
12/5/2020 11:15:00 PM 4.84 40.712 0.408 8.02 22.47 11.77
12/5/2020 11:30:00 PM 4.82 40.676 0.408 8.02 22.84 11.81
12/5/2020 11:45:00 PM 4.81 40.658 0.409 8.01 22.43 11.73
12/6/2020 12:00:00 AM 4.8 40.64 0.409 8.01 22.42 11.69
12/6/2020 12:15:00 AM 4.79 40.622 0.409 8.01 22.57 11.63
12/6/2020 12:30:00 AM 4.79 40.622 0.409 8 23.29 11.57
12/6/2020 12:45:00 AM 4.78 40.604 0.408 8 22.66 11.6
12/6/2020 1:00:00 AM 4.76 40.568 0.408 8.01 22.74 11.58
12/6/2020 1:15:00 AM 4.75 40.55 0.409 7.99 22.73 11.52
12/6/2020 1:30:00 AM 4.73 40.514 0.408 7.99 22.58 11.52
12/6/2020 1:45:00 AM 4.71 40.478 0.408 7.99 22.76 11.56
12/6/2020 2:00:00 AM 4.68 40.424 0.408 7.99 22.45 11.57
12/6/2020 2:15:00 AM 4.66 40.388 0.408 7.99 22.58 11.55
12/6/2020 2:30:00 AM 4.64 40.352 0.408 7.98 22.66 11.54
12/6/2020 2:45:00 AM 4.62 40.316 0.408 7.98 22.68 11.48
12/6/2020 3:00:00 AM 4.59 40.262 0.408 7.97 22.4 11.41
12/6/2020 3:15:00 AM 4.56 40.208 0.408 7.97 22.3 11.4
12/6/2020 3:30:00 AM 4.53 40.154 0.409 7.96 23.22 11.4
12/6/2020 3:45:00 AM 4.5 40.1 0.41 7.95 22.79 11.33
12/6/2020 4:00:00 AM 4.46 40.028 0.41 7.95 22.97 11.31
12/6/2020 4:15:00 AM 4.42 39.956 0.411 7.94 22.08 11.25
12/6/2020 4:30:00 AM 4.37 39.866 0.41 7.93 22.36 11.29
12/6/2020 4:45:00 AM 4.32 39.776 0.41 7.93 22.38 11.34
12/6/2020 5:00:00 AM 4.29 39.722 0.41 7.94 22.59 11.37
12/6/2020 5:15:00 AM 4.25 39.65 0.411 7.92 22.62 11.28
12/6/2020 5:30:00 AM 4.24 39.632 0.413 7.9 22.43 11.21
12/6/2020 5:45:00 AM 4.2 39.56 0.413 7.9 22.76 11.19
12/6/2020 6:00:00 AM 4.18 39.524 0.411 7.91 22.37 11.24
12/6/2020 6:15:00 AM 4.16 39.488 0.411 7.92 22.7 11.24
12/6/2020 6:30:00 AM 4.13 39.434 0.412 7.91 22.28 11.19
12/6/2020 6:45:00 AM 4.12 39.416 0.414 7.9 22.65 11.14
12/6/2020 7:00:00 AM 4.1 39.38 0.413 7.9 23.08 11.16
12/6/2020 7:15:00 AM 4.08 39.344 0.412 7.9 23.73 11.26
12/6/2020 7:30:00 AM 4.07 39.326 0.412 7.9 22.33 11.23
12/6/2020 7:45:00 AM 4.02 39.236 0.413 7.91 22.88 11.3
12/6/2020 8:00:00 AM 3.99 39.182 0.413 7.91 22.61 11.33
12/6/2020 8:15:00 AM 3.97 39.146 0.413 7.91 22.64 11.34
12/6/2020 8:30:00 AM 3.95 39.11 0.413 7.91 22.15 11.39
12/6/2020 8:45:00 AM 3.95 39.11 0.414 7.91 22.88 11.38
12/6/2020 9:00:00 AM 3.94 39.092 0.414 7.91 21.88 11.47
12/6/2020 9:15:00 AM 3.91 39.038 0.413 7.92 22 11.52
12/6/2020 9:30:00 AM 3.93 39.074 0.415 7.92 22.24 11.59
12/6/2020 9:45:00 AM 3.93 39.074 0.414 7.93 22.17 11.65
12/6/2020 10:00:00 AM 3.94 39.092 0.414 7.93 22.43 11.74
12/6/2020 10:15:00 AM 3.94 39.092 0.415 7.94 22.35 11.82
12/6/2020 10:30:00 AM 3.95 39.11 0.416 7.95 22.16 11.89
12/6/2020 10:45:00 AM 3.95 39.11 0.414 7.95 21.93 11.91
12/6/2020 11:00:00 AM 3.95 39.11 0.415 7.95 23.22 11.97
12/6/2020 11:15:00 AM 3.96 39.128 0.417 7.94 21.99 12.01
12/6/2020 11:30:00 AM 3.95 39.11 0.415 7.95 21.85 12.19
12/6/2020 11:45:00 AM 3.95 39.11 0.415 7.98 21.75 12.31
12/6/2020 12:00:00 PM 3.97 39.146 0.414 8 22.26 12.45
12/6/2020 12:15:00 PM 4.01 39.218 0.415 8.01 22.43 12.58
12/6/2020 12:30:00 PM 4.05 39.29 0.415 8.02 22.58 12.61
12/6/2020 12:45:00 PM 4.1 39.38 0.415 8.03 22.43 12.6
12/6/2020 1:00:00 PM 4.12 39.416 0.416 8.03 22.82 12.62
12/6/2020 1:15:00 PM 4.14 39.452 0.413 8.05 22.48 12.82
12/6/2020 1:30:00 PM 4.2 39.56 0.416 8.07 21.93 12.82
12/6/2020 1:45:00 PM 4.28 39.704 0.414 8.08 21.76 12.94
12/6/2020 2:00:00 PM 4.32 39.776 0.415 8.09 22.1 13.03
12/6/2020 2:15:00 PM 4.33 39.794 0.415 8.09 22.13 13
12/6/2020 2:30:00 PM 4.32 39.776 0.415 8.12 22.14 13.17
12/6/2020 2:45:00 PM 4.32 39.776 0.418 8.12 21.78 13.14
12/6/2020 3:00:00 PM 4.3 39.74 0.417 8.11 21.69 13.07
12/6/2020 3:15:00 PM 4.27 39.686 0.416 8.14 22.08 13.27
12/6/2020 3:30:00 PM 4.23 39.614 0.418 8.15 21.72 13.16
12/6/2020 3:45:00 PM 4.19 39.542 0.415 8.13 21.9 13.25
12/6/2020 4:00:00 PM 4.14 39.452 0.414 8.15 22.4 13.18
12/6/2020 4:15:00 PM 4.12 39.416 0.415 8.16 21.63 13.22
12/6/2020 4:30:00 PM 4.07 39.326 0.416 8.16 21.87 13.26
12/6/2020 4:45:00 PM 4.04 39.272 0.416 8.15 22.09 13.07
12/6/2020 5:00:00 PM 3.98 39.164 0.415 8.16 22.92 13.14
12/6/2020 5:15:00 PM 3.97 39.146 0.415 8.17 21.92 13.21
12/6/2020 5:30:00 PM 3.94 39.092 0.415 8.17 21.87 13.16
12/6/2020 5:45:00 PM 3.93 39.074 0.415 8.16 22.41 13.08
12/6/2020 6:00:00 PM 3.91 39.038 0.416 8.16 21.97 13.06
12/6/2020 6:15:00 PM 3.88 38.984 0.416 8.15 21.7 13.03
12/6/2020 6:30:00 PM 3.84 38.912 0.416 8.16 21.57 12.98
12/6/2020 6:45:00 PM 3.79 38.822 0.416 8.16 21.54 13.05
12/6/2020 7:00:00 PM 3.74 38.732 0.416 8.17 21.75 13.05
12/6/2020 7:15:00 PM 3.72 38.696 0.417 8.16 22.04 12.94
12/6/2020 7:30:00 PM 3.71 38.678 0.417 8.15 22.02 12.93
12/6/2020 7:45:00 PM 3.69 38.642 0.417 8.15 22.2 12.9
12/6/2020 8:00:00 PM 3.66 38.588 0.418 8.15 22.16 12.9
12/6/2020 8:15:00 PM 3.64 38.552 0.418 8.14 22.71 12.88
12/6/2020 8:30:00 PM 3.61 38.498 0.418 8.14 29.51 12.89
12/6/2020 8:45:00 PM 3.58 38.444 0.419 8.14 24.83 12.85
12/6/2020 9:00:00 PM 3.56 38.408 0.419 8.14 24.02 12.85
12/6/2020 9:15:00 PM 3.53 38.354 0.419 8.13 23.72 12.86
12/6/2020 9:30:00 PM 3.52 38.336 0.42 8.13 22.71 12.81
12/6/2020 9:45:00 PM 3.5 38.3 0.42 8.12 22.8 12.73
12/6/2020 10:00:00 PM 3.49 38.282 0.421 8.11 22.52 12.68
12/6/2020 10:15:00 PM 3.47 38.246 0.421 8.11 22.94 12.71
12/6/2020 10:30:00 PM 3.47 38.246 0.422 8.11 23.35 12.69
12/6/2020 10:45:00 PM 3.45 38.21 0.422 8.1 22.52 12.65
12/6/2020 11:00:00 PM 3.44 38.192 0.422 8.1 22.55 12.63
12/6/2020 11:15:00 PM 3.43 38.174 0.423 8.09 22.42 12.59
12/6/2020 11:30:00 PM 3.42 38.156 0.424 8.08 22.98 12.53
12/6/2020 11:45:00 PM 3.42 38.156 0.425 8.07 22.03 12.5
12/7/2020 12:00:00 AM 3.4 38.12 0.425 8.07 23.62 12.48
12/7/2020 12:15:00 AM 3.4 38.12 0.425 8.07 22.43 12.44
12/7/2020 12:30:00 AM 3.41 38.138 0.426 8.06 23.59 12.37
12/7/2020 12:45:00 AM 3.4 38.12 0.427 8.06 22.48 12.37
12/7/2020 1:00:00 AM 3.39 38.102 0.428 8.05 22.3 12.33
12/7/2020 1:15:00 AM 3.37 38.066 0.427 8.05 22.73 12.28
12/7/2020 1:30:00 AM 3.36 38.048 0.428 8.04 22.73 12.3
12/7/2020 1:45:00 AM 3.35 38.03 0.428 8.05 22.62 12.26
12/7/2020 2:00:00 AM 3.35 38.03 0.429 8.04 22.86 12.23
12/7/2020 2:15:00 AM 3.33 37.994 0.43 8.03 23.89 12.17
12/7/2020 2:30:00 AM 3.31 37.958 0.43 8.03 22.52 12.21
12/7/2020 2:45:00 AM 3.28 37.904 0.43 8.04 23.23 12.21
12/7/2020 3:00:00 AM 3.26 37.868 0.43 8.04 22.38 12.25
12/7/2020 3:15:00 AM 3.23 37.814 0.431 8.04 22.28 12.22
12/7/2020 3:30:00 AM 3.22 37.796 0.432 8.03 23.21 12.13
12/7/2020 3:45:00 AM 3.19 37.742 0.432 8.02 22.8 12.11
12/7/2020 4:00:00 AM 3.15 37.67 0.432 8.02 22.54 12.14
12/7/2020 4:15:00 AM 3.14 37.652 0.433 8.01 22.41 12.09
12/7/2020 4:30:00 AM 3.13 37.634 0.433 8 22.2 12.04
12/7/2020 4:45:00 AM 3.11 37.598 0.434 7.99 22.29 11.99
12/7/2020 5:00:00 AM 3.08 37.544 0.434 7.99 22.36 12.03
12/7/2020 5:15:00 AM 3.05 37.49 0.434 7.99 22.19 11.99
12/7/2020 5:30:00 AM 3.02 37.436 0.434 7.98 22.66 11.99
12/7/2020 5:45:00 AM 3 37.4 0.435 7.98 22.95 11.94
12/7/2020 6:00:00 AM 2.98 37.364 0.435 7.97 22.07 11.89
12/7/2020 6:15:00 AM 2.95 37.31 0.435 7.96 22.25 11.8
12/7/2020 6:30:00 AM 2.92 37.256 0.435 7.96 22.36 11.84
12/7/2020 6:45:00 AM 2.89 37.202 0.434 7.96 22.26 11.83
12/7/2020 7:00:00 AM 2.88 37.184 0.435 7.95 22.46 11.72
12/7/2020 7:15:00 AM 2.85 37.13 0.435 7.94 22.79 11.65
12/7/2020 7:30:00 AM 2.84 37.112 0.436 7.94 22.37 11.66
12/7/2020 7:45:00 AM 2.82 37.076 0.435 7.93 22.38 11.72
12/7/2020 8:00:00 AM 2.82 37.076 0.435 7.93 22.45 11.67
12/7/2020 8:15:00 AM 2.81 37.058 0.435 7.92 22.02 11.61
12/7/2020 8:30:00 AM 2.79 37.022 0.436 7.92 22.09 11.6
12/7/2020 8:45:00 AM 2.78 37.004 0.435 7.92 22.22 11.73
12/7/2020 9:00:00 AM 2.78 37.004 0.435 7.92 22.02 11.72
12/7/2020 9:15:00 AM 2.79 37.022 0.435 7.93 22.28 11.82
12/7/2020 9:30:00 AM 2.78 37.004 0.435 7.94 21.86 11.97
12/7/2020 9:45:00 AM 2.82 37.076 0.435 7.94 21.57 12.05
12/7/2020 10:00:00 AM 2.84 37.112 0.435 7.95 21.58 11.98
12/7/2020 10:15:00 AM 2.85 37.13 0.435 7.95 21.57 12.17
12/7/2020 10:30:00 AM 2.88 37.184 0.435 7.96 21.38 12.27
12/7/2020 10:45:00 AM 2.9 37.22 0.434 7.97 21.78 12.42
12/7/2020 11:00:00 AM 2.94 37.292 0.434 7.97 24.32 12.66
12/7/2020 11:15:00 AM 2.94 37.292 0.433 8.01 22.76 12.79
12/7/2020 11:30:00 AM 2.91 37.238 0.433 8.02 25.03 12.95
12/7/2020 11:45:00 AM 2.89 37.202 0.433 8.03 22.81 13
12/7/2020 12:00:00 PM 2.93 37.274 0.433 8.04 23.35 13.06
12/7/2020 12:15:00 PM 2.97 37.346 0.433 8.05 22.95 13.08
12/7/2020 12:30:00 PM 3.04 37.472 0.432 8.06 23.54 13.24
12/7/2020 12:45:00 PM 3.12 37.616 0.433 8.07 23.08 13.26
12/7/2020 1:00:00 PM 3.2 37.76 0.432 8.08 22.44 13.36
12/7/2020 1:15:00 PM 3.23 37.814 0.431 8.1 22.51 13.43
12/7/2020 1:30:00 PM 3.29 37.922 0.431 8.1 22.16 13.52
12/7/2020 1:45:00 PM 3.35 38.03 0.431 8.11 22.56 13.59
12/7/2020 2:00:00 PM 3.39 38.102 0.431 8.12 22.82 13.6
12/7/2020 2:15:00 PM 3.41 38.138 0.431 8.13 22.27 13.69
12/7/2020 2:30:00 PM 3.44 38.192 0.43 8.15 22.26 13.77
12/7/2020 2:45:00 PM 3.47 38.246 0.43 8.15 22.26 13.84
12/7/2020 3:00:00 PM 3.45 38.21 0.43 8.16 22.51 13.89
12/7/2020 3:15:00 PM 3.41 38.138 0.43 8.18 22.93 13.94
12/7/2020 3:30:00 PM 3.38 38.084 0.43 8.19 34.6 13.96
12/7/2020 3:45:00 PM 3.34 38.012 0.43 8.19 24.2 13.96
12/7/2020 4:00:00 PM 3.3 37.94 0.43 8.2 23.12 14.01
12/7/2020 4:15:00 PM 3.28 37.904 0.43 8.2 23.2 13.97
12/7/2020 4:30:00 PM 3.24 37.832 0.43 8.2 22.97 13.94
12/7/2020 4:45:00 PM 3.21 37.778 0.43 8.2 22.87 13.95
12/7/2020 5:00:00 PM 3.19 37.742 0.433 8.19 162.14 13.73
12/7/2020 5:15:00 PM 3.14 37.652 0.433 8.19 44.66 13.63
12/7/2020 5:30:00 PM 3.11 37.598 0.432 8.18 23.39 13.64
12/7/2020 5:45:00 PM 3.06 37.508 0.432 8.18 21.7 13.6
12/7/2020 6:00:00 PM 3.02 37.436 0.432 8.17 20.67 13.61
12/7/2020 6:15:00 PM 2.99 37.382 0.432 8.17 20.73 13.54
12/7/2020 6:30:00 PM 2.97 37.346 0.433 8.16 20.49 13.48
12/7/2020 6:45:00 PM 2.93 37.274 0.433 8.16 20.33 13.47
12/7/2020 7:00:00 PM 2.91 37.238 0.433 8.16 21.41 13.43
12/7/2020 7:15:00 PM 2.89 37.202 0.433 8.15 20.55 13.38
12/7/2020 7:30:00 PM 2.89 37.202 0.433 8.15 19.91 13.37
12/7/2020 7:45:00 PM 2.86 37.148 0.434 8.16 22.65 13.32
12/7/2020 8:00:00 PM 2.86 37.148 0.433 8.14 20.21 13.28
12/7/2020 8:15:00 PM 2.86 37.148 0.434 8.15 20.55 13.32
12/7/2020 8:30:00 PM 2.86 37.148 0.434 8.15 20.12 13.24
12/7/2020 8:45:00 PM 2.85 37.13 0.434 8.14 20.52 13.27
12/7/2020 9:00:00 PM 2.86 37.148 0.434 8.14 23.29 13.23
12/7/2020 9:15:00 PM 2.86 37.148 0.435 8.13 22.09 13.19
12/7/2020 9:30:00 PM 2.86 37.148 0.435 8.13 19.88 13.15
12/7/2020 9:45:00 PM 2.87 37.166 0.435 8.12 16.92 13.13
12/7/2020 10:00:00 PM 2.87 37.166 0.435 8.12 16.02 13.05
12/7/2020 10:15:00 PM 2.87 37.166 0.435 8.11 15.96 12.96
12/7/2020 10:30:00 PM 2.86 37.148 0.436 8.1 15.1 12.89
12/7/2020 10:45:00 PM 2.84 37.112 0.436 8.11 15.11 12.94
12/7/2020 11:00:00 PM 2.84 37.112 0.435 8.1 14.87 13
12/7/2020 11:15:00 PM 2.83 37.094 0.436 8.09 14.83 12.9
12/7/2020 11:30:00 PM 2.83 37.094 0.436 8.09 14.98 12.85
12/7/2020 11:45:00 PM 2.83 37.094 0.437 8.08 15.03 12.82
12/8/2020 12:00:00 AM 2.82 37.076 0.437 8.08 14.8 12.74
12/8/2020 12:15:00 AM 2.81 37.058 0.438 8.07 14.98 12.68
12/8/2020 12:30:00 AM 2.8 37.04 0.439 8.03 15.21 12.52
12/8/2020 12:45:00 AM 2.78 37.004 0.438 8.02 15.2 12.57
12/8/2020 1:00:00 AM 2.78 37.004 0.439 8.03 14.8 12.55
12/8/2020 1:15:00 AM 2.76 36.968 0.438 8.03 14.73 12.56
12/8/2020 1:30:00 AM 2.76 36.968 0.442 8.02 15.09 12.57
12/8/2020 1:45:00 AM 2.74 36.932 0.44 8.02 14.98 12.47
12/8/2020 2:00:00 AM 2.74 36.932 0.439 8.03 15.26 12.51
12/8/2020 2:15:00 AM 2.74 36.932 0.439 8.03 15.2 12.42
12/8/2020 2:30:00 AM 2.72 36.896 0.438 8.03 14.82 12.44
12/8/2020 2:45:00 AM 2.71 36.878 0.439 8.04 15.22 12.38
12/8/2020 3:00:00 AM 2.68 36.824 0.439 8.03 15.67 12.37
12/8/2020 3:15:00 AM 2.66 36.788 0.439 8.03 15.18 12.36
12/8/2020 3:30:00 AM 2.65 36.77 0.441 8.03 14.95 12.32
12/8/2020 3:45:00 AM 2.63 36.734 0.44 8.03 15.28 12.22
12/8/2020 4:00:00 AM 2.61 36.698 0.441 8.02 14.91 12.18
12/8/2020 4:15:00 AM 2.61 36.698 0.442 8.01 15.17 12.19
12/8/2020 4:30:00 AM 2.59 36.662 0.442 8.01 15.54 12.1
12/8/2020 4:45:00 AM 2.56 36.608 0.441 8 16.74 11.97
12/8/2020 5:00:00 AM 2.54 36.572 0.442 7.99 15.59 11.94
12/8/2020 5:15:00 AM 2.54 36.572 0.444 7.99 16.09 11.87
12/8/2020 5:30:00 AM 2.5 36.5 0.444 7.97 17.16 11.71
12/8/2020 5:45:00 AM 2.46 36.428 0.444 7.97 16.03 11.74
12/8/2020 6:00:00 AM 2.43 36.374 0.444 7.97 16.92 11.75
12/8/2020 6:15:00 AM 2.4 36.32 0.446 7.96 16.24 11.82
12/8/2020 6:30:00 AM 2.36 36.248 0.445 7.95 17.01 11.8
12/8/2020 6:45:00 AM 2.35 36.23 0.446 7.96 16.83 11.73
12/8/2020 7:00:00 AM 2.32 36.176 0.444 7.94 16.88 11.73
12/8/2020 7:15:00 AM 2.34 36.212 0.445 7.94 17.39 11.66
12/8/2020 7:30:00 AM 2.34 36.212 0.445 7.93 16.87 11.57
12/8/2020 7:45:00 AM 2.31 36.158 0.445 7.94 17.87 11.64
12/8/2020 8:00:00 AM 2.29 36.122 0.445 7.93 17.58 11.61
12/8/2020 8:15:00 AM 2.27 36.086 0.445 7.93 17.62 11.61
12/8/2020 8:30:00 AM 2.27 36.086 0.445 7.93 17.72 11.49
12/8/2020 8:45:00 AM 2.27 36.086 0.446 7.92 18.92 11.43
12/8/2020 9:00:00 AM 2.26 36.068 0.446 7.92 17.36 11.48
12/8/2020 9:15:00 AM 2.27 36.086 0.447 7.92 17.85 11.56
12/8/2020 9:30:00 AM 2.27 36.086 0.446 7.93 17.71 11.69
12/8/2020 9:45:00 AM 2.31 36.158 0.448 7.93 17.38 11.6
12/8/2020 10:00:00 AM 2.34 36.212 0.448 7.92 17.41 11.62
12/8/2020 10:15:00 AM 2.35 36.23 0.447 7.93 17.69 11.94
12/8/2020 10:30:00 AM 2.37 36.266 0.447 7.94 17.62 12.06
12/8/2020 10:45:00 AM 2.39 36.302 0.447 7.95 17.58 12.17
12/8/2020 11:00:00 AM 2.42 36.356 0.447 7.96 17.39 12.26
12/8/2020 11:15:00 AM 2.45 36.41 0.448 7.96 17.33 12.29
12/8/2020 11:30:00 AM 2.49 36.482 0.448 7.97 17.34 12.46
12/8/2020 11:45:00 AM 2.54 36.572 0.447 7.98 17.48 12.61
12/8/2020 12:00:00 PM 2.62 36.716 0.447 7.98 17.45 12.6
12/8/2020 12:15:00 PM 2.69 36.842 0.447 7.99 17.28 12.64
12/8/2020 12:30:00 PM 2.78 37.004 0.447 7.99 17.66 12.7
12/8/2020 12:45:00 PM 2.85 37.13 0.447 8.01 17.3 12.75
12/8/2020 1:00:00 PM 2.91 37.238 0.446 8.01 17.24 12.82
12/8/2020 1:15:00 PM 2.97 37.346 0.447 8.02 17.21 12.89
12/8/2020 1:30:00 PM 3.01 37.418 0.447 8.02 17.23 12.9
12/8/2020 1:45:00 PM 3.04 37.472 0.447 8.03 17.18 12.9
12/8/2020 2:00:00 PM 3.06 37.508 0.447 8.03 17.46 12.94
12/8/2020 2:15:00 PM 3.08 37.544 0.447 8.04 17.4 13.03
12/8/2020 2:30:00 PM 3.09 37.562 0.448 8.03 17.44 13.05
12/8/2020 2:45:00 PM 3.08 37.544 0.448 8.03 17.17 13.04
12/8/2020 3:00:00 PM 3.05 37.49 0.448 8.04 17.39 13
12/8/2020 3:15:00 PM 3.01 37.418 0.448 8.04 17.59 13.02
12/8/2020 3:30:00 PM 2.98 37.364 0.449 8.05 17.4 13
12/8/2020 3:45:00 PM 2.95 37.31 0.449 8.06 17.3 13.03
12/8/2020 4:00:00 PM 2.92 37.256 0.448 8.07 17.55 13.06
12/8/2020 4:15:00 PM 2.9 37.22 0.449 8.05 17.68 12.93
12/8/2020 4:30:00 PM 2.86 37.148 0.449 8.06 17.46 12.87
12/8/2020 4:45:00 PM 2.75 36.95 0.446 8.08 21.68 13.17
12/8/2020 5:00:00 PM 2.7 36.86 0.447 8.1 18.45 13.42
12/8/2020 5:15:00 PM 2.71 36.878 0.448 8.08 18.22 13.1
12/8/2020 5:30:00 PM 2.68 36.824 0.448 8.09 18.58 13.02
12/8/2020 5:45:00 PM 2.67 36.806 0.448 8.08 18.05 12.94
12/8/2020 6:00:00 PM 2.63 36.734 0.448 8.07 17.75 12.86
12/8/2020 6:15:00 PM 2.63 36.734 0.448 8.08 17.96 12.86
12/8/2020 6:30:00 PM 2.63 36.734 0.448 8.07 18.03 12.9
12/8/2020 6:45:00 PM 2.62 36.716 0.449 8.07 17.89 12.81
12/8/2020 7:00:00 PM 2.6 36.68 0.448 8.06 17.7 12.87
12/8/2020 7:15:00 PM 2.6 36.68 0.449 8.07 18.01 12.84
12/8/2020 7:30:00 PM 2.58 36.644 0.448 8.07 18.18 12.88
12/8/2020 7:45:00 PM 2.59 36.662 0.449 8.07 17.97 12.92
12/8/2020 8:00:00 PM 2.56 36.608 0.448 8.08 18.98 12.93
12/8/2020 8:15:00 PM 2.57 36.626 0.449 8.08 18.26 13
12/8/2020 8:30:00 PM 2.57 36.626 0.448 8.09 18.29 13.04
12/8/2020 8:45:00 PM 2.61 36.698 0.449 8.08 18.2 12.81
12/8/2020 9:00:00 PM 2.62 36.716 0.449 8.08 18.36 12.73
12/8/2020 9:15:00 PM 2.63 36.734 0.449 8.08 19.49 12.75
12/8/2020 9:30:00 PM 2.64 36.752 0.449 8.07 18.85 12.68
12/8/2020 9:45:00 PM 2.63 36.734 0.449 8.07 18.81 12.72
12/8/2020 10:00:00 PM 2.64 36.752 0.451 8.07 18.91 12.67
12/8/2020 10:15:00 PM 2.62 36.716 0.449 8.06 18.84 12.73
12/8/2020 10:30:00 PM 2.61 36.698 0.45 8.06 18.71 12.66
12/8/2020 10:45:00 PM 2.58 36.644 0.45 8.05 18.71 12.59
12/8/2020 11:00:00 PM 2.57 36.626 0.45 8.05 18.57 12.61
12/8/2020 11:15:00 PM 2.56 36.608 0.449 8.06 19.27 12.56
12/8/2020 11:30:00 PM 2.57 36.626 0.45 8.05 19.26 12.47
12/8/2020 11:45:00 PM 2.55 36.59 0.452 8.04 19.12 12.47
12/9/2020 12:00:00 AM 2.56 36.608 0.451 8.02 19.07 12.37
12/9/2020 12:15:00 AM 2.56 36.608 0.451 8.03 19.32 12.44
12/9/2020 12:30:00 AM 2.57 36.626 0.451 8.03 19.06 12.48
12/9/2020 12:45:00 AM 2.58 36.644 0.451 8.02 19.97 12.44
12/9/2020 1:00:00 AM 2.59 36.662 0.451 8.02 19.64 12.33
12/9/2020 1:15:00 AM 2.61 36.698 0.451 8.01 21.82 12.31
12/9/2020 1:30:00 AM 2.63 36.734 0.452 8.01 22.83 12.35
12/9/2020 1:45:00 AM 2.63 36.734 0.452 8.02 21.02 12.29
12/9/2020 2:00:00 AM 2.64 36.752 0.453 8.01 19.97 12.32
12/9/2020 2:15:00 AM 2.64 36.752 0.452 8.02 19.38 12.28
12/9/2020 2:30:00 AM 2.65 36.77 0.452 8.01 19.16 12.19
12/9/2020 2:45:00 AM 2.65 36.77 0.452 8.02 19.43 12.24
12/9/2020 3:00:00 AM 2.65 36.77 0.452 8 19.28 12.14
12/9/2020 3:15:00 AM 2.65 36.77 0.452 8.01 19.38 12.17
12/9/2020 3:30:00 AM 2.67 36.806 0.452 8.01 19.72 12.16
12/9/2020 3:45:00 AM 2.66 36.788 0.452 8.01 19.78 12.18
12/9/2020 4:00:00 AM 2.69 36.842 0.453 8 19.2 12.12
12/9/2020 4:15:00 AM 2.67 36.806 0.453 8.01 19.43 12.17
12/9/2020 4:30:00 AM 2.66 36.788 0.453 8.01 19.77 12.11
12/9/2020 4:45:00 AM 2.66 36.788 0.453 8 20.08 12.06
12/9/2020 5:00:00 AM 2.67 36.806 0.454 8 19.39 12
12/9/2020 5:15:00 AM 2.66 36.788 0.454 8 19.24 11.97
12/9/2020 5:30:00 AM 2.66 36.788 0.454 8 19.24 11.93
12/9/2020 5:45:00 AM 2.64 36.752 0.454 7.99 19.4 11.88
12/9/2020 6:00:00 AM 2.64 36.752 0.455 7.99 18.94 11.89
12/9/2020 6:15:00 AM 2.64 36.752 0.455 7.99 19 11.81
12/9/2020 6:30:00 AM 2.64 36.752 0.456 7.98 19.18 11.79
12/9/2020 6:45:00 AM 2.64 36.752 0.456 7.98 18.87 11.77
12/9/2020 7:00:00 AM 2.64 36.752 0.456 7.96 18.82 11.54
12/9/2020 7:15:00 AM 2.63 36.734 0.457 7.95 19.06 11.44
12/9/2020 7:30:00 AM 2.64 36.752 0.457 7.93 19.11 11.35
12/9/2020 7:45:00 AM 2.61 36.698 0.457 7.93 19.21 11.22
12/9/2020 8:00:00 AM 2.57 36.626 0.458 7.93 19.1 11.4
12/9/2020 8:15:00 AM 2.53 36.554 0.458 7.93 19.82 11.37
12/9/2020 8:30:00 AM 2.49 36.482 0.458 7.92 18.48 11.31
12/9/2020 8:45:00 AM 2.45 36.41 0.459 7.93 18.72 11.44
12/9/2020 9:00:00 AM 2.35 36.23 0.458 7.93 18.58 11.62
12/9/2020 9:15:00 AM 2.31 36.158 0.458 7.94 18.46 11.79
12/9/2020 9:30:00 AM 2.28 36.104 0.458 7.95 18.6 11.9
12/9/2020 9:45:00 AM 2.28 36.104 0.459 7.94 18.91 11.72
12/9/2020 10:00:00 AM 2.23 36.014 0.458 7.95 18.46 11.98
12/9/2020 10:15:00 AM 2.24 36.032 0.459 7.95 18.42 11.98
12/9/2020 10:30:00 AM 2.26 36.068 0.458 7.95 18.55 12.03
12/9/2020 10:45:00 AM 2.27 36.086 0.459 7.96 18.34 12.01
12/9/2020 11:00:00 AM 2.27 36.086 0.458 7.96 23.17 12.04
12/9/2020 11:15:00 AM 2.28 36.104 0.458 7.99 22.55 12.33
12/9/2020 11:30:00 AM 2.36 36.248 0.459 8 19.61 12.32
12/9/2020 11:45:00 AM 2.37 36.266 0.459 8 19.55 12.31
12/9/2020 12:00:00 PM 2.37 36.266 0.458 8 19.13 12.55
12/9/2020 12:15:00 PM 2.4 36.32 0.459 8.01 18.95 12.58
12/9/2020 12:30:00 PM 2.42 36.356 0.458 8.02 20.24 12.71
12/9/2020 12:45:00 PM 2.46 36.428 0.459 8.02 18.75 12.66
12/9/2020 1:00:00 PM 2.48 36.464 0.459 8.02 18.81 12.73
12/9/2020 1:15:00 PM 2.51 36.518 0.459 8.03 18.6 12.78
12/9/2020 1:30:00 PM 2.53 36.554 0.459 8.03 19.2 12.87
12/9/2020 1:45:00 PM 2.55 36.59 0.459 8.04 18.99 12.91
12/9/2020 2:00:00 PM 2.57 36.626 0.459 8.05 18.67 13.02
12/9/2020 2:15:00 PM 2.6 36.68 0.459 8.06 19.3 13.08
12/9/2020 2:30:00 PM 2.61 36.698 0.459 8.07 18.43 13.17
12/9/2020 2:45:00 PM 2.63 36.734 0.459 8.06 19.71 13.07
12/9/2020 3:00:00 PM 2.64 36.752 0.459 8.06 18.54 13.16
12/9/2020 3:15:00 PM 2.65 36.77 0.459 8.07 18.8 13.21
12/9/2020 3:30:00 PM 2.66 36.788 0.459 8.07 18.4 13.17
12/9/2020 3:45:00 PM 2.66 36.788 0.459 8.08 18.47 13.26
12/9/2020 4:00:00 PM 2.66 36.788 0.459 8.08 18.34 13.2
12/9/2020 4:15:00 PM 2.67 36.806 0.459 8.08 18.39 13.14
12/9/2020 4:30:00 PM 2.67 36.806 0.459 8.08 18.24 13.19
12/9/2020 4:45:00 PM 2.68 36.824 0.459 8.08 18.18 13.12
12/9/2020 5:00:00 PM 2.69 36.842 0.46 8.08 18.41 13.05
12/9/2020 5:15:00 PM 2.71 36.878 0.46 8.07 18.3 12.95
12/9/2020 5:30:00 PM 2.72 36.896 0.461 8.06 18.37 12.81
12/9/2020 5:45:00 PM 2.75 36.95 0.461 8.05 18.12 12.68
12/9/2020 6:00:00 PM 2.75 36.95 0.46 8.06 18.05 12.72
12/9/2020 6:15:00 PM 2.76 36.968 0.461 8.06 18.3 12.68
12/9/2020 6:30:00 PM 2.78 37.004 0.461 8.06 18.29 12.69
12/9/2020 6:45:00 PM 2.81 37.058 0.461 8.06 18.5 12.68
12/9/2020 7:00:00 PM 2.82 37.076 0.461 8.06 18.24 12.7
12/9/2020 7:15:00 PM 2.85 37.13 0.461 8.06 18.26 12.68
12/9/2020 7:30:00 PM 2.86 37.148 0.461 8.05 18.49 12.61
12/9/2020 7:45:00 PM 2.88 37.184 0.461 8.06 18.22 12.57
12/9/2020 8:00:00 PM 2.89 37.202 0.462 8.05 18.3 12.6
12/9/2020 8:15:00 PM 2.91 37.238 0.462 8.05 18.38 12.56
12/9/2020 8:30:00 PM 2.92 37.256 0.462 8.05 18.45 12.54
12/9/2020 8:45:00 PM 2.94 37.292 0.462 8.05 18.56 12.52
12/9/2020 9:00:00 PM 2.95 37.31 0.462 8.05 18.88 12.47
12/9/2020 9:15:00 PM 2.96 37.328 0.462 8.04 18.67 12.47
12/9/2020 9:30:00 PM 2.97 37.346 0.462 8.04 19.14 12.45
12/9/2020 9:45:00 PM 2.98 37.364 0.462 8.04 19.16 12.42
12/9/2020 10:00:00 PM 2.99 37.382 0.462 8.04 19.03 12.43
12/9/2020 10:15:00 PM 3 37.4 0.462 8.03 19.05 12.41
12/9/2020 10:30:00 PM 3.01 37.418 0.462 8.03 19.4 12.37
12/9/2020 10:45:00 PM 3.03 37.454 0.462 8.03 19.16 12.3
12/9/2020 11:00:00 PM 3.04 37.472 0.462 8.02 19.25 12.32
12/9/2020 11:15:00 PM 3.04 37.472 0.462 8.02 19.64 12.28
12/9/2020 11:30:00 PM 3.06 37.508 0.462 8.02 19.31 12.26
12/9/2020 11:45:00 PM 3.07 37.526 0.462 8.01 19.98 12.18
12/10/2020 12:00:00 AM 3.07 37.526 0.462 8.01 19.77 12.21
12/10/2020 12:15:00 AM 3.08 37.544 0.463 8.01 19.34 12.23
12/10/2020 12:30:00 AM 3.09 37.562 0.462 8.01 19.93 12.28
12/10/2020 12:45:00 AM 3.11 37.598 0.465 8 19.48 12.24
12/10/2020 1:00:00 AM 3.12 37.616 0.465 7.99 19.37 12.19
12/10/2020 1:15:00 AM 3.13 37.634 0.464 7.99 19.86 12.22
12/10/2020 1:30:00 AM 3.14 37.652 0.463 7.99 19.39 12.23
12/10/2020 1:45:00 AM 3.16 37.688 0.463 8 19.28 12.24
12/10/2020 2:00:00 AM 3.17 37.706 0.463 8 20.27 12.17
12/10/2020 2:15:00 AM 3.17 37.706 0.463 8 19.3 12.12
12/10/2020 2:30:00 AM 3.2 37.76 0.463 8 20.12 12.13
12/10/2020 2:45:00 AM 3.2 37.76 0.465 8 19.31 12.12
12/10/2020 3:00:00 AM 3.22 37.796 0.464 7.99 21.71 12.06
12/10/2020 3:15:00 AM 3.23 37.814 0.464 7.99 19.46 12.09
12/10/2020 3:30:00 AM 3.25 37.85 0.464 8 20.69 12.13
12/10/2020 3:45:00 AM 3.26 37.868 0.464 8.01 19.61 12.08
12/10/2020 4:00:00 AM 3.28 37.904 0.465 8 19.83 12.04
12/10/2020 4:15:00 AM 3.3 37.94 0.465 8 19.9 12.02
12/10/2020 4:30:00 AM 3.31 37.958 0.465 8 19.41 11.98
12/10/2020 4:45:00 AM 3.32 37.976 0.465 8 20.53 11.94
12/10/2020 5:00:00 AM 3.33 37.994 0.465 7.99 20.05 11.85
12/10/2020 5:15:00 AM 3.35 38.03 0.466 7.99 19.94 11.85
12/10/2020 5:30:00 AM 3.36 38.048 0.466 7.99 19.7 11.84
12/10/2020 5:45:00 AM 3.38 38.084 0.466 7.99 20.95 11.81
12/10/2020 6:00:00 AM 3.39 38.102 0.466 7.99 19.88 11.78
12/10/2020 6:15:00 AM 3.4 38.12 0.466 7.98 19.96 11.75
12/10/2020 6:30:00 AM 3.42 38.156 0.467 7.98 20.22 11.69
12/10/2020 6:45:00 AM 3.43 38.174 0.467 7.98 19.89 11.68
12/10/2020 7:00:00 AM 3.44 38.192 0.467 7.92 48.23 11.04
12/10/2020 7:15:00 AM 3.46 38.228 0.467 7.96 25.85 11.41
12/10/2020 7:30:00 AM 3.46 38.228 0.467 7.96 23.68 11.66
12/10/2020 7:45:00 AM 3.47 38.246 0.467 7.97 22.27 11.7
12/10/2020 8:00:00 AM 3.48 38.264 0.468 7.97 21.19 11.65
12/10/2020 8:15:00 AM 3.5 38.3 0.468 7.97 21.23 11.67
12/10/2020 8:30:00 AM 3.51 38.318 0.47 7.97 21.54 11.69
12/10/2020 8:45:00 AM 3.53 38.354 0.472 7.97 101.88 11.58
12/10/2020 9:00:00 AM 3.55 38.39 0.47 7.97 28.85 11.8
12/10/2020 9:15:00 AM 3.58 38.444 0.47 7.98 27.54 11.75
12/10/2020 9:30:00 AM 3.61 38.498 0.47 7.98 25.04 11.88
12/10/2020 9:45:00 AM 3.64 38.552 0.47 7.99 27.84 11.9
12/10/2020 10:00:00 AM 3.68 38.624 0.47 7.99 24.88 12.08
12/10/2020 10:15:00 AM 3.73 38.714 0.47 8.01 24.55 12.11
12/10/2020 10:30:00 AM 3.78 38.804 0.471 8.01 23.26 12.09
12/10/2020 10:45:00 AM 3.83 38.894 0.471 8.01 22.12 12.16
12/10/2020 11:00:00 AM 3.87 38.966 0.471 8.02 23.17 12.28
12/10/2020 11:15:00 AM 3.91 39.038 0.471 8.02 30.59 12.35
12/10/2020 11:30:00 AM 3.96 39.128 0.47 8.04 22.22 12.45
12/10/2020 11:45:00 AM 3.99 39.182 0.47 8.05 21.97 12.63
12/10/2020 12:00:00 PM 4.02 39.236 0.47 8.06 22.79 12.67
12/10/2020 12:15:00 PM 4.06 39.308 0.47 8.06 21.96 12.65
12/10/2020 12:30:00 PM 4.11 39.398 0.47 8.07 21.96 12.89
12/10/2020 12:45:00 PM 4.15 39.47 0.47 8.09 21.53 12.97
12/10/2020 1:00:00 PM 4.19 39.542 0.47 8.1 21.45 12.96
12/10/2020 1:15:00 PM 4.23 39.614 0.469 8.1 22.2 13.11
12/10/2020 1:30:00 PM 4.28 39.704 0.469 8.11 30.49 13.03
12/10/2020 1:45:00 PM 4.32 39.776 0.469 8.11 30.28 13.29
12/10/2020 2:00:00 PM 4.36 39.848 0.469 8.12 24.08 13.24
12/10/2020 2:15:00 PM 4.39 39.902 0.469 8.11 37.87 13.2
12/10/2020 2:30:00 PM 4.42 39.956 0.469 8.11 24.57 13.19
12/10/2020 2:45:00 PM 4.44 39.992 0.469 8.11 23.92 13.28
12/10/2020 3:00:00 PM 4.46 40.028 0.469 8.13 24.51 13.29
12/10/2020 3:15:00 PM 4.47 40.046 0.468 8.13 22.71 13.27
12/10/2020 3:30:00 PM 4.48 40.064 0.468 8.13 23.29 13.35
12/10/2020 3:45:00 PM 4.48 40.064 0.468 8.14 21.95 13.39
12/10/2020 4:00:00 PM 4.47 40.046 0.468 8.15 21.68 13.45
12/10/2020 4:15:00 PM 4.46 40.028 0.468 8.16 22.89 13.46
12/10/2020 4:30:00 PM 4.44 39.992 0.468 8.15 26.4 13.43
12/10/2020 4:45:00 PM 4.41 39.938 0.468 8.16 24.22 13.39
12/10/2020 5:00:00 PM 4.38 39.884 0.468 8.16 22.21 13.37
12/10/2020 5:15:00 PM 4.34 39.812 0.468 8.16 21.71 13.3
12/10/2020 5:30:00 PM 4.31 39.758 0.468 8.16 21.79 13.32
12/10/2020 5:45:00 PM 4.29 39.722 0.468 8.16 22.39 13.2
12/10/2020 6:00:00 PM 4.27 39.686 0.468 8.16 22 13.2
12/10/2020 6:15:00 PM 4.25 39.65 0.468 8.16 21.93 13.17
12/10/2020 6:30:00 PM 4.24 39.632 0.469 8.17 21.68 13.17
12/10/2020 6:45:00 PM 4.23 39.614 0.468 8.16 22.37 13.08
12/10/2020 7:00:00 PM 4.21 39.578 0.469 8.16 22.01 13
12/10/2020 7:15:00 PM 4.19 39.542 0.469 8.15 21.97 12.99
12/10/2020 7:30:00 PM 4.17 39.506 0.469 8.16 21.63 12.97
12/10/2020 7:45:00 PM 4.15 39.47 0.469 8.15 22.56 12.87
12/10/2020 8:00:00 PM 4.13 39.434 0.469 8.15 22.16 12.85
12/10/2020 8:15:00 PM 4.1 39.38 0.47 8.15 22.28 12.86
12/10/2020 8:30:00 PM 4.08 39.344 0.47 8.15 22.1 12.83
12/10/2020 8:45:00 PM 4.06 39.308 0.47 8.15 21.88 12.79
12/10/2020 9:00:00 PM 4.03 39.254 0.47 8.14 22.31 12.76
12/10/2020 9:15:00 PM 4.02 39.236 0.47 8.14 21.93 12.71
12/10/2020 9:30:00 PM 3.99 39.182 0.471 8.14 22.26 12.71
12/10/2020 9:45:00 PM 3.97 39.146 0.472 8.14 22.3 12.67
12/10/2020 10:00:00 PM 3.95 39.11 0.471 8.13 21.9 12.65
12/10/2020 10:15:00 PM 3.94 39.092 0.472 8.13 22.13 12.59
12/10/2020 10:30:00 PM 3.91 39.038 0.472 8.12 22.05 12.61
12/10/2020 10:45:00 PM 3.88 38.984 0.472 8.13 22.22 12.57
12/10/2020 11:00:00 PM 3.86 38.948 0.473 8.12 22.64 12.63
12/10/2020 11:15:00 PM 3.84 38.912 0.473 8.12 22.68 12.54
12/10/2020 11:30:00 PM 3.82 38.876 0.473 8.11 22.71 12.52
12/10/2020 11:45:00 PM 3.8 38.84 0.473 8.11 22.61 12.45
12/11/2020 12:00:00 AM 3.76 38.768 0.474 8.11 22.26 12.41
12/11/2020 12:15:00 AM 3.74 38.732 0.474 8.1 22.4 12.37
12/11/2020 12:30:00 AM 3.7 38.66 0.474 8.1 22.55 12.4
12/11/2020 12:45:00 AM 3.67 38.606 0.474 8.1 22.55 12.44
12/11/2020 1:00:00 AM 3.64 38.552 0.474 8.09 23.14 12.38
12/11/2020 1:15:00 AM 3.62 38.516 0.474 8.09 23.24 12.35
12/11/2020 1:30:00 AM 3.59 38.462 0.475 8.08 22.22 12.32
12/11/2020 1:45:00 AM 3.57 38.426 0.475 8.08 22.47 12.22
12/11/2020 2:00:00 AM 3.53 38.354 0.475 8.07 23 12.11
12/11/2020 2:15:00 AM 3.5 38.3 0.475 8.07 23.16 12.15
12/11/2020 2:30:00 AM 3.48 38.264 0.475 8.07 22.21 12.14
12/11/2020 2:45:00 AM 3.46 38.228 0.476 8.06 22.63 12.03
12/11/2020 3:00:00 AM 3.44 38.192 0.476 8.05 22.65 11.96
12/11/2020 3:15:00 AM 3.41 38.138 0.476 8.05 22.58 12.02
12/11/2020 3:30:00 AM 3.4 38.12 0.476 8.05 22.53 12.07
12/11/2020 3:45:00 AM 3.38 38.084 0.477 8.05 22.38 11.96
12/11/2020 4:00:00 AM 3.34 38.012 0.477 8.04 22.47 11.89
12/11/2020 4:15:00 AM 3.33 37.994 0.477 8.03 22.55 11.89
12/11/2020 4:30:00 AM 3.32 37.976 0.477 8.04 22.23 11.82
12/11/2020 4:45:00 AM 3.31 37.958 0.478 8.04 22.28 11.85
12/11/2020 5:00:00 AM 3.26 37.868 0.478 8.04 22.65 11.87
12/11/2020 5:15:00 AM 3.25 37.85 0.478 8.04 22.31 11.77
12/11/2020 5:30:00 AM 3.22 37.796 0.479 8.03 22.87 11.77
12/11/2020 5:45:00 AM 3.21 37.778 0.479 8.03 22.56 11.79
12/11/2020 6:00:00 AM 3.2 37.76 0.479 8.03 22.39 11.67
12/11/2020 6:15:00 AM 3.16 37.688 0.479 8.02 22.38 11.65
12/11/2020 6:30:00 AM 3.13 37.634 0.48 8.02 22.23 11.67
12/11/2020 6:45:00 AM 3.12 37.616 0.481 8.01 22.89 11.48
12/11/2020 7:00:00 AM 3.12 37.616 0.481 8 22.83 11.3
12/11/2020 7:15:00 AM 3.07 37.526 0.482 7.98 22.46 11.22
12/11/2020 7:30:00 AM 3.03 37.454 0.482 7.98 22.38 11.21
12/11/2020 7:45:00 AM 3.03 37.454 0.483 7.98 24.1 11.2
12/11/2020 8:00:00 AM 2.94 37.292 0.485 7.98 22.87 11.33
12/11/2020 8:15:00 AM 2.95 37.31 0.485 7.99 23.32 11.3
12/11/2020 8:30:00 AM 2.9 37.22 0.484 7.99 22.82 11.47
12/11/2020 8:45:00 AM 2.94 37.292 0.485 8 22.57 11.51
12/11/2020 9:00:00 AM 2.94 37.292 0.486 7.99 22.85 11.46
12/11/2020 9:15:00 AM 2.88 37.184 0.485 8.01 23.07 11.67
12/11/2020 9:30:00 AM 2.91 37.238 0.486 8.03 22.28 12.01
12/11/2020 9:45:00 AM 2.91 37.238 0.486 8.03 22.27 12.07
12/11/2020 10:00:00 AM 2.96 37.328 0.487 8.04 22.11 12.15
12/11/2020 10:15:00 AM 2.98 37.364 0.487 8.04 27.11 12.2
12/11/2020 10:30:00 AM 3.03 37.454 0.488 8.04 23.94 12.23
12/11/2020 10:45:00 AM 3.06 37.508 0.488 8.05 22.99 12.33
12/11/2020 11:00:00 AM 3.09 37.562 0.489 8.06 22.19 12.5
12/11/2020 11:15:00 AM 3.16 37.688 0.49 8.06 22.12 12.51
12/11/2020 11:30:00 AM 3.23 37.814 0.49 8.06 22.27 12.65
12/11/2020 11:45:00 AM 3.31 37.958 0.491 8.06 21.83 12.71
12/11/2020 12:00:00 PM 3.39 38.102 0.491 8.07 22.13 12.63
12/11/2020 12:15:00 PM 3.46 38.228 0.492 8.07 23.84 12.78
12/11/2020 12:30:00 PM 3.54 38.372 0.492 8.08 22.47 12.79
12/11/2020 12:45:00 PM 3.62 38.516 0.492 8.08 21.95 12.96
12/11/2020 1:00:00 PM 3.69 38.642 0.492 8.09 23.15 13.07
12/11/2020 1:15:00 PM 3.76 38.768 0.495 8.02 56.46 12.35
12/11/2020 1:30:00 PM 3.83 38.894 0.496 8.05 28.02 12.88
12/11/2020 1:45:00 PM 3.91 39.038 0.498 8.08 22.4 13.06
12/11/2020 2:00:00 PM 3.96 39.128 0.497 8.09 22.15 13.18
12/11/2020 2:15:00 PM 4 39.2 0.497 8.09 22.39 13.21
12/11/2020 2:30:00 PM 4.02 39.236 0.498 8.09 23.53 13.32
12/11/2020 2:45:00 PM 4.05 39.29 0.501 8.1 22.1 13.34
12/11/2020 3:00:00 PM 4.08 39.344 0.499 8.12 22.42 13.32
12/11/2020 3:15:00 PM 4.09 39.362 0.498 8.12 21.9 13.41
12/11/2020 3:30:00 PM 4.09 39.362 0.496 8.14 22.46 13.46
12/11/2020 3:45:00 PM 4.08 39.344 0.496 8.15 21.05 13.41
12/11/2020 4:00:00 PM 4.06 39.308 0.497 8.15 20.93 13.54
12/11/2020 4:15:00 PM 4.04 39.272 0.497 8.16 21.23 13.47
12/11/2020 4:30:00 PM 4.03 39.254 0.499 8.16 23.82 13.48
12/11/2020 4:45:00 PM 4.01 39.218 0.498 8.14 22.25 13.4
12/11/2020 5:00:00 PM 3.97 39.146 0.499 8.16 21.33 13.32
12/11/2020 5:15:00 PM 3.96 39.128 0.499 8.16 21.83 13.37
12/11/2020 5:30:00 PM 3.93 39.074 0.5 8.16 21.77 13.25
12/11/2020 5:45:00 PM 3.9 39.02 0.5 8.16 21.24 13.35
12/11/2020 6:00:00 PM 3.88 38.984 0.503 8.15 170.4 12.95
12/11/2020 6:15:00 PM 3.87 38.966 0.502 8.13 32.76 13.22
12/11/2020 6:30:00 PM 3.86 38.948 0.501 8.15 26.03 13.24
12/11/2020 6:45:00 PM 3.84 38.912 0.502 8.15 26.3 13.19
12/11/2020 7:00:00 PM 3.83 38.894 0.502 8.16 26.07 13.14
12/11/2020 7:15:00 PM 3.83 38.894 0.503 8.15 23.61 13.11
12/11/2020 7:30:00 PM 3.83 38.894 0.503 8.16 25.6 13
12/11/2020 7:45:00 PM 3.82 38.876 0.503 8.16 23.58 12.99
12/11/2020 8:00:00 PM 3.83 38.894 0.504 8.16 22.91 13
12/11/2020 8:15:00 PM 3.84 38.912 0.504 8.16 24.05 12.98
12/11/2020 8:30:00 PM 3.86 38.948 0.505 8.15 30.7 12.99
12/11/2020 8:45:00 PM 3.86 38.948 0.505 8.15 30.05 13.04
12/11/2020 9:00:00 PM 3.88 38.984 0.505 8.15 28.48 13.01
12/11/2020 9:15:00 PM 3.89 39.002 0.505 8.15 25.14 12.93
12/11/2020 9:30:00 PM 3.9 39.02 0.506 8.15 24.46 12.94
12/11/2020 9:45:00 PM 3.92 39.056 0.506 8.15 23.91 12.89
12/11/2020 10:00:00 PM 3.93 39.074 0.507 8.15 23.58 12.8
12/11/2020 10:15:00 PM 3.93 39.074 0.507 8.14 23.92 12.83
12/11/2020 10:30:00 PM 3.93 39.074 0.507 8.15 23.37 12.81
12/11/2020 10:45:00 PM 3.92 39.056 0.508 8.14 23.99 12.82
12/11/2020 11:00:00 PM 3.92 39.056 0.508 8.14 23.93 12.75
12/11/2020 11:15:00 PM 3.92 39.056 0.508 8.13 24.49 12.78
12/11/2020 11:30:00 PM 3.92 39.056 0.509 8.13 23.9 12.71
12/11/2020 11:45:00 PM 3.92 39.056 0.509 8.12 24.99 12.7
12/12/2020 12:00:00 AM 3.92 39.056 0.51 8.11 24.15 12.63
12/12/2020 12:15:00 AM 3.91 39.038 0.51 8.11 24.81 12.61
12/12/2020 12:30:00 AM 3.91 39.038 0.51 8.11 24.28 12.5
12/12/2020 12:45:00 AM 3.9 39.02 0.511 8.1 25.14 12.54
12/12/2020 1:00:00 AM 3.91 39.038 0.511 8.1 24.74 12.4
12/12/2020 1:15:00 AM 3.9 39.02 0.511 8.1 23.88 12.49
12/12/2020 1:30:00 AM 3.9 39.02 0.512 8.09 24.11 12.29
12/12/2020 1:45:00 AM 3.89 39.002 0.512 8.09 24.22 12.41
12/12/2020 2:00:00 AM 3.88 38.984 0.512 8.08 23.46 12.35
12/12/2020 2:15:00 AM 3.87 38.966 0.512 8.08 25.8 12.34
12/12/2020 2:30:00 AM 3.88 38.984 0.513 8.07 23.85 12.28
12/12/2020 2:45:00 AM 3.87 38.966 0.514 8.07 24.7 12.28
12/12/2020 3:00:00 AM 3.86 38.948 0.515 8.06 24.66 12.12
12/12/2020 3:15:00 AM 3.86 38.948 0.515 8.02 24.34 11.98
12/12/2020 3:30:00 AM 3.85 38.93 0.516 8.03 25.15 11.98
12/12/2020 3:45:00 AM 3.83 38.894 0.516 8.03 23.95 12.06
12/12/2020 4:00:00 AM 3.83 38.894 0.516 8.02 23.72 12.02
12/12/2020 4:15:00 AM 3.83 38.894 0.517 8.03 23.67 11.96
12/12/2020 4:30:00 AM 3.83 38.894 0.515 8.03 23.4 11.95
12/12/2020 4:45:00 AM 3.81 38.858 0.516 8.02 23.49 11.92
12/12/2020 5:00:00 AM 3.8 38.84 0.515 8.03 24.1 11.89
12/12/2020 5:15:00 AM 3.78 38.804 0.514 8.03 27.15 11.5
12/12/2020 5:30:00 AM 3.77 38.786 0.515 8.04 24.65 11.77
12/12/2020 5:45:00 AM 3.77 38.786 0.515 8.04 24.42 11.88
12/12/2020 6:00:00 AM 3.75 38.75 0.515 8.04 24.51 11.87
12/12/2020 6:15:00 AM 3.75 38.75 0.514 8.04 23.91 11.86
12/12/2020 6:30:00 AM 3.75 38.75 0.514 8.04 24.44 11.8
12/12/2020 6:45:00 AM 3.75 38.75 0.514 8.03 23.86 11.76
12/12/2020 7:00:00 AM 3.75 38.75 0.514 8.03 24.91 11.65
12/12/2020 7:15:00 AM 3.75 38.75 0.514 8.02 24.92 11.53
12/12/2020 7:30:00 AM 3.72 38.696 0.514 8.01 25.97 11.58
12/12/2020 7:45:00 AM 3.72 38.696 0.513 8.02 26.85 11.46
12/12/2020 8:00:00 AM 3.7 38.66 0.513 8.02 26.07 11.58
12/12/2020 8:15:00 AM 3.71 38.678 0.514 8.01 33.57 11.49
12/12/2020 8:30:00 AM 3.71 38.678 0.514 8 29.85 11.46
12/12/2020 8:45:00 AM 3.72 38.696 0.514 8.01 28.35 11.48
12/12/2020 9:00:00 AM 3.72 38.696 0.514 8.01 26.91 11.53
12/12/2020 9:15:00 AM 3.73 38.714 0.515 8 24.23 11.58
12/12/2020 9:30:00 AM 3.75 38.75 0.514 7.99 24.41 11.59
12/12/2020 9:45:00 AM 3.77 38.786 0.514 8.01 25.34 11.57
12/12/2020 10:00:00 AM 3.79 38.822 0.516 8 24.91 11.63
12/12/2020 10:15:00 AM 3.82 38.876 0.515 7.97 30.57 11.7
12/12/2020 10:30:00 AM 3.83 38.894 0.515 8 25.22 11.81
12/12/2020 10:45:00 AM 3.85 38.93 0.515 8 23.93 11.81
12/12/2020 11:00:00 AM 3.89 39.002 0.515 8 25.19 11.88
12/12/2020 11:15:00 AM 3.94 39.092 0.514 8 23.91 11.94
12/12/2020 11:30:00 AM 3.98 39.164 0.513 8.02 23.54 12.23
12/12/2020 11:45:00 AM 4.03 39.254 0.513 8.03 25.15 12.37
12/12/2020 12:00:00 PM 4.08 39.344 0.513 8.04 23.7 12.38
12/12/2020 12:15:00 PM 4.11 39.398 0.514 8.04 23.7 12.55
12/12/2020 12:30:00 PM 4.16 39.488 0.514 8.04 23.11 12.68
12/12/2020 12:45:00 PM 4.21 39.578 0.513 8.05 22.87 12.55
12/12/2020 1:00:00 PM 4.26 39.668 0.512 8.06 24.26 12.7
12/12/2020 1:15:00 PM 4.31 39.758 0.512 8.07 23.18 12.76
12/12/2020 1:30:00 PM 4.37 39.866 0.513 8.07 27.98 12.76
12/12/2020 1:45:00 PM 4.43 39.974 0.51 8.09 24.47 13.05
12/12/2020 2:00:00 PM 4.51 40.118 0.509 8.08 30.04 12.98
12/12/2020 2:15:00 PM 4.56 40.208 0.509 8.09 25.01 13.1
12/12/2020 2:30:00 PM 4.61 40.298 0.509 8.1 25.6 13.12
12/12/2020 2:45:00 PM 4.64 40.352 0.509 8.11 26.08 13.09
12/12/2020 3:00:00 PM 4.67 40.406 0.509 8.11 25.73 13.16
12/12/2020 3:15:00 PM 4.69 40.442 0.508 8.13 25.06 13.45
12/12/2020 3:30:00 PM 4.72 40.496 0.508 8.12 24.88 13.18
12/12/2020 3:45:00 PM 4.78 40.604 0.507 8.13 24.05 13.28
12/12/2020 4:00:00 PM 4.82 40.676 0.507 8.14 24.53 13.39
12/12/2020 4:15:00 PM 4.85 40.73 0.506 8.14 23.6 13.39
12/12/2020 4:30:00 PM 4.86 40.748 0.509 8.13 23.32 13.29
12/12/2020 4:45:00 PM 4.88 40.784 0.507 8.12 23.84 13.27
12/12/2020 5:00:00 PM 4.89 40.802 0.507 8.12 24.21 13.08
12/12/2020 5:15:00 PM 4.9 40.82 0.507 8.12 23.52 13.12
12/12/2020 5:30:00 PM 4.91 40.838 0.506 8.12 23.91 13.02
12/12/2020 5:45:00 PM 4.93 40.874 0.506 8.12 25.41 13.03
12/12/2020 6:00:00 PM 4.94 40.892 0.506 8.12 24.28 12.8
12/12/2020 6:15:00 PM 4.95 40.91 0.507 8.12 28.71 12.92
12/12/2020 6:30:00 PM 4.97 40.946 0.506 8.12 28.08 12.7
12/12/2020 6:45:00 PM 4.99 40.982 0.505 8.12 24.91 12.69
12/12/2020 7:00:00 PM 5 41 0.505 8.12 24.67 12.69
12/12/2020 7:15:00 PM 5.02 41.036 0.506 8.12 24.95 12.5
12/12/2020 7:30:00 PM 5.03 41.054 0.504 8.12 24.75 12.64
12/12/2020 7:45:00 PM 5.05 41.09 0.504 8.12 23.82 12.56
12/12/2020 8:00:00 PM 5.07 41.126 0.503 8.12 23.56 12.52
12/12/2020 8:15:00 PM 5.08 41.144 0.507 8.12 26.57 12.14
12/12/2020 8:30:00 PM 5.1 41.18 0.503 8.12 26.34 12.54
12/12/2020 8:45:00 PM 5.12 41.216 0.502 8.12 24.56 12.45
12/12/2020 9:00:00 PM 5.13 41.234 0.502 8.12 24.74 12.43
12/12/2020 9:15:00 PM 5.14 41.252 0.502 8.12 24.52 12.38
12/12/2020 9:30:00 PM 5.15 41.27 0.502 8.12 24.11 12.38
12/12/2020 9:45:00 PM 5.16 41.288 0.502 8.12 27.29 12.26
12/12/2020 10:00:00 PM 5.18 41.324 0.501 8.12 26.15 12.22
12/12/2020 10:15:00 PM 5.19 41.342 0.501 8.12 25.97 12.17
12/12/2020 10:30:00 PM 5.21 41.378 0.501 8.12 28.58 12.22
12/12/2020 10:45:00 PM 5.22 41.396 0.501 8.11 26.15 12.14
12/12/2020 11:00:00 PM 5.24 41.432 0.501 8.11 30.37 12.21
12/12/2020 11:15:00 PM 5.25 41.45 0.501 8.1 208.38 12.09
12/12/2020 11:30:00 PM 5.27 41.486 0.5 8.1 34.36 12.32
12/12/2020 11:45:00 PM 5.28 41.504 0.501 8.1 30.07 12.25
12/13/2020 12:00:00 AM 5.29 41.522 0.501 8.09 29.31 12.1
12/13/2020 12:15:00 AM 5.3 41.54 0.502 8.09 26.63 12.12
12/13/2020 12:30:00 AM 5.32 41.576 0.502 8.07 26.32 11.98
12/13/2020 12:45:00 AM 5.33 41.594 0.502 8.06 25.82 11.98
12/13/2020 1:00:00 AM 5.34 41.612 0.501 8.06 25.47 11.95
12/13/2020 1:15:00 AM 5.36 41.648 0.501 8.05 25.35 11.87
12/13/2020 1:30:00 AM 5.38 41.684 0.501 8.05 25.31 11.77
12/13/2020 1:45:00 AM 5.41 41.738 0.5 8.04 25.3 11.77
12/13/2020 2:00:00 AM 5.44 41.792 0.501 8.04 25.21 11.68
12/13/2020 2:15:00 AM 5.48 41.864 0.503 8.01 27.19 11.35
12/13/2020 2:30:00 AM 5.51 41.918 0.502 8 27.46 11.27
12/13/2020 2:45:00 AM 5.56 42.008 0.5 8.02 26.04 11.63
12/13/2020 3:00:00 AM 5.6 42.08 0.499 8.02 25.96 11.58
12/13/2020 3:15:00 AM 5.64 42.152 0.499 8.03 26.53 11.61
12/13/2020 3:30:00 AM 5.68 42.224 0.499 8.03 25.67 11.6
12/13/2020 3:45:00 AM 5.7 42.26 0.499 8.03 26.15 11.54
12/13/2020 4:00:00 AM 5.71 42.278 0.499 8.03 25.59 11.55
12/13/2020 4:15:00 AM 5.71 42.278 0.498 8.02 27.24 11.59
12/13/2020 4:30:00 AM 5.72 42.296 0.498 8.03 25.15 11.46
12/13/2020 4:45:00 AM 5.73 42.314 0.498 8.03 25.07 11.38
12/13/2020 5:00:00 AM 5.74 42.332 0.498 8.02 24.94 11.39
12/13/2020 5:15:00 AM 5.74 42.332 0.5 8.01 24.83 11.2
12/13/2020 5:30:00 AM 5.76 42.368 0.499 8.02 24.64 11.24
12/13/2020 5:45:00 AM 5.77 42.386 0.498 8.02 27.58 11.16
12/13/2020 6:00:00 AM 5.77 42.386 0.498 8.02 25.49 11.27
12/13/2020 6:15:00 AM 5.76 42.368 0.502 7.99 26.92 10.86
12/13/2020 6:30:00 AM 5.79 42.422 0.498 8.01 27.54 11.07
12/13/2020 6:45:00 AM 5.81 42.458 0.498 8.01 26.26 11.01
12/13/2020 7:00:00 AM 5.83 42.494 0.498 8 25.66 10.99
12/13/2020 7:15:00 AM 5.85 42.53 0.498 8.01 25.24 10.94
12/13/2020 7:30:00 AM 5.86 42.548 0.498 7.99 25.15 10.73
12/13/2020 7:45:00 AM 5.87 42.566 0.499 7.99 25.81 10.81
12/13/2020 8:00:00 AM 5.88 42.584 0.498 7.98 23.75 10.75
12/13/2020 8:15:00 AM 5.9 42.62 0.498 7.99 23.89 10.7
12/13/2020 8:30:00 AM 5.91 42.638 0.498 8 23.48 10.88
12/13/2020 8:45:00 AM 5.92 42.656 0.498 7.99 24.02 10.89
12/13/2020 9:00:00 AM 5.94 42.692 0.497 8 23.87 10.85
12/13/2020 9:15:00 AM 5.95 42.71 0.498 8 26.44 10.87
12/13/2020 9:30:00 AM 5.98 42.764 0.497 7.99 24.78 10.95
12/13/2020 9:45:00 AM 6 42.8 0.498 7.97 33.18 10.75
12/13/2020 10:00:00 AM 6.03 42.854 0.499 7.97 27.81 10.79
12/13/2020 10:15:00 AM 6.07 42.926 0.499 7.97 25.74 10.83
12/13/2020 10:30:00 AM 6.1 42.98 0.499 7.98 25.24 10.84
12/13/2020 10:45:00 AM 6.14 43.052 0.497 7.99 24.82 11.07
12/13/2020 11:00:00 AM 6.17 43.106 0.498 8.01 24.56 11.15
12/13/2020 11:15:00 AM 6.19 43.142 0.498 8 23.92 11.09
12/13/2020 11:30:00 AM 6.23 43.214 0.498 8 26.19 11.25
12/13/2020 11:45:00 AM 6.25 43.25 0.498 8.01 24.03 11.4
12/13/2020 12:00:00 PM 6.3 43.34 0.497 8.02 23.89 11.44
12/13/2020 12:15:00 PM 6.39 43.502 0.497 8.05 23.75 11.78
12/13/2020 12:30:00 PM 6.42 43.556 0.498 8.05 24.26 11.74
12/13/2020 12:45:00 PM 6.49 43.682 0.499 8.04 23.56 11.64
12/13/2020 1:00:00 PM 6.58 43.844 0.496 8.04 23.76 11.78
12/13/2020 1:15:00 PM 6.63 43.934 0.496 8.07 23.11 11.94
12/13/2020 1:30:00 PM 6.65 43.97 0.495 8.09 22.8 12.13
12/13/2020 1:45:00 PM 6.64 43.952 0.495 8.1 23.28 12.38
12/13/2020 2:00:00 PM 6.67 44.006 0.497 8.09 24.07 12.11
12/13/2020 2:15:00 PM 6.69 44.042 0.496 8.1 23.24 12.29
12/13/2020 2:30:00 PM 6.69 44.042 0.495 8.12 23.82 12.4
12/13/2020 2:45:00 PM 6.66 43.988 0.495 8.12 23.29 12.47
12/13/2020 3:00:00 PM 6.64 43.952 0.495 8.14 24.1 12.55
12/13/2020 3:15:00 PM 6.61 43.898 0.495 8.15 23.17 12.58
12/13/2020 3:30:00 PM 6.58 43.844 0.495 8.15 23.2 12.58
12/13/2020 3:45:00 PM 6.55 43.79 0.495 8.16 23.11 12.59
12/13/2020 4:00:00 PM 6.52 43.736 0.495 8.16 22.45 12.54
12/13/2020 4:15:00 PM 6.5 43.7 0.494 8.15 22.99 12.52
12/13/2020 4:30:00 PM 6.45 43.61 0.494 8.16 22.63 12.5
12/13/2020 4:45:00 PM 6.41 43.538 0.495 8.15 23.94 12.43
12/13/2020 5:00:00 PM 6.38 43.484 0.494 8.16 23.51 12.46
12/13/2020 5:15:00 PM 6.34 43.412 0.494 8.16 22.46 12.42
12/13/2020 5:30:00 PM 6.31 43.358 0.494 8.15 23.3 12.39
12/13/2020 5:45:00 PM 6.28 43.304 0.494 8.16 23.24 12.3
12/13/2020 6:00:00 PM 6.24 43.232 0.494 8.16 23.56 12.34
12/13/2020 6:15:00 PM 6.22 43.196 0.494 8.15 23.03 12.28
12/13/2020 6:30:00 PM 6.21 43.178 0.494 8.16 23.39 12.22
12/13/2020 6:45:00 PM 6.19 43.142 0.495 8.15 22.87 12.22
12/13/2020 7:00:00 PM 6.18 43.124 0.494 8.15 23.99 12.11
12/13/2020 7:15:00 PM 6.16 43.088 0.494 8.15 23.79 12.09
12/13/2020 7:30:00 PM 6.15 43.07 0.494 8.15 24.32 12.05
12/13/2020 7:45:00 PM 6.14 43.052 0.495 8.15 22.89 12.03
12/13/2020 8:00:00 PM 6.13 43.034 0.494 8.14 23.8 12.02
12/13/2020 8:15:00 PM 6.12 43.016 0.494 8.15 23.73 12.02
12/13/2020 8:30:00 PM 6.12 43.016 0.495 8.15 24.19 12.02
12/13/2020 8:45:00 PM 6.11 42.998 0.495 8.14 22.73 11.96
12/13/2020 9:00:00 PM 6.1 42.98 0.494 8.14 24.24 11.97
12/13/2020 9:15:00 PM 6.1 42.98 0.494 8.14 23.13 11.93
12/13/2020 9:30:00 PM 6.09 42.962 0.494 8.14 23.17 11.96
12/13/2020 9:45:00 PM 6.09 42.962 0.494 8.14 22.78 11.92
12/13/2020 10:00:00 PM 6.08 42.944 0.494 8.14 22.85 11.9
12/13/2020 10:15:00 PM 6.08 42.944 0.494 8.14 22.92 11.82
12/13/2020 10:30:00 PM 6.07 42.926 0.494 8.14 23.62 11.82
12/13/2020 10:45:00 PM 6.07 42.926 0.494 8.14 23.6 11.86
12/13/2020 11:00:00 PM 6.06 42.908 0.493 8.14 24.17 11.88
12/13/2020 11:15:00 PM 6.06 42.908 0.493 8.14 23.9 11.82
12/13/2020 11:30:00 PM 6.04 42.872 0.493 8.14 23.94 11.8
12/13/2020 11:45:00 PM 6.03 42.854 0.493 8.13 23.56 11.79
12/14/2020 12:00:00 AM 6.02 42.836 0.493 8.13 24.13 11.79
12/14/2020 12:15:00 AM 6.01 42.818 0.493 8.12 23.27 11.68
12/14/2020 12:30:00 AM 6 42.8 0.494 8.11 23.44 11.57
12/14/2020 12:45:00 AM 5.98 42.764 0.494 8.1 33.66 11.56
12/14/2020 1:00:00 AM 5.98 42.764 0.494 8.09 24.86 11.53
12/14/2020 1:15:00 AM 5.96 42.728 0.493 8.08 24.4 11.56
12/14/2020 1:30:00 AM 5.95 42.71 0.493 8.08 24.43 11.52
12/14/2020 1:45:00 AM 5.93 42.674 0.493 8.08 25.67 11.43
12/14/2020 2:00:00 AM 5.91 42.638 0.493 8.08 24.33 11.39
12/14/2020 2:15:00 AM 5.9 42.62 0.493 8.07 24.81 11.38
12/14/2020 2:30:00 AM 5.89 42.602 0.493 8.07 24.99 11.39
12/14/2020 2:45:00 AM 5.88 42.584 0.493 8.06 24.37 11.3
12/14/2020 3:00:00 AM 5.87 42.566 0.493 8.05 25.12 11.27
12/14/2020 3:15:00 AM 5.87 42.566 0.495 8.05 24.65 11.22
12/14/2020 3:30:00 AM 5.86 42.548 0.492 8.05 24.6 11.19
12/14/2020 3:45:00 AM 5.85 42.53 0.492 8.05 24.75 11.23
12/14/2020 4:00:00 AM 5.84 42.512 0.492 8.05 24.83 11.25
12/14/2020 4:15:00 AM 5.83 42.494 0.492 8.05 25.26 11.22
12/14/2020 4:30:00 AM 5.82 42.476 0.492 8.05 24.64 11.24
12/14/2020 4:45:00 AM 5.81 42.458 0.491 8.05 25.49 11.23
12/14/2020 5:00:00 AM 5.8 42.44 0.494 8.04 24.75 11.15
12/14/2020 5:15:00 AM 5.79 42.422 0.491 8.05 24.31 11.2
12/14/2020 5:30:00 AM 5.78 42.404 0.491 8.05 24.34 11.13
12/14/2020 5:45:00 AM 5.77 42.386 0.491 8.05 24.64 11.16
12/14/2020 6:00:00 AM 5.75 42.35 0.491 8.04 24.86 11.1
12/14/2020 6:15:00 AM 5.71 42.278 0.492 8.04 24.08 11.02
12/14/2020 6:30:00 AM 5.68 42.224 0.491 8.04 24.24 11
12/14/2020 6:45:00 AM 5.63 42.134 0.491 8.04 24.91 11
12/14/2020 7:00:00 AM 5.58 42.044 0.491 8.03 25.04 10.98
12/14/2020 7:15:00 AM 5.57 42.026 0.491 8.03 24.29 10.99
12/14/2020 7:30:00 AM 5.53 41.954 0.494 8.03 24.06 10.96
12/14/2020 7:45:00 AM 5.48 41.864 0.49 8.03 24.93 10.95
12/14/2020 8:00:00 AM 5.44 41.792 0.49 8.03 24.48 10.9
12/14/2020 8:15:00 AM 5.4 41.72 0.49 8.02 23.75 10.9
12/14/2020 8:30:00 AM 5.37 41.666 0.491 8.02 24.43 10.87
12/14/2020 8:45:00 AM 5.34 41.612 0.491 8.02 24.17 10.8
12/14/2020 9:00:00 AM 5.32 41.576 0.491 8.01 24 10.74
12/14/2020 9:15:00 AM 5.31 41.558 0.493 8.01 24.6 10.71
12/14/2020 9:30:00 AM 5.29 41.522 0.491 8.01 23.62 10.79
12/14/2020 9:45:00 AM 5.29 41.522 0.492 8.01 23.59 10.76
12/14/2020 10:00:00 AM 5.28 41.504 0.492 8.01 24.42 10.88
12/14/2020 10:15:00 AM 5.28 41.504 0.493 8.02 24.55 10.95
12/14/2020 10:30:00 AM 5.29 41.522 0.493 8.01 24.12 11.06
12/14/2020 10:45:00 AM 5.3 41.54 0.494 8.02 23.87 11.08
12/14/2020 11:00:00 AM 5.3 41.54 0.492 8.02 23.77 11.2
12/14/2020 11:15:00 AM 5.31 41.558 0.492 8.03 23.87 11.44
12/14/2020 11:30:00 AM 5.32 41.576 0.493 8.03 23.43 11.24
12/14/2020 11:45:00 AM 5.33 41.594 0.492 8.03 23.55 11.39
12/14/2020 12:00:00 PM 5.34 41.612 0.493 8.04 24.02 11.55
12/14/2020 12:15:00 PM 5.34 41.612 0.493 8.05 25.56 11.47
12/14/2020 12:30:00 PM 5.35 41.63 0.493 8.06 24.69 11.71
12/14/2020 12:45:00 PM 5.37 41.666 0.493 8.07 24.19 11.78
12/14/2020 1:00:00 PM 5.37 41.666 0.493 8.07 24.63 11.91
12/14/2020 1:15:00 PM 5.37 41.666 0.493 8.07 26.06 11.95
12/14/2020 1:30:00 PM 5.37 41.666 0.493 8.07 29.89 11.93
12/14/2020 1:45:00 PM 5.38 41.684 0.493 8.08 24.66 12
12/14/2020 2:00:00 PM 5.42 41.756 0.493 8.09 24.94 12.02
12/14/2020 2:15:00 PM 5.44 41.792 0.493 8.09 24.9 12.19
12/14/2020 2:30:00 PM 5.45 41.81 0.493 8.09 24.44 12.14
12/14/2020 2:45:00 PM 5.45 41.81 0.493 8.1 24.89 12.3
12/14/2020 3:00:00 PM 5.43 41.774 0.493 8.1 25.14 12.41
12/14/2020 3:15:00 PM 5.43 41.774 0.493 8.11 24.01 12.24
12/14/2020 3:30:00 PM 5.41 41.738 0.493 8.11 24.1 12.29
12/14/2020 3:45:00 PM 5.38 41.684 0.493 8.11 24.58 12.36
12/14/2020 4:00:00 PM 5.35 41.63 0.493 8.11 25.08 12.32
12/14/2020 4:15:00 PM 5.31 41.558 0.492 8.11 24.74 12.44
12/14/2020 4:30:00 PM 5.27 41.486 0.492 8.11 24.46 12.42
12/14/2020 4:45:00 PM 5.24 41.432 0.493 8.11 23.63 12.38
12/14/2020 5:00:00 PM 5.2 41.36 0.493 8.11 24.97 12.32
12/14/2020 5:15:00 PM 5.17 41.306 0.493 8.1 23.54 12.28
12/14/2020 5:30:00 PM 5.13 41.234 0.494 8.1 23.02 12.12
12/14/2020 5:45:00 PM 5.1 41.18 0.495 8.08 22.75 11.79
12/14/2020 6:00:00 PM 5.04 41.072 0.496 8.08 24.32 12.07
12/14/2020 6:15:00 PM 5.01 41.018 0.494 8.07 22.24 11.96
12/14/2020 6:30:00 PM 4.97 40.946 0.496 8.09 23.25 12.06
12/14/2020 6:45:00 PM 4.91 40.838 0.494 8.08 22.55 11.99
12/14/2020 7:00:00 PM 4.87 40.766 0.494 8.08 22.76 12.02
12/14/2020 7:15:00 PM 4.83 40.694 0.495 8.09 22.93 11.91
12/14/2020 7:30:00 PM 4.76 40.568 0.494 8.1 23.78 12.02
12/14/2020 7:45:00 PM 4.73 40.514 0.494 8.11 22.87 12.04
12/14/2020 8:00:00 PM 4.72 40.496 0.497 8.08 24.95 11.05
12/14/2020 8:15:00 PM 4.61 40.298 0.495 8.06 22.7 11.74
12/14/2020 8:30:00 PM 4.61 40.298 0.501 8.09 22.48 11.29
12/14/2020 8:45:00 PM 4.54 40.172 0.495 8.09 22.92 11.89
12/14/2020 9:00:00 PM 4.48 40.064 0.495 8.09 22.74 11.96
12/14/2020 9:15:00 PM 4.42 39.956 0.494 8.11 22.63 12.02
12/14/2020 9:30:00 PM 4.36 39.848 0.494 8.11 23.45 12.1
12/14/2020 9:45:00 PM 4.31 39.758 0.495 8.11 22.75 11.32
12/14/2020 10:00:00 PM 4.31 39.758 0.497 8.08 23.17 11.62
12/14/2020 10:15:00 PM 4.24 39.632 0.497 8.07 23.44 11.76
12/14/2020 10:30:00 PM 4.2 39.56 0.496 8.09 22.36 11.89
12/14/2020 10:45:00 PM 4.17 39.506 0.497 8.09 22.78 11.88
12/14/2020 11:00:00 PM 4.16 39.488 0.497 8.07 22.62 11.89
12/14/2020 11:15:00 PM 4.12 39.416 0.495 8.09 22.71 11.99
12/14/2020 11:30:00 PM 4.08 39.344 0.495 8.09 23.81 11.73
12/14/2020 11:45:00 PM 4.07 39.326 0.498 8.08 23.69 11.77
12/15/2020 12:00:00 AM 4.02 39.236 0.496 8.07 23.55 10.62
12/15/2020 12:15:00 AM 3.94 39.092 0.495 8.03 23.57 11.66
12/15/2020 12:30:00 AM 3.91 39.038 0.495 8.06 23.63 11.89
12/15/2020 12:45:00 AM 3.85 38.93 0.495 8.08 23.43 11.97
12/15/2020 1:00:00 AM 3.79 38.822 0.495 8.09 23.36 11.99
12/15/2020 1:15:00 AM 3.74 38.732 0.503 8.08 24.06 12
12/15/2020 1:30:00 AM 3.74 38.732 0.499 8.06 23.42 11.93
12/15/2020 1:45:00 AM 3.7 38.66 0.5 8.03 23.4 11.62
12/15/2020 2:00:00 AM 3.64 38.552 0.5 8 23.55 11.59
12/15/2020 2:15:00 AM 3.59 38.462 0.499 8.01 23.16 11.65
12/15/2020 2:30:00 AM 3.53 38.354 0.498 8.02 23.37 11.73
12/15/2020 2:45:00 AM 3.51 38.318 0.5 8.02 23.38 11.78
12/15/2020 3:00:00 AM 3.47 38.246 0.498 8.01 23.2 11.7
12/15/2020 3:15:00 AM 3.46 38.228 0.499 8.01 23.49 11.74
12/15/2020 3:30:00 AM 3.41 38.138 0.498 8.01 23.3 11.79
12/15/2020 3:45:00 AM 3.38 38.084 0.499 8.02 23.35 11.76
12/15/2020 4:00:00 AM 3.31 37.958 0.498 8.01 23.03 11.75
12/15/2020 4:15:00 AM 3.28 37.904 0.499 8.02 23.47 11.79
12/15/2020 4:30:00 AM 3.25 37.85 0.499 8.01 23.25 11.78
12/15/2020 4:45:00 AM 3.22 37.796 0.5 8.01 23.51 11.73
12/15/2020 5:00:00 AM 3.2 37.76 0.499 8 23.87 11.61
12/15/2020 5:15:00 AM 3.14 37.652 0.5 8 23.33 11.72
12/15/2020 5:30:00 AM 3.09 37.562 0.5 8.01 22.96 11.78
12/15/2020 5:45:00 AM 3.08 37.544 0.499 8.02 23.05 11.84
12/15/2020 6:00:00 AM 3.02 37.436 0.498 8.03 23.2 11.85
12/15/2020 6:15:00 AM 3 37.4 0.498 8.04 23.18 11.85
12/15/2020 6:30:00 AM 2.97 37.346 0.499 8.04 23.23 11.82
12/15/2020 6:45:00 AM 2.92 37.256 0.498 8.05 27.03 11.92
12/15/2020 7:00:00 AM 2.9 37.22 0.503 8.04 23.39 11.78
12/15/2020 7:15:00 AM 2.89 37.202 0.501 8.01 23.53 11.65
12/15/2020 7:30:00 AM 2.84 37.112 0.499 8.02 23.76 11.74
12/15/2020 7:45:00 AM 2.81 37.058 0.499 8.04 22.87 11.78
12/15/2020 8:00:00 AM 2.83 37.094 0.499 8.03 25.11 11.77
12/15/2020 8:15:00 AM 2.8 37.04 0.499 8.03 23.52 11.71
12/15/2020 8:30:00 AM 2.77 36.986 0.5 8.04 24.44 11.76
12/15/2020 8:45:00 AM 2.77 36.986 0.499 8.04 22.8 11.87
12/15/2020 9:00:00 AM 2.75 36.95 0.5 8.06 23.21 12.01
12/15/2020 9:15:00 AM 2.75 36.95 0.5 8.06 22.67 12.08
12/15/2020 9:30:00 AM 2.77 36.986 0.501 8.07 23.13 12.19
12/15/2020 9:45:00 AM 2.81 37.058 0.502 8.06 22.51 12.15
12/15/2020 10:00:00 AM 2.81 37.058 0.504 8.05 22.66 12.15
12/15/2020 10:15:00 AM 2.82 37.076 0.505 8.03 22.62 12.19
12/15/2020 10:30:00 AM 2.84 37.112 0.502 8.06 22.48 12.33
12/15/2020 10:45:00 AM 2.87 37.166 0.501 8.08 30.88 12.43
12/15/2020 11:00:00 AM 2.87 37.166 0.502 8.09 25.61 12.59
12/15/2020 11:15:00 AM 2.91 37.238 0.501 8.1 23.22 12.66
12/15/2020 11:30:00 AM 2.95 37.31 0.501 8.1 24.58 12.63
12/15/2020 11:45:00 AM 3.01 37.418 0.504 8.09 23.01 12.63
12/15/2020 12:00:00 PM 3.08 37.544 0.506 8.05 22.54 12.47
12/15/2020 12:15:00 PM 3.05 37.49 0.5 8.08 24.75 12.82
12/15/2020 12:30:00 PM 3.09 37.562 0.502 8.12 22.6 13.1
12/15/2020 12:45:00 PM 3.08 37.544 0.502 8.13 22.91 13.08
12/15/2020 1:00:00 PM 3.11 37.598 0.506 8.13 22.99 13.11
12/15/2020 1:15:00 PM 3.11 37.598 0.502 8.13 23.33 13.19
12/15/2020 1:30:00 PM 3.12 37.616 0.502 8.14 22.66 13.25
12/15/2020 1:45:00 PM 3.11 37.598 0.502 8.14 22.5 13.28
12/15/2020 2:00:00 PM 3.11 37.598 0.502 8.14 22.26 13.29
12/15/2020 2:15:00 PM 3.13 37.634 0.505 8.13 22.55 13.16
12/15/2020 2:30:00 PM 3.11 37.598 0.502 8.12 22.59 13.29
12/15/2020 2:45:00 PM 3.1 37.58 0.504 8.13 21.84 13.29
12/15/2020 3:00:00 PM 3.09 37.562 0.507 8.11 21.93 13.23
12/15/2020 3:15:00 PM 3.07 37.526 0.507 8.1 21.63 13.21
12/15/2020 3:30:00 PM 3.06 37.508 0.507 8.09 21.83 13.24
12/15/2020 3:45:00 PM 3.04 37.472 0.51 8.1 21.68 13.27
12/15/2020 4:00:00 PM 3.02 37.436 0.507 8.08 21.77 13.15
12/15/2020 4:15:00 PM 2.98 37.364 0.506 8.09 21.65 13.14
12/15/2020 4:30:00 PM 2.94 37.292 0.506 8.1 22 13.27
12/15/2020 4:45:00 PM 2.91 37.238 0.508 8.11 21.67 13.31
12/15/2020 5:00:00 PM 2.89 37.202 0.507 8.1 21.63 13.14
12/15/2020 5:15:00 PM 2.85 37.13 0.508 8.1 21.47 13.15
12/15/2020 5:30:00 PM 2.81 37.058 0.508 8.1 21.33 13.16
12/15/2020 5:45:00 PM 2.78 37.004 0.507 8.09 21.73 13.03
12/15/2020 6:00:00 PM 2.73 36.914 0.507 8.09 21.39 13.12
12/15/2020 6:15:00 PM 2.71 36.878 0.512 8.11 21.79 13.14
12/15/2020 6:30:00 PM 2.69 36.842 0.507 8.11 21.4 13.17
12/15/2020 6:45:00 PM 2.63 36.734 0.505 8.12 21.7 13.23
12/15/2020 7:00:00 PM 2.57 36.626 0.505 8.14 21.9 13.33
12/15/2020 7:15:00 PM 2.57 36.626 0.505 8.14 21.79 13.31
12/15/2020 7:30:00 PM 2.49 36.482 0.505 8.15 21.83 13.35
12/15/2020 7:45:00 PM 2.46 36.428 0.505 8.16 22.06 13.36
12/15/2020 8:00:00 PM 2.45 36.41 0.507 8.14 21.91 13.21
12/15/2020 8:15:00 PM 2.39 36.302 0.506 8.14 21.89 13.1
12/15/2020 8:30:00 PM 2.37 36.266 0.506 8.14 21.87 13.16
12/15/2020 8:45:00 PM 2.33 36.194 0.506 8.15 22.4 13.19
12/15/2020 9:00:00 PM 2.29 36.122 0.507 8.14 22.25 13.13
12/15/2020 9:15:00 PM 2.25 36.05 0.506 8.15 22.39 13.2
12/15/2020 9:30:00 PM 2.24 36.032 0.506 8.15 22.2 13.21
12/15/2020 9:45:00 PM 2.2 35.96 0.506 8.16 22.42 13.22
12/15/2020 10:00:00 PM 2.16 35.888 0.506 8.16 22.2 13.26
12/15/2020 10:15:00 PM 2.13 35.834 0.506 8.16 22.37 13.28
12/15/2020 10:30:00 PM 2.12 35.816 0.506 8.08 22.32 13.21
12/15/2020 10:45:00 PM 2.09 35.762 0.506 8.05 23.11 13.15
12/15/2020 11:00:00 PM 2.03 35.654 0.506 8.05 22.7 13.22
12/15/2020 11:15:00 PM 2.04 35.672 0.512 8.06 23.03 13.19
12/15/2020 11:30:00 PM 2.05 35.69 0.508 8.05 22.71 13
12/15/2020 11:45:00 PM 2.01 35.618 0.508 8.06 22.79 13.04
12/16/2020 12:00:00 AM 2 35.6 0.506 8.07 22.65 13.08
12/16/2020 12:15:00 AM 1.99 35.582 0.507 8.08 22.96 13.07
12/16/2020 12:30:00 AM 1.95 35.51 0.507 8.08 23.21 13.04
12/16/2020 12:45:00 AM 1.93 35.474 0.507 8.08 23.23 13
12/16/2020 1:00:00 AM 1.93 35.474 0.507 8.08 23.28 12.91
12/16/2020 1:15:00 AM 1.89 35.402 0.508 8.08 23.69 12.93
12/16/2020 1:30:00 AM 1.85 35.33 0.506 8.08 23.98 13
12/16/2020 1:45:00 AM 1.85 35.33 0.507 8.09 23.67 12.96
12/16/2020 2:00:00 AM 1.83 35.294 0.507 8.08 23.38 12.97
12/16/2020 2:15:00 AM 1.83 35.294 0.507 8.08 24.05 12.89
12/16/2020 2:30:00 AM 1.79 35.222 0.507 8.07 23.89 12.88
12/16/2020 2:45:00 AM 1.8 35.24 0.507 8.06 23.37 12.72
12/16/2020 3:00:00 AM 1.75 35.15 0.508 8.06 23.19 12.61
12/16/2020 3:15:00 AM 1.75 35.15 0.508 8.06 23.25 12.7
12/16/2020 3:30:00 AM 1.74 35.132 0.509 8.04 23.36 12.53
12/16/2020 3:45:00 AM 1.7 35.06 0.509 8.04 23.34 12.57
12/16/2020 4:00:00 AM 1.65 34.97 0.509 8.03 23.59 12.51
12/16/2020 4:15:00 AM 1.65 34.97 0.509 8.03 24.59 12.54
12/16/2020 4:30:00 AM 1.64 34.952 0.508 8.04 24.72 12.52
12/16/2020 4:45:00 AM 1.62 34.916 0.507 8.04 23.88 12.5
12/16/2020 5:00:00 AM 1.55 34.79 0.507 8.05 23.92 12.63
12/16/2020 5:15:00 AM 1.58 34.844 0.507 8.05 24.06 12.67
12/16/2020 5:30:00 AM 1.54 34.772 0.507 8.05 24.15 12.56
12/16/2020 5:45:00 AM 1.53 34.754 0.51 8.05 23.91 12.47
12/16/2020 6:00:00 AM 1.48 34.664 0.508 8.05 23.74 12.56
12/16/2020 6:15:00 AM 1.51 34.718 0.508 8.05 23.54 12.51
12/16/2020 6:30:00 AM 1.49 34.682 0.507 8.05 23.02 12.51
12/16/2020 6:45:00 AM 1.5 34.7 0.507 8.05 23.16 12.4
12/16/2020 7:00:00 AM 1.46 34.628 0.508 8.04 22.84 12.32
12/16/2020 7:15:00 AM 1.45 34.61 0.508 8.04 22.8 12.41
12/16/2020 7:30:00 AM 1.44 34.592 0.509 8.02 22.77 12.28
12/16/2020 7:45:00 AM 1.43 34.574 0.509 8 22.56 12.16
12/16/2020 8:00:00 AM 1.42 34.556 0.509 7.99 22.65 12.1
12/16/2020 8:15:00 AM 1.4 34.52 0.51 7.99 22.94 11.98
12/16/2020 8:30:00 AM 1.34 34.412 0.511 8.02 22.81 12.12
12/16/2020 8:45:00 AM 1.32 34.376 0.51 8.03 22.72 12.28
12/16/2020 9:00:00 AM 1.32 34.376 0.511 8.03 23.14 12.43
12/16/2020 9:15:00 AM 1.29 34.322 0.509 8.04 24.33 12.61
12/16/2020 9:30:00 AM 1.29 34.322 0.511 8.04 23 12.49
12/16/2020 9:45:00 AM 1.29 34.322 0.511 8.02 25.5 12.53
12/16/2020 10:00:00 AM 1.34 34.412 0.511 8.05 23.99 12.67
12/16/2020 10:15:00 AM 1.33 34.394 0.511 8.05 24.05 12.77
12/16/2020 10:30:00 AM 1.36 34.448 0.512 8.05 23.38 12.94
12/16/2020 10:45:00 AM 1.35 34.43 0.51 8.07 22.7 13.02
12/16/2020 11:00:00 AM 1.37 34.466 0.511 8.09 23.44 13.13
12/16/2020 11:15:00 AM 1.36 34.448 0.51 8.09 22.83 13.22
12/16/2020 11:30:00 AM 1.32 34.376 0.512 8.12 23.54 13.6
12/16/2020 11:45:00 AM 1.31 34.358 0.511 8.13 23.67 13.66
12/16/2020 12:00:00 PM 1.33 34.394 0.512 8.12 23.41 13.59
12/16/2020 12:15:00 PM 1.33 34.394 0.512 8.11 23.39 13.51
12/16/2020 12:30:00 PM 1.3 34.34 0.514 8.12 23.14 13.58
12/16/2020 12:45:00 PM 1.27 34.286 0.513 8.12 23.92 13.58
12/16/2020 1:00:00 PM 1.24 34.232 0.512 8.12 23.39 13.68
12/16/2020 1:15:00 PM 1.23 34.214 0.513 8.12 23.29 13.52
12/16/2020 1:30:00 PM 1.22 34.196 0.513 8.1 23.23 13.35
12/16/2020 1:45:00 PM 1.15 34.07 0.514 8.09 23.45 13.27
12/16/2020 2:00:00 PM 1.11 33.998 0.513 8.09 22.99 13.17
12/16/2020 2:15:00 PM 0.99 33.782 0.513 8.09 23 13.38
12/16/2020 2:30:00 PM 0.94 33.692 0.513 8.1 23.43 13.46
12/16/2020 2:45:00 PM 0.94 33.692 0.514 8.1 22.98 13.42
12/16/2020 3:00:00 PM 0.89 33.602 0.514 8.1 24.03 13.34
12/16/2020 3:15:00 PM 0.7 33.26 0.512 8.12 36.09 13.68
12/16/2020 3:30:00 PM 0.76 33.368 0.512 8.12 26.14 13.71
12/16/2020 3:45:00 PM 0.73 33.314 0.511 8.1 24.4 13.51
12/16/2020 4:00:00 PM 0.75 33.35 0.512 8.1 23.59 13.46
12/16/2020 4:15:00 PM 0.63 33.134 0.513 8.11 26.89 13.63
12/16/2020 4:30:00 PM 0.59 33.062 0.513 8.1 30.78 13.62
12/16/2020 4:45:00 PM 0.55 32.99 0.513 8.09 28.95 13.55
12/16/2020 5:00:00 PM 0.63 33.134 0.514 8.09 24.87 13.23
12/16/2020 5:15:00 PM 0.62 33.116 0.514 8.06 25.84 12.91
12/16/2020 5:30:00 PM 0.55 32.99 0.514 8.06 23.54 12.94
12/16/2020 5:45:00 PM 0.53 32.954 0.513 8.06 23.02 12.92
12/16/2020 6:00:00 PM 0.52 32.936 0.513 8.05 23.18 12.8
12/16/2020 6:15:00 PM 0.51 32.918 0.513 8.05 23.58 12.64
12/16/2020 6:30:00 PM 0.48 32.864 0.513 8.05 23.11 12.71
12/16/2020 6:45:00 PM 0.44 32.792 0.512 8.01 30.11 12.66
12/16/2020 7:00:00 PM 0.42 32.756 0.513 8.05 28.27 12.81
12/16/2020 7:15:00 PM 0.36 32.648 0.514 8.06 25.19 12.96
12/16/2020 7:30:00 PM 0.31 32.558 0.513 8.07 25.24 12.95
12/16/2020 7:45:00 PM 0.29 32.522 0.512 8.06 24.93 13.19
12/16/2020 8:00:00 PM 0.29 32.522 0.513 8.06 23.94 13.03
12/16/2020 8:15:00 PM 0.23 32.414 0.513 8.07 26.27 13.16
12/16/2020 8:30:00 PM 0.26 32.468 0.513 8.07 24.09 13.06
12/16/2020 8:45:00 PM 0.23 32.414 0.513 8.05 24.88 13.03
12/16/2020 9:00:00 PM 0.19 32.342 0.513 8.07 24.26 13.08
12/16/2020 9:15:00 PM 0.22 32.396 0.513 8.06 23.88 13.07
12/16/2020 9:30:00 PM 0.16 32.288 0.513 8.06 25.98 13.05
12/16/2020 9:45:00 PM 0.16 32.288 0.514 8.06 25.3 12.99
12/16/2020 10:00:00 PM 0.2 32.36 0.513 8.05 25.68 12.93
12/16/2020 10:15:00 PM 0.23 32.414 0.513 8.04 25.6 12.85
12/16/2020 10:30:00 PM 0.2 32.36 0.512 8.04 24.37 12.86
12/16/2020 10:45:00 PM 0.25 32.45 0.512 8.03 24.2 12.78
12/16/2020 11:00:00 PM 0.26 32.468 0.512 8.02 23.97 12.61
12/16/2020 11:15:00 PM 0.27 32.486 0.512 8.01 23.48 12.52
12/16/2020 11:30:00 PM 0.3 32.54 0.512 8 23.87 12.39
12/16/2020 11:45:00 PM 0.32 32.576 0.513 8 24.14 12.23
12/17/2020 12:00:00 AM 0.36 32.648 0.513 7.98 24.11 12.07
12/17/2020 12:15:00 AM 0.31 32.558 0.513 7.97 23.44 12.04
12/17/2020 12:30:00 AM 0.34 32.612 0.514 7.97 23.21 12.11
12/17/2020 12:45:00 AM 0.36 32.648 0.513 7.97 23.7 11.84
12/17/2020 1:00:00 AM 0.41 32.738 0.513 7.94 23.26 11.61
12/17/2020 1:15:00 AM 0.42 32.756 0.513 7.94 23.13 11.56
12/17/2020 1:30:00 AM 0.43 32.774 0.513 7.94 23.22 11.63
12/17/2020 1:45:00 AM 0.48 32.864 0.514 7.93 23 11.34
12/17/2020 2:00:00 AM 0.47 32.846 0.513 7.92 22.83 11.17
12/17/2020 2:15:00 AM 0.42 32.756 0.511 7.91 22.8 11.25
12/17/2020 2:30:00 AM 0.46 32.828 0.513 7.92 23.11 11.1
12/17/2020 2:45:00 AM 0.54 32.972 0.514 7.9 23.12 10.87
12/17/2020 3:00:00 AM 0.56 33.008 0.515 7.88 23.01 10.54
12/17/2020 3:15:00 AM 0.55 32.99 0.515 7.85 23.21 10.21
12/17/2020 3:30:00 AM 0.5 32.9 0.514 7.85 23.38 10.17
12/17/2020 3:45:00 AM 0.49 32.882 0.516 7.86 23.24 10.36
12/17/2020 4:00:00 AM 0.55 32.99 0.52 7.84 23.66 10.34
12/17/2020 4:15:00 AM 0.53 32.954 0.518 7.83 23.55 10.19
12/17/2020 4:30:00 AM 0.45 32.81 0.516 7.84 23.7 10.39
12/17/2020 4:45:00 AM 0.42 32.756 0.514 7.84 23.54 10.58
12/17/2020 5:00:00 AM 0.43 32.774 0.514 7.85 23.73 10.79
12/17/2020 5:15:00 AM 0.4 32.72 0.517 7.86 23.26 10.91
12/17/2020 5:30:00 AM 0.45 32.81 0.514 7.86 23.47 10.83
12/17/2020 5:45:00 AM 0.38 32.684 0.509 7.86 23.2 10.88
12/17/2020 6:00:00 AM 0.43 32.774 0.513 7.87 23.44 10.96
12/17/2020 6:15:00 AM 0.47 32.846 0.517 7.83 23.9 10.31
12/17/2020 6:30:00 AM 0.37 32.666 0.516 7.82 23.39 10.35
12/17/2020 6:45:00 AM 0.41 32.738 0.516 7.83 24.02 10.47
12/17/2020 7:00:00 AM 0.4 32.72 0.515 7.83 23.36 10.61
12/17/2020 7:15:00 AM 0.38 32.684 0.513 7.84 23.53 10.77
12/17/2020 7:30:00 AM 0.3 32.54 0.51 7.87 24.51 11.27
12/17/2020 7:45:00 AM 0.27 32.486 0.51 7.88 24.07 11.53
12/17/2020 8:00:00 AM 0.21 32.378 0.509 7.9 37.42 11.91
12/17/2020 8:15:00 AM 0.28 32.504 0.509 7.9 25.99 11.79
12/17/2020 8:30:00 AM 0.28 32.504 0.508 7.9 24.04 11.82
12/17/2020 8:45:00 AM 0.3 32.54 0.509 7.9 24.67 11.74
12/17/2020 9:00:00 AM 0.3 32.54 0.51 7.89 23.3 11.68
12/17/2020 9:15:00 AM 0.31 32.558 0.509 7.89 23.04 11.49
12/17/2020 9:30:00 AM 0.28 32.504 0.508 7.89 23.75 11.61
12/17/2020 9:45:00 AM 0.35 32.63 0.508 7.9 25.52 11.55
12/17/2020 10:00:00 AM 0.35 32.63 0.508 7.9 23.54 11.61
12/17/2020 10:15:00 AM 0.35 32.63 0.508 7.9 24.49 11.74
12/17/2020 10:30:00 AM 0.28 32.504 0.508 7.89 28.42 11.83
12/17/2020 10:45:00 AM 0.31 32.558 0.508 7.9 24.06 12.05
12/17/2020 11:00:00 AM 0.33 32.594 0.507 7.91 23.29 11.89
12/17/2020 11:15:00 AM 0.32 32.576 0.508 7.91 23.58 11.76
12/17/2020 11:30:00 AM 0.36 32.648 0.507 7.9 22.92 11.79
12/17/2020 11:45:00 AM 0.38 32.684 0.507 7.91 23.06 11.74
12/17/2020 12:00:00 PM 0.36 32.648 0.506 7.92 23.11 11.92
12/17/2020 12:15:00 PM 0.39 32.702 0.505 7.93 22.42 12.05
12/17/2020 12:30:00 PM 0.34 32.612 0.506 7.94 24.01 12.35
12/17/2020 12:45:00 PM 0.3 32.54 0.505 7.96 22.35 12.87
12/17/2020 1:00:00 PM 0.33 32.594 0.509 7.97 22.41 12.9
12/17/2020 1:15:00 PM 0.39 32.702 0.507 7.96 22.54 12.57
12/17/2020 1:30:00 PM 0.36 32.648 0.505 7.96 22.55 12.48
12/17/2020 1:45:00 PM 0.38 32.684 0.507 7.97 22.39 12.75
12/17/2020 2:00:00 PM 0.43 32.774 0.507 7.96 22.34 12.57
12/17/2020 2:15:00 PM 0.39 32.702 0.506 7.96 22.42 12.68
12/17/2020 2:30:00 PM 0.39 32.702 0.509 7.98 22.34 13.16
12/17/2020 2:45:00 PM 0.39 32.702 0.508 7.99 22.21 13.24
12/17/2020 3:00:00 PM 0.37 32.666 0.507 7.99 22.17 13.26
12/17/2020 3:15:00 PM 0.4 32.72 0.508 7.99 22.09 13.13
12/17/2020 3:30:00 PM 0.37 32.666 0.508 8 21.9 13.23
12/17/2020 3:45:00 PM 0.37 32.666 0.508 7.99 22.23 13.16
12/17/2020 4:00:00 PM 0.37 32.666 0.509 8 22.01 13.09
12/17/2020 4:15:00 PM 0.33 32.594 0.509 7.99 22.21 13.16
12/17/2020 4:30:00 PM 0.33 32.594 0.509 8 22.04 13.14
12/17/2020 4:45:00 PM 0.27 32.486 0.508 8 22.31 13.19
12/17/2020 5:00:00 PM 0.31 32.558 0.51 8 22.22 13.08
12/17/2020 5:15:00 PM 0.29 32.522 0.509 7.99 22.02 13.01
12/17/2020 5:30:00 PM 0.3 32.54 0.509 7.99 22.05 13.01
12/17/2020 5:45:00 PM 0.28 32.504 0.509 7.98 22.06 12.94
12/17/2020 6:00:00 PM 0.29 32.522 0.51 7.98 21.97 12.93
12/17/2020 6:15:00 PM 0.27 32.486 0.51 7.98 22.09 12.89
12/17/2020 6:30:00 PM 0.26 32.468 0.51 7.98 22.35 12.87
12/17/2020 6:45:00 PM 0.27 32.486 0.51 7.98 22.07 12.88
12/17/2020 7:00:00 PM 0.24 32.432 0.51 7.98 22.26 12.95
12/17/2020 7:15:00 PM 0.26 32.468 0.511 7.98 22.32 12.84
12/17/2020 7:30:00 PM 0.28 32.504 0.511 7.97 22.13 12.76
12/17/2020 7:45:00 PM 0.22 32.396 0.51 7.97 22.4 12.75
12/17/2020 8:00:00 PM 0.24 32.432 0.51 7.98 22.41 12.76
12/17/2020 8:15:00 PM 0.22 32.396 0.509 7.98 22.37 12.77
12/17/2020 8:30:00 PM 0.23 32.414 0.509 7.98 22.61 12.77
12/17/2020 8:45:00 PM 0.23 32.414 0.508 7.97 23.23 12.75
12/17/2020 9:00:00 PM 0.23 32.414 0.509 7.99 22.75 12.93
12/17/2020 9:15:00 PM 0.23 32.414 0.507 7.98 22.82 12.8
12/17/2020 9:30:00 PM 0.2 32.36 0.506 7.97 22.75 12.7
12/17/2020 9:45:00 PM 0.27 32.486 0.507 7.97 22.82 12.75
12/17/2020 10:00:00 PM 0.26 32.468 0.506 7.97 22.9 12.69
12/17/2020 10:15:00 PM 0.22 32.396 0.504 7.98 22.72 12.84
12/17/2020 10:30:00 PM 0.27 32.486 0.505 7.98 22.81 12.79
12/17/2020 10:45:00 PM 0.24 32.432 0.504 7.97 22.67 12.66
12/17/2020 11:00:00 PM 0.25 32.45 0.504 7.97 22.72 12.69
12/17/2020 11:15:00 PM 0.23 32.414 0.503 7.96 22.7 12.62
12/17/2020 11:30:00 PM 0.26 32.468 0.503 7.96 22.69 12.59
12/17/2020 11:45:00 PM 0.28 32.504 0.504 7.96 23.42 12.57
12/18/2020 12:00:00 AM 0.27 32.486 0.503 7.96 22.82 12.49
12/18/2020 12:15:00 AM 0.26 32.468 0.503 7.96 22.76 12.56
12/18/2020 12:30:00 AM 0.2 32.36 0.499 7.96 23.14 12.53
12/18/2020 12:45:00 AM 0.22 32.396 0.499 7.96 23.12 12.71
12/18/2020 1:00:00 AM 0.27 32.486 0.501 7.96 23.05 12.68
12/18/2020 1:15:00 AM 0.29 32.522 0.5 7.96 23.39 12.45
12/18/2020 1:30:00 AM 0.27 32.486 0.5 7.95 22.81 12.46
12/18/2020 1:45:00 AM 0.26 32.468 0.499 7.96 23.36 12.47
12/18/2020 2:00:00 AM 0.28 32.504 0.499 7.96 22.72 12.5
12/18/2020 2:15:00 AM 0.24 32.432 0.499 7.96 22.47 12.58
12/18/2020 2:30:00 AM 0.26 32.468 0.498 7.96 22.52 12.66
12/18/2020 2:45:00 AM 0.25 32.45 0.497 7.96 23.06 12.61
12/18/2020 3:00:00 AM 0.3 32.54 0.499 7.95 22.54 12.49
12/18/2020 3:15:00 AM 0.3 32.54 0.499 7.95 23.05 12.4
12/18/2020 3:30:00 AM 0.31 32.558 0.5 7.94 22.49 12.38
12/18/2020 3:45:00 AM 0.31 32.558 0.499 7.94 22.49 12.31
12/18/2020 4:00:00 AM 0.3 32.54 0.5 7.94 22.73 12.34
12/18/2020 4:15:00 AM 0.29 32.522 0.5 7.94 22.59 12.41
12/18/2020 4:30:00 AM 0.31 32.558 0.501 7.94 22.51 12.42
12/18/2020 4:45:00 AM 0.3 32.54 0.501 7.94 22.49 12.27
12/18/2020 5:00:00 AM 0.29 32.522 0.5 7.94 22.29 12.41
12/18/2020 5:15:00 AM 0.31 32.558 0.501 7.94 22.61 12.38
12/18/2020 5:30:00 AM 0.31 32.558 0.501 7.94 22.45 12.37
12/18/2020 5:45:00 AM 0.31 32.558 0.502 7.93 22.68 12.31
12/18/2020 6:00:00 AM 0.3 32.54 0.502 7.94 22.87 12.3
12/18/2020 6:15:00 AM 0.3 32.54 0.504 7.94 22.59 12.24
12/18/2020 6:30:00 AM 0.31 32.558 0.504 7.93 22.31 12.13
12/18/2020 6:45:00 AM 0.33 32.594 0.505 7.92 22.49 12.07
12/18/2020 7:00:00 AM 0.31 32.558 0.505 7.92 22.81 12.14
12/18/2020 7:15:00 AM 0.31 32.558 0.507 7.91 22.84 12.01
12/18/2020 7:30:00 AM 0.33 32.594 0.506 7.91 23.78 11.88
12/18/2020 7:45:00 AM 0.33 32.594 0.508 7.9 23.49 11.74
12/18/2020 8:00:00 AM 0.34 32.612 0.508 7.9 24.25 11.7
12/18/2020 8:15:00 AM 0.29 32.522 0.509 7.91 25.38 12.05
12/18/2020 8:30:00 AM 0.32 32.576 0.509 7.91 24.58 12.08
12/18/2020 8:45:00 AM 0.33 32.594 0.511 7.91 26.29 12.03
12/18/2020 9:00:00 AM 0.26 32.468 0.511 7.92 23.8 12.31
12/18/2020 9:15:00 AM 0.27 32.486 0.511 7.92 25.96 12.4
12/18/2020 9:30:00 AM 0.33 32.594 0.512 7.92 24.91 12.19
12/18/2020 9:45:00 AM 0.31 32.558 0.512 7.91 24.82 12.25
12/18/2020 10:00:00 AM 0.31 32.558 0.514 7.92 26.99 12.44
12/18/2020 10:15:00 AM 0.33 32.594 0.514 7.92 33.56 12.28
12/18/2020 10:30:00 AM 0.38 32.684 0.513 7.91 23.82 12.22
12/18/2020 10:45:00 AM 0.39 32.702 0.514 7.91 23.19 12.22
12/18/2020 11:00:00 AM 0.39 32.702 0.514 7.92 23.76 12.27
12/18/2020 11:15:00 AM 0.39 32.702 0.516 7.92 23.91 12.41
12/18/2020 11:30:00 AM 0.41 32.738 0.515 7.93 23.42 12.48
12/18/2020 11:45:00 AM 0.38 32.684 0.515 7.93 23.1 12.62
12/18/2020 12:00:00 PM 0.4 32.72 0.515 7.94 23.25 12.57
12/18/2020 12:15:00 PM 0.41 32.738 0.516 7.94 23.01 12.63
12/18/2020 12:30:00 PM 0.41 32.738 0.516 7.94 22.74 12.7
12/18/2020 12:45:00 PM 0.45 32.81 0.516 7.94 23.24 12.59
12/18/2020 1:00:00 PM 0.46 32.828 0.515 7.93 23.08 12.49
12/18/2020 1:15:00 PM 0.48 32.864 0.515 7.93 22.71 12.34
12/18/2020 1:30:00 PM 0.46 32.828 0.515 7.93 23.21 12.55
12/18/2020 1:45:00 PM 0.49 32.882 0.515 7.94 23.09 12.59
12/18/2020 2:00:00 PM 0.51 32.918 0.515 7.94 23.14 12.64
12/18/2020 2:15:00 PM 0.45 32.81 0.513 7.96 23.48 13.08
12/18/2020 2:30:00 PM 0.48 32.864 0.514 7.97 23.32 13.09
12/18/2020 2:45:00 PM 0.47 32.846 0.513 7.97 23.33 13.35
12/18/2020 3:00:00 PM 0.49 32.882 0.513 7.98 23.51 13.23
12/18/2020 3:15:00 PM 0.52 32.936 0.513 7.97 23.44 12.94
12/18/2020 3:30:00 PM 0.53 32.954 0.512 7.96 23.28 12.81
12/18/2020 3:45:00 PM 0.48 32.864 0.512 7.97 25.32 13.4
12/18/2020 4:00:00 PM 0.51 32.918 0.513 7.97 23.71 13.46
12/18/2020 4:15:00 PM 0.49 32.882 0.511 7.96 23.78 13
12/18/2020 4:30:00 PM 0.5 32.9 0.511 7.95 23.66 12.9
12/18/2020 4:45:00 PM 0.5 32.9 0.512 7.95 23.53 12.79
12/18/2020 5:00:00 PM 0.47 32.846 0.511 7.95 23.4 12.78
12/18/2020 5:15:00 PM 0.46 32.828 0.511 7.95 23.47 12.86
12/18/2020 5:30:00 PM 0.44 32.792 0.511 7.95 23.19 12.94
12/18/2020 5:45:00 PM 0.42 32.756 0.511 7.95 23.17 13
12/18/2020 6:00:00 PM 0.41 32.738 0.51 7.95 22.73 13.08
12/18/2020 6:15:00 PM 0.36 32.648 0.51 7.96 22.71 13.3
12/18/2020 6:30:00 PM 0.36 32.648 0.51 7.96 22.75 13.26
12/18/2020 6:45:00 PM 0.33 32.594 0.509 7.96 22.44 13.19
12/18/2020 7:00:00 PM 0.32 32.576 0.509 7.96 22.87 13.31
12/18/2020 7:15:00 PM 0.33 32.594 0.51 7.96 23.15 13.28
12/18/2020 7:30:00 PM 0.31 32.558 0.51 7.96 22.67 13.22
12/18/2020 7:45:00 PM 0.28 32.504 0.509 7.96 22.85 13.2
12/18/2020 8:00:00 PM 0.28 32.504 0.508 7.96 22.56 13.19
12/18/2020 8:15:00 PM 0.25 32.45 0.508 7.97 22.49 13.22
12/18/2020 8:30:00 PM 0.24 32.432 0.508 7.97 23.07 13.29
12/18/2020 8:45:00 PM 0.23 32.414 0.508 7.97 22.84 13.24
12/18/2020 9:00:00 PM 0.23 32.414 0.508 7.96 23.19 13.17
12/18/2020 9:15:00 PM 0.19 32.342 0.508 7.97 23.1 13.27
12/18/2020 9:30:00 PM 0.2 32.36 0.508 7.98 22.98 13.28
12/18/2020 9:45:00 PM 0.19 32.342 0.508 7.97 23.1 13.3
12/18/2020 10:00:00 PM 0.17 32.306 0.508 7.98 23.08 13.42
12/18/2020 10:15:00 PM 0.15 32.27 0.508 7.98 23.41 13.49
12/18/2020 10:30:00 PM 0.15 32.27 0.507 7.99 23.16 13.41
12/18/2020 10:45:00 PM 0.17 32.306 0.508 7.98 25.09 13.34
12/18/2020 11:00:00 PM 0.22 32.396 0.512 7.97 1586.14 13.05
12/18/2020 11:15:00 PM 0.19 32.342 0.508 7.97 32.87 12.77
12/18/2020 11:30:00 PM 0.15 32.27 0.508 7.99 21.56 13.4
12/18/2020 11:45:00 PM 0.15 32.27 0.508 7.99 20.07 13.41
12/19/2020 12:00:00 AM 0.15 32.27 0.509 7.98 19.58 13.42
12/19/2020 12:15:00 AM 0.16 32.288 0.509 7.98 19.65 13.4
12/19/2020 12:30:00 AM 0.16 32.288 0.509 7.98 19.08 13.39
12/19/2020 12:45:00 AM 0.16 32.288 0.51 7.98 20.11 13.37
12/19/2020 1:00:00 AM 0.16 32.288 0.51 7.99 19.69 13.45
12/19/2020 1:15:00 AM 0.17 32.306 0.51 7.98 19.7 13.44
12/19/2020 1:30:00 AM 0.17 32.306 0.511 7.98 19.83 13.43
12/19/2020 1:45:00 AM 0.17 32.306 0.511 7.98 19.68 13.39
12/19/2020 2:00:00 AM 0.18 32.324 0.511 7.98 19.49 13.36
12/19/2020 2:15:00 AM 0.17 32.306 0.512 7.98 20.05 13.38
12/19/2020 2:30:00 AM 0.16 32.288 0.512 7.97 19.93 13.37
12/19/2020 2:45:00 AM 0.16 32.288 0.512 7.98 19.74 13.38
12/19/2020 3:00:00 AM 0.15 32.27 0.513 7.98 19.76 13.39
12/19/2020 3:15:00 AM 0.15 32.27 0.513 7.98 19.66 13.41
12/19/2020 3:30:00 AM 0.16 32.288 0.513 7.98 19.61 13.35
12/19/2020 3:45:00 AM 0.13 32.234 0.513 7.98 19.73 13.42
12/19/2020 4:00:00 AM 0.15 32.27 0.513 7.98 19.68 13.49
12/19/2020 4:15:00 AM 0.15 32.27 0.514 7.98 19.49 13.41
12/19/2020 4:30:00 AM 0.14 32.252 0.514 7.98 19.9 13.41
12/19/2020 4:45:00 AM 0.16 32.288 0.514 7.98 19.61 13.39
12/19/2020 5:00:00 AM 0.15 32.27 0.514 7.98 19.86 13.34
12/19/2020 5:15:00 AM 0.17 32.306 0.514 7.97 19.84 13.26
12/19/2020 5:30:00 AM 0.15 32.27 0.515 7.97 20.03 13.26
12/19/2020 5:45:00 AM 0.18 32.324 0.515 7.98 20.32 13.21
12/19/2020 6:00:00 AM 0.15 32.27 0.516 7.97 21.19 13.18
12/19/2020 6:15:00 AM 0.17 32.306 0.516 7.97 20.21 13.2
12/19/2020 6:30:00 AM 0.18 32.324 0.517 7.97 20.81 13.17
12/19/2020 6:45:00 AM 0.17 32.306 0.518 7.96 21.01 13.12
12/19/2020 7:00:00 AM 0.19 32.342 0.518 7.96 20.09 13.07
12/19/2020 7:15:00 AM 0.19 32.342 0.519 7.95 20.08 12.99
12/19/2020 7:30:00 AM 0.17 32.306 0.52 7.96 20.66 13.03
12/19/2020 7:45:00 AM 0.15 32.27 0.52 7.95 19.62 13
12/19/2020 8:00:00 AM 0.17 32.306 0.521 7.94 19.47 12.94
12/19/2020 8:15:00 AM 0.2 32.36 0.522 7.94 19.37 12.76
12/19/2020 8:30:00 AM 0.18 32.324 0.523 7.93 18.93 12.67
12/19/2020 8:45:00 AM 0.18 32.324 0.524 7.93 18.69 12.71
12/19/2020 9:00:00 AM 0.2 32.36 0.526 7.93 18.96 12.72
12/19/2020 9:15:00 AM 0.19 32.342 0.527 7.93 18.59 12.78
12/19/2020 9:30:00 AM 0.22 32.396 0.527 7.93 18.62 12.83
12/19/2020 9:45:00 AM 0.25 32.45 0.528 7.94 18.2 12.85
12/19/2020 10:00:00 AM 0.25 32.45 0.529 7.94 18.12 12.97
12/19/2020 10:15:00 AM 0.31 32.558 0.529 7.94 19.58 13.05
12/19/2020 10:30:00 AM 0.32 32.576 0.53 7.94 19.97 13.12
12/19/2020 10:45:00 AM 0.34 32.612 0.53 7.95 18.75 13.17
12/19/2020 11:00:00 AM 0.38 32.684 0.53 7.95 18.09 13.11
12/19/2020 11:15:00 AM 0.39 32.702 0.53 7.96 17.88 13.24
12/19/2020 11:30:00 AM 0.42 32.756 0.53 7.96 17.86 13.39
12/19/2020 11:45:00 AM 0.43 32.774 0.53 7.97 17.95 13.43
12/19/2020 12:00:00 PM 0.45 32.81 0.53 7.96 17.71 13.53
12/19/2020 12:15:00 PM 0.46 32.828 0.53 7.97 17.54 13.59
12/19/2020 12:30:00 PM 0.48 32.864 0.53 7.98 18.25 13.56
12/19/2020 12:45:00 PM 0.49 32.882 0.529 7.98 17.54 13.62
12/19/2020 1:00:00 PM 0.5 32.9 0.529 7.98 17.71 13.61
12/19/2020 1:15:00 PM 0.52 32.936 0.529 7.98 17.53 13.64
12/19/2020 1:30:00 PM 0.54 32.972 0.528 7.99 17.54 13.65
12/19/2020 1:45:00 PM 0.56 33.008 0.527 7.98 17.68 13.62
12/19/2020 2:00:00 PM 0.56 33.008 0.527 7.98 17.83 13.72
12/19/2020 2:15:00 PM 0.57 33.026 0.527 7.99 17.73 13.83
12/19/2020 2:30:00 PM 0.56 33.008 0.525 8 18.03 14
12/19/2020 2:45:00 PM 0.56 33.008 0.524 8 18.77 13.96
12/19/2020 3:00:00 PM 0.54 32.972 0.524 8 18.41 14.01
12/19/2020 3:15:00 PM 0.54 32.972 0.523 8 18.33 14.04
12/19/2020 3:30:00 PM 0.5 32.9 0.521 8.01 18.03 14.13
12/19/2020 3:45:00 PM 0.52 32.936 0.522 8.01 18.34 14.14
12/19/2020 4:00:00 PM 0.51 32.918 0.521 8 17.84 13.97
12/19/2020 4:15:00 PM 0.48 32.864 0.52 8 18.06 13.98
12/19/2020 4:30:00 PM 0.49 32.882 0.518 8 17.94 13.95
12/19/2020 4:45:00 PM 0.44 32.792 0.517 8 19.69 14
12/19/2020 5:00:00 PM 0.44 32.792 0.517 7.99 18.33 13.8
12/19/2020 5:15:00 PM 0.41 32.738 0.516 7.99 18.29 13.81
12/19/2020 5:30:00 PM 0.4 32.72 0.516 7.98 22.33 13.72
12/19/2020 5:45:00 PM 0.42 32.756 0.515 7.97 18.49 13.78
12/19/2020 6:00:00 PM 0.43 32.774 0.515 7.98 18.2 13.62
12/19/2020 6:15:00 PM 0.41 32.738 0.515 7.98 18.82 13.59
12/19/2020 6:30:00 PM 0.39 32.702 0.513 7.99 18.12 13.59
12/19/2020 6:45:00 PM 0.38 32.684 0.512 7.98 18.22 13.71
12/19/2020 7:00:00 PM 0.38 32.684 0.512 7.99 18.66 13.61
12/19/2020 7:15:00 PM 0.37 32.666 0.512 7.99 18.26 13.64
12/19/2020 7:30:00 PM 0.38 32.684 0.512 7.98 18.96 13.55
12/19/2020 7:45:00 PM 0.36 32.648 0.511 7.98 18.26 13.57
12/19/2020 8:00:00 PM 0.35 32.63 0.511 7.98 18.51 13.58
12/19/2020 8:15:00 PM 0.34 32.612 0.51 7.99 18.96 13.53
12/19/2020 8:30:00 PM 0.35 32.63 0.51 7.98 18.61 13.5
12/19/2020 8:45:00 PM 0.34 32.612 0.51 7.99 19.06 13.47
12/19/2020 9:00:00 PM 0.33 32.594 0.51 7.98 19.07 13.49
12/19/2020 9:15:00 PM 0.33 32.594 0.51 7.98 19.67 13.43
12/19/2020 9:30:00 PM 0.32 32.576 0.509 7.98 19.09 13.44
12/19/2020 9:45:00 PM 0.32 32.576 0.509 7.97 19.12 13.33
12/19/2020 10:00:00 PM 0.31 32.558 0.509 7.97 19.27 13.46
12/19/2020 10:15:00 PM 0.31 32.558 0.51 7.97 19.4 13.4
12/19/2020 10:30:00 PM 0.32 32.576 0.509 7.96 19.45 13.35
12/19/2020 10:45:00 PM 0.31 32.558 0.508 7.97 21.87 13.35
12/19/2020 11:00:00 PM 0.3 32.54 0.508 7.95 22.06 13.41
12/19/2020 11:15:00 PM 0.31 32.558 0.508 7.96 20.23 13.15
12/19/2020 11:30:00 PM 0.31 32.558 0.508 7.95 20.21 13.26
12/19/2020 11:45:00 PM 0.33 32.594 0.508 7.95 21.3 13.22
12/20/2020 12:00:00 AM 0.34 32.612 0.508 7.94 20.63 13.14
12/20/2020 12:15:00 AM 0.32 32.576 0.508 7.94 41.07 13.09
12/20/2020 12:30:00 AM 0.31 32.558 0.506 7.94 23.32 13.17
12/20/2020 12:45:00 AM 0.3 32.54 0.506 7.94 23.61 13.09
12/20/2020 1:00:00 AM 0.3 32.54 0.506 7.93 23.04 13.11
12/20/2020 1:15:00 AM 0.29 32.522 0.505 7.93 22.08 13.18
12/20/2020 1:30:00 AM 0.32 32.576 0.505 7.93 23.33 13.15
12/20/2020 1:45:00 AM 0.34 32.612 0.506 7.92 23.19 13.01
12/20/2020 2:00:00 AM 0.33 32.594 0.504 7.92 23.24 12.86
12/20/2020 2:15:00 AM 0.33 32.594 0.504 7.92 23.53 12.92
12/20/2020 2:30:00 AM 0.36 32.648 0.504 7.91 23.18 12.88
12/20/2020 2:45:00 AM 0.35 32.63 0.503 7.91 21.66 12.9
12/20/2020 3:00:00 AM 0.34 32.612 0.503 7.92 22.12 12.91
12/20/2020 3:15:00 AM 0.34 32.612 0.503 7.91 21.73 12.89
12/20/2020 3:30:00 AM 0.33 32.594 0.503 7.91 21.84 12.82
12/20/2020 3:45:00 AM 0.32 32.576 0.501 7.91 22.04 12.82
12/20/2020 4:00:00 AM 0.33 32.594 0.501 7.91 21.91 12.82
12/20/2020 4:15:00 AM 0.32 32.576 0.501 7.92 22.87 12.92
12/20/2020 4:30:00 AM 0.33 32.594 0.501 7.92 21.98 12.97
12/20/2020 4:45:00 AM 0.33 32.594 0.502 7.92 21.37 12.92
12/20/2020 5:00:00 AM 0.33 32.594 0.502 7.92 21.28 12.96
12/20/2020 5:15:00 AM 0.32 32.576 0.501 7.92 21.74 12.89
12/20/2020 5:30:00 AM 0.33 32.594 0.502 7.92 21.44 12.93
12/20/2020 5:45:00 AM 0.31 32.558 0.501 7.92 22.13 12.95
12/20/2020 6:00:00 AM 0.3 32.54 0.502 7.93 21.62 12.98
12/20/2020 6:15:00 AM 0.3 32.54 0.502 7.93 21.81 12.98
12/20/2020 6:30:00 AM 0.29 32.522 0.502 7.93 21.99 12.91
12/20/2020 6:45:00 AM 0.28 32.504 0.502 7.93 22.09 12.94
12/20/2020 7:00:00 AM 0.3 32.54 0.502 7.92 21.55 12.91
12/20/2020 7:15:00 AM 0.31 32.558 0.502 7.92 21.72 12.84
12/20/2020 7:30:00 AM 0.3 32.54 0.502 7.92 21.28 12.73
12/20/2020 7:45:00 AM 0.29 32.522 0.503 7.92 21.22 12.66
12/20/2020 8:00:00 AM 0.29 32.522 0.503 7.91 21.13 12.67
12/20/2020 8:15:00 AM 0.3 32.54 0.503 7.91 20.87 12.64
12/20/2020 8:30:00 AM 0.3 32.54 0.503 7.91 20.61 12.68
12/20/2020 8:45:00 AM 0.29 32.522 0.504 7.92 20.52 12.66
12/20/2020 9:00:00 AM 0.3 32.54 0.504 7.91 20.36 12.71
12/20/2020 9:15:00 AM 0.31 32.558 0.505 7.91 20.64 12.68
12/20/2020 9:30:00 AM 0.32 32.576 0.505 7.91 20.66 12.65
12/20/2020 9:45:00 AM 0.3 32.54 0.506 7.92 20.93 12.74
12/20/2020 10:00:00 AM 0.31 32.558 0.506 7.92 20.47 12.76
12/20/2020 10:15:00 AM 0.29 32.522 0.507 7.92 20.46 12.84
12/20/2020 10:30:00 AM 0.3 32.54 0.508 7.93 20.46 12.81
12/20/2020 10:45:00 AM 0.29 32.522 0.509 7.93 20.23 12.84
12/20/2020 11:00:00 AM 0.31 32.558 0.509 7.93 20.45 12.82
12/20/2020 11:15:00 AM 0.3 32.54 0.51 7.93 20.33 12.88
12/20/2020 11:30:00 AM 0.33 32.594 0.511 7.94 20.51 12.89
12/20/2020 11:45:00 AM 0.34 32.612 0.511 7.94 20.43 13.01
12/20/2020 12:00:00 PM 0.36 32.648 0.512 7.95 20.17 13.05
12/20/2020 12:15:00 PM 0.39 32.702 0.513 7.95 20.2 13.11
12/20/2020 12:30:00 PM 0.38 32.684 0.513 7.95 20.28 13.11
12/20/2020 12:45:00 PM 0.38 32.684 0.513 7.95 20.57 13.12
12/20/2020 1:00:00 PM 0.37 32.666 0.514 7.95 20.2 13.15
12/20/2020 1:15:00 PM 0.34 32.612 0.514 7.96 20.22 13.15
12/20/2020 1:30:00 PM 0.35 32.63 0.514 7.95 20.22 13.16
12/20/2020 1:45:00 PM 0.35 32.63 0.515 7.96 20.44 13.16
12/20/2020 2:00:00 PM 0.32 32.576 0.515 7.96 20.43 13.24
12/20/2020 2:15:00 PM 0.34 32.612 0.515 7.96 20.42 13.21
12/20/2020 2:30:00 PM 0.35 32.63 0.515 7.97 20.36 13.23
12/20/2020 2:45:00 PM 0.35 32.63 0.515 7.96 20.44 13.23
12/20/2020 3:00:00 PM 0.35 32.63 0.515 7.97 20.44 13.23
12/20/2020 3:15:00 PM 0.35 32.63 0.514 7.97 20.57 13.25
12/20/2020 3:30:00 PM 0.35 32.63 0.514 7.97 20.43 13.22
12/20/2020 3:45:00 PM 0.35 32.63 0.514 7.97 21.05 13.2
12/20/2020 4:00:00 PM 0.34 32.612 0.513 7.96 20.94 13.17
12/20/2020 4:15:00 PM 0.34 32.612 0.513 7.96 20.86 13.1
12/20/2020 4:30:00 PM 0.34 32.612 0.512 7.96 20.6 13.08
12/20/2020 4:45:00 PM 0.34 32.612 0.511 7.95 20.83 13.05
12/20/2020 5:00:00 PM 0.35 32.63 0.51 7.96 20.9 13.02
12/20/2020 5:15:00 PM 0.35 32.63 0.51 7.95 21.32 12.88
12/20/2020 5:30:00 PM 0.34 32.612 0.509 7.94 20.88 12.89
12/20/2020 5:45:00 PM 0.35 32.63 0.509 7.95 20.78 12.82
12/20/2020 6:00:00 PM 0.35 32.63 0.507 7.95 20.84 12.79
12/20/2020 6:15:00 PM 0.34 32.612 0.507 7.94 20.66 12.67
12/20/2020 6:30:00 PM 0.36 32.648 0.506 7.94 20.85 12.66
12/20/2020 6:45:00 PM 0.34 32.612 0.505 7.93 20.74 12.59
12/20/2020 7:00:00 PM 0.34 32.612 0.504 7.93 21.1 12.68
12/20/2020 7:15:00 PM 0.34 32.612 0.504 7.93 21.19 12.62
12/20/2020 7:30:00 PM 0.34 32.612 0.503 7.93 21.69 12.64
12/20/2020 7:45:00 PM 0.34 32.612 0.502 7.93 21.45 12.64
12/20/2020 8:00:00 PM 0.34 32.612 0.501 7.93 22.62 12.62
12/20/2020 8:15:00 PM 0.34 32.612 0.5 7.93 23.65 12.57
12/20/2020 8:30:00 PM 0.33 32.594 0.5 7.93 23.49 12.62
12/20/2020 8:45:00 PM 0.33 32.594 0.5 7.93 22.25 12.68
12/20/2020 9:00:00 PM 0.33 32.594 0.499 7.93 22.18 12.65
12/20/2020 9:15:00 PM 0.33 32.594 0.499 7.93 21.98 12.65
12/20/2020 9:30:00 PM 0.35 32.63 0.499 7.92 22.05 12.64
12/20/2020 9:45:00 PM 0.34 32.612 0.498 7.92 22.79 12.61
12/20/2020 10:00:00 PM 0.34 32.612 0.498 7.92 23.2 12.64
12/20/2020 10:15:00 PM 0.33 32.594 0.497 7.92 22.95 12.65
12/20/2020 10:30:00 PM 0.34 32.612 0.498 7.92 23.45 12.68
12/20/2020 10:45:00 PM 0.33 32.594 0.497 7.92 23.42 12.66
12/20/2020 11:00:00 PM 0.35 32.63 0.497 7.92 22.93 12.67
12/20/2020 11:15:00 PM 0.34 32.612 0.496 7.92 23.02 12.68
12/20/2020 11:30:00 PM 0.35 32.63 0.497 7.92 22.79 12.65
12/20/2020 11:45:00 PM 0.34 32.612 0.496 7.92 22.81 12.63
12/21/2020 12:00:00 AM 0.35 32.63 0.496 7.92 22.49 12.65
12/21/2020 12:15:00 AM 0.35 32.63 0.496 7.92 22.58 12.7
12/21/2020 12:30:00 AM 0.34 32.612 0.496 7.92 23.31 12.67
12/21/2020 12:45:00 AM 0.34 32.612 0.495 7.92 22.12 12.68
12/21/2020 1:00:00 AM 0.35 32.63 0.495 7.92 22.49 12.7
12/21/2020 1:15:00 AM 0.35 32.63 0.495 7.92 21.96 12.66
12/21/2020 1:30:00 AM 0.35 32.63 0.495 7.92 22.26 12.68
12/21/2020 1:45:00 AM 0.35 32.63 0.494 7.92 21.8 12.7
12/21/2020 2:00:00 AM 0.35 32.63 0.495 7.92 21.82 12.69
12/21/2020 2:15:00 AM 0.34 32.612 0.494 7.92 21.92 12.73
12/21/2020 2:30:00 AM 0.34 32.612 0.494 7.93 22.79 12.71
12/21/2020 2:45:00 AM 0.34 32.612 0.494 7.93 22.03 12.75
12/21/2020 3:00:00 AM 0.35 32.63 0.494 7.93 22.57 12.7
12/21/2020 3:15:00 AM 0.34 32.612 0.493 7.92 22.22 12.7
12/21/2020 3:30:00 AM 0.36 32.648 0.493 7.92 22.62 12.71
12/21/2020 3:45:00 AM 0.35 32.63 0.493 7.93 22.87 12.69
12/21/2020 4:00:00 AM 0.36 32.648 0.493 7.92 22.65 12.64
12/21/2020 4:15:00 AM 0.35 32.63 0.493 7.93 23.15 12.7
12/21/2020 4:30:00 AM 0.36 32.648 0.493 7.93 22.64 12.68
12/21/2020 4:45:00 AM 0.34 32.612 0.493 7.93 22.74 12.65
12/21/2020 5:00:00 AM 0.35 32.63 0.493 7.93 22.38 12.66
12/21/2020 5:15:00 AM 0.35 32.63 0.493 7.93 22.24 12.63
12/21/2020 5:30:00 AM 0.35 32.63 0.493 7.92 21.99 12.59
12/21/2020 5:45:00 AM 0.36 32.648 0.493 7.92 21.74 12.62
12/21/2020 6:00:00 AM 0.35 32.63 0.493 7.92 21.94 12.59
12/21/2020 6:15:00 AM 0.35 32.63 0.493 7.92 22.23 12.59
12/21/2020 6:30:00 AM 0.36 32.648 0.494 7.92 22.95 12.57
12/21/2020 6:45:00 AM 0.36 32.648 0.494 7.91 21.84 12.5
12/21/2020 7:00:00 AM 0.38 32.684 0.494 7.91 21.33 12.39
12/21/2020 7:15:00 AM 0.39 32.702 0.494 7.91 21.72 12.38
12/21/2020 7:30:00 AM 0.38 32.684 0.494 7.91 21.52 12.31
12/21/2020 7:45:00 AM 0.38 32.684 0.494 7.9 21.92 12.3
12/21/2020 8:00:00 AM 0.37 32.666 0.494 7.91 22.41 12.33
12/21/2020 8:15:00 AM 0.37 32.666 0.495 7.91 22.27 12.41
12/21/2020 8:30:00 AM 0.38 32.684 0.495 7.91 22.56 12.42
12/21/2020 8:45:00 AM 0.36 32.648 0.496 7.91 21.74 12.45
12/21/2020 9:00:00 AM 0.37 32.666 0.496 7.91 21.76 12.46
12/21/2020 9:15:00 AM 0.37 32.666 0.496 7.91 21.64 12.54
12/21/2020 9:30:00 AM 0.38 32.684 0.496 7.92 21.45 12.61
12/21/2020 9:45:00 AM 0.42 32.756 0.496 7.92 21.01 12.62
12/21/2020 10:00:00 AM 0.43 32.774 0.496 7.92 21.38 12.66
12/21/2020 10:15:00 AM 0.44 32.792 0.496 7.93 20.94 12.71
12/21/2020 10:30:00 AM 0.46 32.828 0.496 7.93 21.09 12.74
12/21/2020 10:45:00 AM 0.46 32.828 0.497 7.93 21.4 12.78
12/21/2020 11:00:00 AM 0.48 32.864 0.497 7.93 21.58 12.85
12/21/2020 11:15:00 AM 0.51 32.918 0.497 7.94 21.08 12.89
12/21/2020 11:30:00 AM 0.51 32.918 0.497 7.94 21.45 12.87
12/21/2020 11:45:00 AM 0.53 32.954 0.497 7.94 21.01 12.92
12/21/2020 12:00:00 PM 0.54 32.972 0.497 7.95 21.14 12.99
12/21/2020 12:15:00 PM 0.55 32.99 0.497 7.96 21.16 12.99
12/21/2020 12:30:00 PM 0.55 32.99 0.497 7.95 20.9 13.09
12/21/2020 12:45:00 PM 0.57 33.026 0.496 7.96 21.22 13.19
12/21/2020 1:00:00 PM 0.59 33.062 0.496 7.97 20.89 13.26
12/21/2020 1:15:00 PM 0.62 33.116 0.496 7.97 20.84 13.27
12/21/2020 1:30:00 PM 0.62 33.116 0.496 7.98 20.92 13.32
12/21/2020 1:45:00 PM 0.63 33.134 0.496 7.98 20.95 13.38
12/21/2020 2:00:00 PM 0.64 33.152 0.496 7.98 21.12 13.38
12/21/2020 2:15:00 PM 0.64 33.152 0.496 7.99 21.15 13.44
12/21/2020 2:30:00 PM 0.63 33.134 0.495 7.99 21.16 13.51
12/21/2020 2:45:00 PM 0.63 33.134 0.496 7.99 20.87 13.54
12/21/2020 3:00:00 PM 0.63 33.134 0.495 7.99 20.66 13.57
12/21/2020 3:15:00 PM 0.63 33.134 0.495 8 21.05 13.59
12/21/2020 3:30:00 PM 0.63 33.134 0.495 8 21.1 13.62
12/21/2020 3:45:00 PM 0.62 33.116 0.495 8 21.24 13.57
12/21/2020 4:00:00 PM 0.61 33.098 0.495 8.01 21.16 13.65
12/21/2020 4:15:00 PM 0.61 33.098 0.495 8.01 20.84 13.57
12/21/2020 4:30:00 PM 0.6 33.08 0.495 8.01 20.84 13.59
12/21/2020 4:45:00 PM 0.59 33.062 0.494 8.01 20.97 13.56
12/21/2020 5:00:00 PM 0.58 33.044 0.495 8.01 21.03 13.53
12/21/2020 5:15:00 PM 0.54 32.972 0.495 8.01 21.13 13.59
12/21/2020 5:30:00 PM 0.52 32.936 0.494 8.01 21.05 13.59
12/21/2020 5:45:00 PM 0.53 32.954 0.495 8.01 21.44 13.52
12/21/2020 6:00:00 PM 0.51 32.918 0.494 8.01 21.52 13.5
12/21/2020 6:15:00 PM 0.54 32.972 0.495 8 21.16 13.33
12/21/2020 6:30:00 PM 0.56 33.008 0.495 8 20.67 13.24
12/21/2020 6:45:00 PM 0.54 32.972 0.494 7.99 20.71 13.16
12/21/2020 7:00:00 PM 0.54 32.972 0.495 7.99 20.82 13.16
12/21/2020 7:15:00 PM 0.53 32.954 0.495 7.99 20.62 13.1
12/21/2020 7:30:00 PM 0.52 32.936 0.495 7.99 20.86 13.07
12/21/2020 7:45:00 PM 0.52 32.936 0.495 7.99 21.11 13.03
12/21/2020 8:00:00 PM 0.52 32.936 0.494 7.99 21.11 13.02
12/21/2020 8:15:00 PM 0.51 32.918 0.494 7.99 21.06 12.99
12/21/2020 8:30:00 PM 0.5 32.9 0.494 7.99 21.03 12.98
12/21/2020 8:45:00 PM 0.5 32.9 0.494 7.99 21.21 13.01
12/21/2020 9:00:00 PM 0.5 32.9 0.494 7.99 21.43 13.06
12/21/2020 9:15:00 PM 0.5 32.9 0.493 7.99 21.35 13.03
12/21/2020 9:30:00 PM 0.48 32.864 0.493 7.99 22.35 13.06
12/21/2020 9:45:00 PM 0.49 32.882 0.493 7.99 22.91 13.1
12/21/2020 10:00:00 PM 0.49 32.882 0.493 7.99 21.35 13.08
12/21/2020 10:15:00 PM 0.48 32.864 0.493 7.99 21.62 13.09
12/21/2020 10:30:00 PM 0.49 32.882 0.492 7.99 21.4 13.12
12/21/2020 10:45:00 PM 0.51 32.918 0.492 7.99 21.8 13.09
12/21/2020 11:00:00 PM 0.49 32.882 0.493 7.98 21.29 13.07
12/21/2020 11:15:00 PM 0.49 32.882 0.492 7.99 21.78 13.03
12/21/2020 11:30:00 PM 0.49 32.882 0.492 7.99 21.4 13.05
12/21/2020 11:45:00 PM 0.48 32.864 0.492 7.99 21.26 13.04
12/22/2020 12:00:00 AM 0.48 32.864 0.491 7.98 21.24 13.06
12/22/2020 12:15:00 AM 0.48 32.864 0.491 7.98 21.13 13.04
12/22/2020 12:30:00 AM 0.48 32.864 0.491 7.98 21.16 13.02
12/22/2020 12:45:00 AM 0.48 32.864 0.491 7.98 21.17 13.02
12/22/2020 1:00:00 AM 0.49 32.882 0.492 7.98 21.05 12.97
12/22/2020 1:15:00 AM 0.48 32.864 0.491 7.97 21.18 12.92
12/22/2020 1:30:00 AM 0.45 32.81 0.491 7.98 21.84 12.96
12/22/2020 1:45:00 AM 0.45 32.81 0.491 7.98 21.75 12.94
12/22/2020 2:00:00 AM 0.45 32.81 0.491 7.98 22.72 12.9
12/22/2020 2:15:00 AM 0.46 32.828 0.491 7.98 21.44 12.97
12/22/2020 2:30:00 AM 0.46 32.828 0.491 7.98 21.57 13
12/22/2020 2:45:00 AM 0.44 32.792 0.491 7.98 21.75 13.03
12/22/2020 3:00:00 AM 0.41 32.738 0.492 7.99 21.65 13.06
12/22/2020 3:15:00 AM 0.4 32.72 0.492 7.99 21.96 13.07
12/22/2020 3:30:00 AM 0.39 32.702 0.492 7.99 22.02 13.02
12/22/2020 3:45:00 AM 0.38 32.684 0.492 7.98 21.75 13.02
12/22/2020 4:00:00 AM 0.38 32.684 0.493 7.98 22.3 13.01
12/22/2020 4:15:00 AM 0.38 32.684 0.493 7.98 22.54 12.96
12/22/2020 4:30:00 AM 0.38 32.684 0.493 7.99 22.57 12.92
12/22/2020 4:45:00 AM 0.37 32.666 0.494 7.98 21.85 12.91
12/22/2020 5:00:00 AM 0.35 32.63 0.494 7.99 22.07 12.91
12/22/2020 5:15:00 AM 0.36 32.648 0.494 7.98 21.33 12.9
12/22/2020 5:30:00 AM 0.38 32.684 0.495 7.98 21.23 12.88
12/22/2020 5:45:00 AM 0.36 32.648 0.495 7.98 21.64 12.83
12/22/2020 6:00:00 AM 0.38 32.684 0.496 7.98 22.66 12.82
12/22/2020 6:15:00 AM 0.37 32.666 0.497 7.98 22.32 12.84
12/22/2020 6:30:00 AM 0.39 32.702 0.497 7.98 21.87 12.81
12/22/2020 6:45:00 AM 0.4 32.72 0.498 7.97 22.55 12.67
12/22/2020 7:00:00 AM 0.4 32.72 0.499 7.97 21.49 12.66
12/22/2020 7:15:00 AM 0.41 32.738 0.499 7.96 21.82 12.63
12/22/2020 7:30:00 AM 0.39 32.702 0.5 7.97 21.15 12.63
12/22/2020 7:45:00 AM 0.37 32.666 0.501 7.97 20.95 12.71
12/22/2020 8:00:00 AM 0.38 32.684 0.501 7.97 20.61 12.7
12/22/2020 8:15:00 AM 0.41 32.738 0.503 7.97 20.79 12.67
12/22/2020 8:30:00 AM 0.41 32.738 0.503 7.97 21.02 12.67
12/22/2020 8:45:00 AM 0.42 32.756 0.504 7.97 22.02 12.68
12/22/2020 9:00:00 AM 0.43 32.774 0.505 7.96 22.99 12.69
12/22/2020 9:15:00 AM 0.46 32.828 0.506 7.96 21.81 12.71
12/22/2020 9:30:00 AM 0.48 32.864 0.507 7.96 21.29 12.71
12/22/2020 9:45:00 AM 0.5 32.9 0.507 7.96 21.29 12.72
12/22/2020 10:00:00 AM 0.53 32.954 0.508 7.97 21.29 12.83
12/22/2020 10:15:00 AM 0.56 33.008 0.509 7.97 21.22 12.89
12/22/2020 10:30:00 AM 0.59 33.062 0.51 7.98 21.27 12.89
12/22/2020 10:45:00 AM 0.61 33.098 0.511 7.98 21.26 12.93
12/22/2020 11:00:00 AM 0.64 33.152 0.512 7.98 21.02 13
12/22/2020 11:15:00 AM 0.68 33.224 0.513 7.98 21.13 13.07
12/22/2020 11:30:00 AM 0.71 33.278 0.514 7.99 21.44 13.12
12/22/2020 11:45:00 AM 0.73 33.314 0.517 8 21.22 13.15
12/22/2020 12:00:00 PM 0.75 33.35 0.518 7.99 20.82 13.23
12/22/2020 12:15:00 PM 0.77 33.386 0.519 8 21.11 13.3
12/22/2020 12:30:00 PM 0.78 33.404 0.52 8.01 21.01 13.33
12/22/2020 12:45:00 PM 0.79 33.422 0.521 8.01 21.24 13.41
12/22/2020 1:00:00 PM 0.8 33.44 0.523 8.02 21.09 13.44
12/22/2020 1:15:00 PM 0.82 33.476 0.524 8.02 21.12 13.46
12/22/2020 1:30:00 PM 0.83 33.494 0.525 8.03 20.96 13.5
12/22/2020 1:45:00 PM 0.84 33.512 0.526 8.03 20.8 13.51
12/22/2020 2:00:00 PM 0.87 33.566 0.528 8.03 21.32 13.58
12/22/2020 2:15:00 PM 0.89 33.602 0.529 8.03 21.61 13.64
12/22/2020 2:30:00 PM 0.87 33.566 0.531 8.04 21.4 13.69
12/22/2020 2:45:00 PM 0.87 33.566 0.532 8.04 21.36 13.71
12/22/2020 3:00:00 PM 0.88 33.584 0.533 8.04 21.23 13.67
12/22/2020 3:15:00 PM 0.86 33.548 0.535 8.05 20.99 13.76
12/22/2020 3:30:00 PM 0.85 33.53 0.536 8.05 20.96 13.74
12/22/2020 3:45:00 PM 0.83 33.494 0.538 8.06 21.01 13.78
12/22/2020 4:00:00 PM 0.82 33.476 0.539 8.06 21.21 13.8
12/22/2020 4:15:00 PM 0.79 33.422 0.541 8.07 21.3 13.8
12/22/2020 4:30:00 PM 0.75 33.35 0.543 8.07 21.92 13.77
12/22/2020 4:45:00 PM 0.74 33.332 0.544 8.07 42.34 13.8
12/22/2020 5:00:00 PM 0.73 33.314 0.545 8.07 22.31 13.81
12/22/2020 5:15:00 PM 0.74 33.332 0.547 8.07 23.08 13.76
12/22/2020 5:30:00 PM 0.75 33.35 0.548 8.07 22.1 13.7
12/22/2020 5:45:00 PM 0.72 33.296 0.55 8.07 21.86 13.69
12/22/2020 6:00:00 PM 0.72 33.296 0.551 8.08 21.94 13.66
12/22/2020 6:15:00 PM 0.72 33.296 0.552 8.08 22.12 13.63
12/22/2020 6:30:00 PM 0.7 33.26 0.553 8.07 22.31 13.6
12/22/2020 6:45:00 PM 0.71 33.278 0.555 8.07 21.97 13.58
12/22/2020 7:00:00 PM 0.7 33.26 0.556 8.07 21.78 13.54
12/22/2020 7:15:00 PM 0.69 33.242 0.557 8.07 22.03 13.54
12/22/2020 7:30:00 PM 0.69 33.242 0.559 8.07 22.01 13.53
12/22/2020 7:45:00 PM 0.7 33.26 0.56 8.06 22.04 13.5
12/22/2020 8:00:00 PM 0.67 33.206 0.561 8.06 21.99 13.48
12/22/2020 8:15:00 PM 0.67 33.206 0.562 8.06 22.13 13.46
12/22/2020 8:30:00 PM 0.66 33.188 0.563 8.06 22.21 13.5
12/22/2020 8:45:00 PM 0.66 33.188 0.564 8.06 22.35 13.47
12/22/2020 9:00:00 PM 0.66 33.188 0.566 8.06 22.37 13.43
12/22/2020 9:15:00 PM 0.66 33.188 0.567 8.06 22.19 13.44
12/22/2020 9:30:00 PM 0.66 33.188 0.568 8.06 22.51 13.41
12/22/2020 9:45:00 PM 0.65 33.17 0.569 8.06 23.01 13.39
12/22/2020 10:00:00 PM 0.64 33.152 0.57 8.06 22.57 13.44
12/22/2020 10:15:00 PM 0.63 33.134 0.572 8.06 23.01 13.43
12/22/2020 10:30:00 PM 0.62 33.116 0.573 8.06 23.27 13.48
12/22/2020 10:45:00 PM 0.62 33.116 0.575 8.06 22.76 13.47
12/22/2020 11:00:00 PM 0.62 33.116 0.576 8.06 22.42 13.46
12/22/2020 11:15:00 PM 0.64 33.152 0.577 8.05 22.46 13.43
12/22/2020 11:30:00 PM 0.64 33.152 0.579 8.05 23.04 13.38
12/22/2020 11:45:00 PM 0.65 33.17 0.581 8.05 22.4 13.38
12/23/2020 12:00:00 AM 0.65 33.17 0.583 8.05 22.12 13.42
12/23/2020 12:15:00 AM 0.66 33.188 0.585 8.05 22.85 13.37
12/23/2020 12:30:00 AM 0.65 33.17 0.587 8.04 21.93 13.34
12/23/2020 12:45:00 AM 0.66 33.188 0.59 8.04 22.06 13.35
12/23/2020 1:00:00 AM 0.68 33.224 0.591 8.04 22.09 13.34
12/23/2020 1:15:00 AM 0.67 33.206 0.594 8.04 21.88 13.33
12/23/2020 1:30:00 AM 0.68 33.224 0.596 8.04 21.94 13.34
12/23/2020 1:45:00 AM 0.7 33.26 0.598 8.04 21.84 13.3
12/23/2020 2:00:00 AM 0.69 33.242 0.602 8.04 22.11 13.29
12/23/2020 2:15:00 AM 0.7 33.26 0.606 8.03 22.54 13.28
12/23/2020 2:30:00 AM 0.71 33.278 0.608 8.04 21.91 13.28
12/23/2020 2:45:00 AM 0.72 33.296 0.611 8.04 22.24 13.24
12/23/2020 3:00:00 AM 0.73 33.314 0.615 8.03 21.85 13.23
12/23/2020 3:15:00 AM 0.73 33.314 0.618 8.04 22.57 13.22
12/23/2020 3:30:00 AM 0.74 33.332 0.621 8.03 22 13.17
12/23/2020 3:45:00 AM 0.74 33.332 0.625 8.03 22.67 13.17
12/23/2020 4:00:00 AM 0.74 33.332 0.629 8.03 21.61 13.13
12/23/2020 4:15:00 AM 0.75 33.35 0.633 8.03 21.9 13.08
12/23/2020 4:30:00 AM 0.76 33.368 0.636 8.03 22.46 13.09
12/23/2020 4:45:00 AM 0.76 33.368 0.64 8.02 21.68 13.02
12/23/2020 5:00:00 AM 0.76 33.368 0.644 8.03 21.7 13
12/23/2020 5:15:00 AM 0.75 33.35 0.648 8.02 21.54 12.97
12/23/2020 5:30:00 AM 0.77 33.386 0.65 8.02 21.36 12.89
12/23/2020 5:45:00 AM 0.76 33.368 0.654 8.01 24.36 12.81
12/23/2020 6:00:00 AM 0.73 33.314 0.66 8.01 21.59 12.84
12/23/2020 6:15:00 AM 0.71 33.278 0.663 8.02 21.41 12.86
12/23/2020 6:30:00 AM 0.71 33.278 0.666 8.01 21.86 12.74
12/23/2020 6:45:00 AM 0.7 33.26 0.67 8.01 21.47 12.79
12/23/2020 7:00:00 AM 0.69 33.242 0.674 8.01 21.06 12.79
12/23/2020 7:15:00 AM 0.7 33.26 0.676 8 21.22 12.76
12/23/2020 7:30:00 AM 0.71 33.278 0.679 7.99 21.22 12.7
12/23/2020 7:45:00 AM 0.65 33.17 0.684 7.99 23.57 12.67
12/23/2020 8:00:00 AM 0.68 33.224 0.687 7.98 24.04 12.62
12/23/2020 8:15:00 AM 0.67 33.206 0.69 7.98 23.93 12.62
12/23/2020 8:30:00 AM 0.68 33.224 0.693 7.98 22.68 12.62
12/23/2020 8:45:00 AM 0.67 33.206 0.695 7.98 27.18 12.67
12/23/2020 9:00:00 AM 0.7 33.26 0.697 7.98 25.53 12.63
12/23/2020 9:15:00 AM 0.74 33.332 0.699 7.97 23.55 12.61
12/23/2020 9:30:00 AM 0.76 33.368 0.701 7.97 23.19 12.64
12/23/2020 9:45:00 AM 0.76 33.368 0.703 7.98 23.23 12.73
12/23/2020 10:00:00 AM 0.77 33.386 0.706 7.99 22.74 12.82
12/23/2020 10:15:00 AM 0.8 33.44 0.707 8 23.61 12.87
12/23/2020 10:30:00 AM 0.85 33.53 0.709 7.99 22.36 12.82
12/23/2020 10:45:00 AM 0.88 33.584 0.71 7.99 22.24 12.9
12/23/2020 11:00:00 AM 0.93 33.674 0.712 8 24.9 13
12/23/2020 11:15:00 AM 0.98 33.764 0.712 8.01 22.98 13.03
12/23/2020 11:30:00 AM 1.03 33.854 0.714 8 23.99 13.03
12/23/2020 11:45:00 AM 1.09 33.962 0.714 8.02 22.28 13.25
12/23/2020 12:00:00 PM 1.14 34.052 0.714 8.02 22.37 13.22
12/23/2020 12:15:00 PM 1.22 34.196 0.715 8.01 25.46 13.25
12/23/2020 12:30:00 PM 1.27 34.286 0.716 8.02 22.96 13.34
12/23/2020 12:45:00 PM 1.31 34.358 0.716 8.02 22.9 13.32
12/23/2020 1:00:00 PM 1.36 34.448 0.716 8.02 22.56 13.4
12/23/2020 1:15:00 PM 1.4 34.52 0.717 8.04 22.15 13.53
12/23/2020 1:30:00 PM 1.42 34.556 0.717 8.05 22.24 13.58
12/23/2020 1:45:00 PM 1.46 34.628 0.717 8.05 33.06 13.58
12/23/2020 2:00:00 PM 1.49 34.682 0.717 8.05 27.15 13.57
12/23/2020 2:15:00 PM 1.51 34.718 0.718 8.06 32.58 13.56
12/23/2020 2:30:00 PM 1.53 34.754 0.717 8.06 26.02 13.74
12/23/2020 2:45:00 PM 1.54 34.772 0.717 8.07 23.21 13.75
12/23/2020 3:00:00 PM 1.54 34.772 0.717 8.07 23.22 13.79
12/23/2020 3:15:00 PM 1.54 34.772 0.717 8.08 23.74 13.87
12/23/2020 3:30:00 PM 1.53 34.754 0.717 8.09 22.84 13.94
12/23/2020 3:45:00 PM 1.52 34.736 0.717 8.1 22.38 14.07
12/23/2020 4:00:00 PM 1.52 34.736 0.717 8.11 22.41 14.1
12/23/2020 4:15:00 PM 1.5 34.7 0.716 8.11 22.32 14.14
12/23/2020 4:30:00 PM 1.48 34.664 0.716 8.12 22.37 14.15
12/23/2020 4:45:00 PM 1.43 34.574 0.716 8.12 21.62 14.18
12/23/2020 5:00:00 PM 1.4 34.52 0.715 8.13 21.69 14.14
12/23/2020 5:15:00 PM 1.37 34.466 0.715 8.13 21.99 14.13
12/23/2020 5:30:00 PM 1.35 34.43 0.715 8.13 22.07 14.06
12/23/2020 5:45:00 PM 1.3 34.34 0.714 8.13 21.51 14.03
12/23/2020 6:00:00 PM 1.28 34.304 0.713 8.13 21.39 14.05
12/23/2020 6:15:00 PM 1.28 34.304 0.713 8.13 21.62 14.03
12/23/2020 6:30:00 PM 1.26 34.268 0.712 8.13 21.59 13.99
12/23/2020 6:45:00 PM 1.25 34.25 0.711 8.13 21.85 13.93
12/23/2020 7:00:00 PM 1.25 34.25 0.71 8.13 21.66 13.91
12/23/2020 7:15:00 PM 1.26 34.268 0.709 8.13 22.43 13.93
12/23/2020 7:30:00 PM 1.27 34.286 0.708 8.12 21.95 13.88
12/23/2020 7:45:00 PM 1.27 34.286 0.707 8.12 21.49 13.86
12/23/2020 8:00:00 PM 1.28 34.304 0.706 8.12 21.74 13.82
12/23/2020 8:15:00 PM 1.29 34.322 0.705 8.12 21.82 13.81
12/23/2020 8:30:00 PM 1.3 34.34 0.704 8.12 21.83 13.73
12/23/2020 8:45:00 PM 1.3 34.34 0.703 8.12 22.14 13.72
12/23/2020 9:00:00 PM 1.3 34.34 0.702 8.11 22.15 13.73
12/23/2020 9:15:00 PM 1.31 34.358 0.701 8.11 21.98 13.69
12/23/2020 9:30:00 PM 1.32 34.376 0.7 8.11 22.14 13.66
12/23/2020 9:45:00 PM 1.33 34.394 0.699 8.1 22.13 13.62
12/23/2020 10:00:00 PM 1.34 34.412 0.698 8.1 22.42 13.6
12/23/2020 10:15:00 PM 1.35 34.43 0.697 8.11 22.18 13.62
12/23/2020 10:30:00 PM 1.36 34.448 0.696 8.1 22.5 13.62
12/23/2020 10:45:00 PM 1.37 34.466 0.695 8.1 22.55 13.61
12/23/2020 11:00:00 PM 1.38 34.484 0.694 8.1 23.25 13.57
12/23/2020 11:15:00 PM 1.39 34.502 0.693 8.1 22.49 13.58
12/23/2020 11:30:00 PM 1.41 34.538 0.692 8.09 22.33 13.51
12/23/2020 11:45:00 PM 1.43 34.574 0.691 8.09 22.14 13.51
12/24/2020 12:00:00 AM 1.43 34.574 0.69 8.08 22.2 13.5
12/24/2020 12:15:00 AM 1.44 34.592 0.689 8.08 21.96 13.5
12/24/2020 12:30:00 AM 1.45 34.61 0.688 8.08 33.6 13.4
12/24/2020 12:45:00 AM 1.46 34.628 0.686 8.08 23.06 13.4
12/24/2020 1:00:00 AM 1.48 34.664 0.685 8.08 22.26 13.49
12/24/2020 1:15:00 AM 1.48 34.664 0.685 8.08 22.37 13.44
12/24/2020 1:30:00 AM 1.48 34.664 0.683 8.08 22.02 13.43
12/24/2020 1:45:00 AM 1.5 34.7 0.682 8.07 21.92 13.33
12/24/2020 2:00:00 AM 1.5 34.7 0.681 8.07 25.47 13.34
12/24/2020 2:15:00 AM 1.5 34.7 0.68 8.07 22.44 13.33
12/24/2020 2:30:00 AM 1.51 34.718 0.679 8.07 22.81 13.3
12/24/2020 2:45:00 AM 1.52 34.736 0.678 8.06 21.57 13.18
12/24/2020 3:00:00 AM 1.54 34.772 0.676 8.06 21.92 13.11
12/24/2020 3:15:00 AM 1.55 34.79 0.675 8.07 22.33 13.12
12/24/2020 3:30:00 AM 1.55 34.79 0.674 8.07 22.9 13.11
12/24/2020 3:45:00 AM 1.56 34.808 0.673 8.06 22.72 13.09
12/24/2020 4:00:00 AM 1.56 34.808 0.673 8.06 27.36 13.03
12/24/2020 4:15:00 AM 1.55 34.79 0.671 8.06 23.68 12.89
12/24/2020 4:30:00 AM 1.56 34.808 0.67 8.06 23.56 12.85
12/24/2020 4:45:00 AM 1.57 34.826 0.669 8.05 22.65 12.86
12/24/2020 5:00:00 AM 1.6 34.88 0.671 8.06 23.24 12.93
12/24/2020 5:15:00 AM 1.62 34.916 0.668 8.05 23.38 12.8
12/24/2020 5:30:00 AM 1.64 34.952 0.667 8.04 22.63 12.77
12/24/2020 5:45:00 AM 1.68 35.024 0.666 8.05 22.15 12.7
12/24/2020 6:00:00 AM 1.7 35.06 0.667 8.04 22.56 12.62
12/24/2020 6:15:00 AM 1.73 35.114 0.664 8.04 22.33 12.48
12/24/2020 6:30:00 AM 1.74 35.132 0.664 8.03 22.37 12.46
12/24/2020 6:45:00 AM 1.76 35.168 0.663 8.03 22.2 12.48
12/24/2020 7:00:00 AM 1.78 35.204 0.662 8.02 22.01 12.45
12/24/2020 7:15:00 AM 1.8 35.24 0.662 8.02 22.12 12.47
12/24/2020 7:30:00 AM 1.82 35.276 0.661 8.01 23.13 12.45
12/24/2020 7:45:00 AM 1.83 35.294 0.66 8.01 22.21 12.38
12/24/2020 8:00:00 AM 1.83 35.294 0.66 8 22.67 12.25
12/24/2020 8:15:00 AM 1.87 35.366 0.661 8 22.63 12.23
12/24/2020 8:30:00 AM 1.89 35.402 0.658 7.99 22.4 12.09
12/24/2020 8:45:00 AM 1.92 35.456 0.657 7.99 23.28 12.17
12/24/2020 9:00:00 AM 1.95 35.51 0.656 8 21.61 12.22
12/24/2020 9:15:00 AM 1.99 35.582 0.655 8 22.58 12.29
12/24/2020 9:30:00 AM 2.05 35.69 0.653 8 21.79 12.3
12/24/2020 9:45:00 AM 2.11 35.798 0.652 8 22.14 12.44
12/24/2020 10:00:00 AM 2.16 35.888 0.651 8.01 21.87 12.51
12/24/2020 10:15:00 AM 2.21 35.978 0.65 8.01 21.91 12.54
12/24/2020 10:30:00 AM 2.26 36.068 0.648 8.02 21.72 12.62
12/24/2020 10:45:00 AM 2.3 36.14 0.648 8.02 22.31 12.71
12/24/2020 11:00:00 AM 2.33 36.194 0.65 8.02 22.44 12.75
12/24/2020 11:15:00 AM 2.37 36.266 0.65 8.03 22.72 12.84
12/24/2020 11:30:00 AM 2.42 36.356 0.653 8.03 22.45 12.83
12/24/2020 11:45:00 AM 2.45 36.41 0.649 8.04 22.35 12.97
12/24/2020 12:00:00 PM 2.51 36.518 0.649 8.04 22.16 12.97
12/24/2020 12:15:00 PM 2.56 36.608 0.654 8.05 22.57 13.06
12/24/2020 12:30:00 PM 2.59 36.662 0.651 8.05 22.66 13.13
12/24/2020 12:45:00 PM 2.62 36.716 0.647 8.06 22.44 13.09
12/24/2020 1:00:00 PM 2.64 36.752 0.645 8.06 22.29 13.09
12/24/2020 1:15:00 PM 2.66 36.788 0.65 8.06 22.4 13.03
12/24/2020 1:30:00 PM 2.69 36.842 0.655 8.07 22.76 13.1
12/24/2020 1:45:00 PM 2.71 36.878 0.645 8.06 24.17 13.12
12/24/2020 2:00:00 PM 2.71 36.878 0.645 8.08 23.49 13.12
12/24/2020 2:15:00 PM 2.69 36.842 0.644 8.08 23.22 12.93
12/24/2020 2:30:00 PM 2.68 36.824 0.649 8.08 26.07 12.96
12/24/2020 2:45:00 PM 2.68 36.824 0.649 8.09 24.85 13.04
12/24/2020 3:00:00 PM 2.69 36.842 0.64 8.08 26.05 13
12/24/2020 3:15:00 PM 2.69 36.842 0.637 8.09 29.3 13.15
12/24/2020 3:30:00 PM 2.7 36.86 0.629 8.1 26.88 12.94
12/24/2020 3:45:00 PM 2.7 36.86 0.629 8.1 26.39 13.16
12/24/2020 4:00:00 PM 2.71 36.878 0.607 8.1 25.97 13.1
12/24/2020 4:15:00 PM 2.7 36.86 0.612 8.09 26.39 13.21
12/24/2020 4:30:00 PM 2.69 36.842 0.596 8.1 28.73 13.1
12/24/2020 4:45:00 PM 2.69 36.842 0.589 8.1 27.19 13.19
12/24/2020 5:00:00 PM 2.66 36.788 0.586 8.09 29.25 13.21
12/24/2020 5:15:00 PM 2.65 36.77 0.56 8.09 32.8 13.26
12/24/2020 5:30:00 PM 2.61 36.698 0.541 8.09 36.7 13.27
12/24/2020 5:45:00 PM 2.59 36.662 0.523 8.05 48.07 13.11
12/24/2020 6:00:00 PM 2.57 36.626 0.5 8.04 59.71 13.22
12/24/2020 6:15:00 PM 2.53 36.554 0.477 8 69.41 13.08
12/24/2020 6:30:00 PM 2.45 36.41 0.458 7.95 90.86 12.99
12/24/2020 6:45:00 PM 2.37 36.266 0.452 7.87 174.31 12.65
12/24/2020 7:00:00 PM 2.32 36.176 0.45 7.86 268.27 12.73
12/24/2020 7:15:00 PM 2.29 36.122 0.449 7.83 274.69 12.53
12/24/2020 7:30:00 PM 2.24 36.032 0.465 7.81 442.98 12.42
12/24/2020 7:45:00 PM 2.04 35.672 0.509 7.77 455.77 12.43
12/24/2020 8:00:00 PM 1.74 35.132 0.532 7.75 904.48 12.25
12/24/2020 8:15:00 PM 1.52 34.736 0.48 7.65 910.43 11.05
12/24/2020 8:30:00 PM 1.35 34.43 0.478 7.56 196.72 8.43
12/24/2020 8:45:00 PM 1.13 34.034 0.476 7.49 126.32 6.92
12/24/2020 9:00:00 PM 1.03 33.854 0.455 7.33 95.35 4
12/24/2020 9:15:00 PM 0.99 33.782 0.45 7.25 92.28 3.08
12/24/2020 9:30:00 PM 0.69 33.242 0.359 7.32 139.87 5.05
12/24/2020 9:45:00 PM 0.72 33.296 0.364 7.24 657.84 8.15
12/24/2020 10:00:00 PM 0.64 33.152 0.368 7.22 452.82 9.06
12/24/2020 10:15:00 PM 0.55 32.99 0.373 7.23 153.17 5.75
12/24/2020 10:30:00 PM 0.41 32.738 0.376 7.25 154.21 7.88
12/24/2020 10:45:00 PM 0.27 32.486 0.376 7.28 159.43 4.01
12/24/2020 11:00:00 PM 0.2 32.36 0.373 7.31 153.97 1.26
12/24/2020 11:15:00 PM 0.15 32.27 0.37 7.34 150.57 0.75
12/24/2020 11:30:00 PM 0.11 32.198 0.365 7.34 135.82 0.84
12/24/2020 11:45:00 PM 0.09 32.162 0.361 7.36 137.34 1.48
12/25/2020 12:00:00 AM 0.09 32.162 0.244 7.37 124.73 4.3
12/25/2020 12:15:00 AM 0.11 32.198 0.22 7.4 130.28 3.62
12/25/2020 12:30:00 AM 0.14 32.252 0.187 7.42 125.34 2.24
12/25/2020 12:45:00 AM 0.18 32.324 0.314 7.33 438.35 6.78
12/25/2020 1:00:00 AM 0.23 32.414 0.301 7.13 746.8 10.27
12/25/2020 1:15:00 AM 0.29 32.522 0.289 7.06 2683.41 11.78
12/25/2020 1:30:00 AM 0.35 32.63 0.262 7.03 1372.18 12.48
12/25/2020 1:45:00 AM 0.39 32.702 0.245 7 420.12 12.93
12/25/2020 2:00:00 AM 0.4 32.72 0.234 6.97 390.66 13.14
12/25/2020 2:15:00 AM 0.43 32.774 0.194 7.02 331.03 13.31
12/25/2020 2:30:00 AM 0.46 32.828 0.178 6.97 478.84 13.32
12/25/2020 2:45:00 AM 0.46 32.828 0.17 6.94 318.4 13.39
12/25/2020 3:00:00 AM 0.45 32.81 0.164 6.92 395.96 13.43
12/25/2020 3:15:00 AM 0.45 32.81 0.157 6.91 330.85 13.42
12/25/2020 3:30:00 AM 0.45 32.81 0.16 6.87 337.99 13.41
12/25/2020 3:45:00 AM 0.46 32.828 0.16 6.85 302.53 13.4
12/25/2020 4:00:00 AM 0.46 32.828 0.153 6.84 332.03 13.4
12/25/2020 4:15:00 AM 0.45 32.81 0.148 6.83 1200.24 13.41
12/25/2020 4:30:00 AM 0.45 32.81 0.146 6.83 520.07 13.42
12/25/2020 4:45:00 AM 0.43 32.774 0.147 6.82 483.51 13.38
12/25/2020 5:00:00 AM 0.37 32.666 0.147 6.81 531.21 13.34
12/25/2020 5:15:00 AM 0.3 32.54 0.145 6.8 588.85 12.57
12/25/2020 5:30:00 AM 0.24 32.432 0.138 6.81 757.19 13.14
12/25/2020 5:45:00 AM 0.19 32.342 0.123 6.8 893.2 13.11
12/25/2020 6:00:00 AM 0.14 32.252 0.108 6.77 131.86 13.46
12/25/2020 6:15:00 AM 0.12 32.216 0.102 6.77 212.87 13.42
12/25/2020 6:30:00 AM 0.11 32.198 0.102 6.77 317.2 13.01
12/25/2020 6:45:00 AM 0.1 32.18 0.102 6.76 418.67 12.09
12/25/2020 7:00:00 AM 0.11 32.198 0.1 6.76 1203.9 13.5
12/25/2020 7:15:00 AM 0.14 32.252 0.086 6.75 1330.66 13.55
12/25/2020 7:30:00 AM 0.15 32.27 0.088 6.75 1410.41 13.55
12/25/2020 7:45:00 AM 0.18 32.324 0.085 6.75 814.26 13.56
12/25/2020 8:00:00 AM 0.23 32.414 0.083 6.74 1945.85 13.58
12/25/2020 8:15:00 AM 0.28 32.504 0.081 6.75 729.51 13.57
12/25/2020 8:30:00 AM 0.34 32.612 0.08 6.74 1196.46 13.57
12/25/2020 8:45:00 AM 0.38 32.684 0.082 6.73 544.59 13.56
12/25/2020 9:00:00 AM 0.45 32.81 0.085 6.75 695.13 13.57
12/25/2020 9:15:00 AM 0.52 32.936 0.088 6.74 709.07 13.56
12/25/2020 9:30:00 AM 0.59 33.062 0.087 6.75 607.04 13.55
12/25/2020 9:45:00 AM 0.66 33.188 0.087 6.75 504.29 13.53
12/25/2020 10:00:00 AM 0.75 33.35 0.084 6.8 422.47 13.54
12/25/2020 10:15:00 AM 0.81 33.458 0.084 6.83 376.31 13.53
12/25/2020 10:30:00 AM 0.89 33.602 0.081 6.88 363.23 13.5
12/25/2020 10:45:00 AM 0.95 33.71 0.083 6.93 384.77 13.49
12/25/2020 11:00:00 AM 1.01 33.818 0.083 6.94 319.39 13.47
12/25/2020 11:15:00 AM 1.08 33.944 0.083 6.97 313.97 13.47
12/25/2020 11:30:00 AM 1.14 34.052 0.082 7 269.25 13.46
12/25/2020 11:45:00 AM 1.2 34.16 0.082 7.04 265.48 13.45
12/25/2020 12:00:00 PM 1.26 34.268 0.083 7.04 316.64 13.44
12/25/2020 12:15:00 PM 1.31 34.358 0.083 7.08 322.81 13.43
12/25/2020 12:30:00 PM 1.35 34.43 0.084 7.07 178.26 13.42
12/25/2020 12:45:00 PM 1.4 34.52 0.084 7.05 325.63 13.4
12/25/2020 1:00:00 PM 1.45 34.61 0.085 7.08 177.98 13.39
12/25/2020 1:15:00 PM 1.49 34.682 0.085 7.08 246.33 13.37
12/25/2020 1:30:00 PM 1.53 34.754 0.086 7.09 231.55 13.35
12/25/2020 1:45:00 PM 1.58 34.844 0.086 7.09 152.2 13.33
12/25/2020 2:00:00 PM 1.62 34.916 0.087 7.1 196.68 13.3
12/25/2020 2:15:00 PM 1.67 35.006 0.088 7.1 125.8 13.28
12/25/2020 2:30:00 PM 1.72 35.096 0.088 7.11 147.56 13.27
12/25/2020 2:45:00 PM 1.77 35.186 0.089 7.1 204.25 13.26
12/25/2020 3:00:00 PM 1.82 35.276 0.089 7.11 137.2 13.25
12/25/2020 3:15:00 PM 1.87 35.366 0.089 7.12 134.68 13.25
12/25/2020 3:30:00 PM 1.91 35.438 0.09 7.13 113.55 13.24
12/25/2020 3:45:00 PM 1.95 35.51 0.09 7.13 123.78 13.24
12/25/2020 4:00:00 PM 1.98 35.564 0.09 7.14 153.54 13.22
12/25/2020 4:15:00 PM 2.01 35.618 0.091 7.14 112.49 13.21
12/25/2020 4:30:00 PM 2.03 35.654 0.091 7.14 122.03 13.2
12/25/2020 4:45:00 PM 2.04 35.672 0.091 7.14 101.19 13.18
12/25/2020 5:00:00 PM 2.05 35.69 0.092 7.15 83.48 13.17
12/25/2020 5:15:00 PM 2.05 35.69 0.092 7.16 91.54 13.16
12/25/2020 5:30:00 PM 2.06 35.708 0.093 7.15 115.14 13.15
12/25/2020 5:45:00 PM 2.08 35.744 0.093 7.15 89.62 13.15
12/25/2020 6:00:00 PM 2.09 35.762 0.094 7.16 71.4 13.14
12/25/2020 6:15:00 PM 2.09 35.762 0.094 7.15 92.62 13.15
12/25/2020 6:30:00 PM 2.09 35.762 0.095 7.16 88.42 13.15
12/25/2020 6:45:00 PM 2.09 35.762 0.095 7.16 114.5 13.15
12/25/2020 7:00:00 PM 2.08 35.744 0.096 7.16 95.31 13.16
12/25/2020 7:15:00 PM 2.06 35.708 0.096 7.17 87.12 13.17
12/25/2020 7:30:00 PM 2.05 35.69 0.096 7.17 89.42 13.18
12/25/2020 7:45:00 PM 2.03 35.654 0.096 7.17 79.6 13.19
12/25/2020 8:00:00 PM 2.01 35.618 0.096 7.18 75.92 13.19
12/25/2020 8:15:00 PM 1.98 35.564 0.096 7.17 75.41 13.21
12/25/2020 8:30:00 PM 1.95 35.51 0.096 7.18 66.78 13.22
12/25/2020 8:45:00 PM 1.92 35.456 0.097 7.18 68.19 13.23
12/25/2020 9:00:00 PM 1.89 35.402 0.097 7.18 78.23 13.24
12/25/2020 9:15:00 PM 1.86 35.348 0.097 7.18 72.49 13.25
12/25/2020 9:30:00 PM 1.83 35.294 0.098 7.19 48.76 13.26
12/25/2020 9:45:00 PM 1.79 35.222 0.098 7.19 88.01 13.27
12/25/2020 10:00:00 PM 1.76 35.168 0.099 7.19 65.62 13.28
12/25/2020 10:15:00 PM 1.72 35.096 0.099 7.17 78.11 13.29
12/25/2020 10:30:00 PM 1.68 35.024 0.1 7.2 58.34 13.29
12/25/2020 10:45:00 PM 1.65 34.97 0.1 7.19 67.98 13.3
12/25/2020 11:00:00 PM 1.62 34.916 0.1 7.21 56.25 13.31
12/25/2020 11:15:00 PM 1.58 34.844 0.101 7.21 60.25 13.33
12/25/2020 11:30:00 PM 1.54 34.772 0.101 7.21 60.63 13.34
12/25/2020 11:45:00 PM 1.5 34.7 0.101 7.21 64.49 13.36
12/26/2020 12:00:00 AM 1.46 34.628 0.102 7.21 65.43 13.38
12/26/2020 12:15:00 AM 1.42 34.556 0.103 7.22 55.67 13.4
12/26/2020 12:30:00 AM 1.38 34.484 0.103 7.23 65.09 13.41
12/26/2020 12:45:00 AM 1.35 34.43 0.103 7.23 71.16 13.42
12/26/2020 1:00:00 AM 1.31 34.358 0.103 7.23 49.33 13.43
12/26/2020 1:15:00 AM 1.28 34.304 0.103 7.23 42.04 13.45
12/26/2020 1:30:00 AM 1.24 34.232 0.103 7.2 54.67 13.46
12/26/2020 1:45:00 AM 1.21 34.178 0.102 7.23 51.69 13.47
12/26/2020 2:00:00 AM 1.17 34.106 0.102 7.23 49.12 13.49
12/26/2020 2:15:00 AM 1.13 34.034 0.102 7.24 51.75 13.5
12/26/2020 2:30:00 AM 1.1 33.98 0.103 7.24 56.04 13.51
12/26/2020 2:45:00 AM 1.07 33.926 0.104 7.24 48.53 13.52
12/26/2020 3:00:00 AM 1.04 33.872 0.104 7.24 53.6 13.53
12/26/2020 3:15:00 AM 1.01 33.818 0.104 7.24 46.35 13.54
12/26/2020 3:30:00 AM 0.98 33.764 0.104 7.25 56.43 13.55
12/26/2020 3:45:00 AM 0.95 33.71 0.105 7.25 38.34 13.56
12/26/2020 4:00:00 AM 0.92 33.656 0.105 7.25 62.49 13.57
12/26/2020 4:15:00 AM 0.89 33.602 0.105 7.25 39.38 13.59
12/26/2020 4:30:00 AM 0.86 33.548 0.106 7.26 41.97 13.6
12/26/2020 4:45:00 AM 0.83 33.494 0.106 7.26 51.65 13.62
12/26/2020 5:00:00 AM 0.81 33.458 0.106 7.26 36.54 13.62
12/26/2020 5:15:00 AM 0.78 33.404 0.107 7.26 41.07 13.63
12/26/2020 5:30:00 AM 0.76 33.368 0.107 7.27 51.1 13.64
12/26/2020 5:45:00 AM 0.73 33.314 0.107 7.27 37.98 13.66
12/26/2020 6:00:00 AM 0.71 33.278 0.107 7.28 44.27 13.66
12/26/2020 6:15:00 AM 0.68 33.224 0.108 7.28 31.03 13.68
12/26/2020 6:30:00 AM 0.66 33.188 0.108 7.28 40.72 13.68
12/26/2020 6:45:00 AM 0.63 33.134 0.108 7.28 34.15 13.69
12/26/2020 7:00:00 AM 0.61 33.098 0.108 7.28 28.6 13.7
12/26/2020 7:15:00 AM 0.58 33.044 0.108 7.29 44.08 13.71
12/26/2020 7:30:00 AM 0.56 33.008 0.109 7.28 34.43 13.72
12/26/2020 7:45:00 AM 0.54 32.972 0.109 7.29 26.88 13.73
12/26/2020 8:00:00 AM 0.52 32.936 0.109 7.29 36.15 13.74
12/26/2020 8:15:00 AM 0.5 32.9 0.109 7.29 31.49 13.75
12/26/2020 8:30:00 AM 0.48 32.864 0.11 7.27 33.32 13.76
12/26/2020 8:45:00 AM 0.46 32.828 0.11 7.29 37.22 13.77
12/26/2020 9:00:00 AM 0.45 32.81 0.11 7.29 33.32 13.77
12/26/2020 9:15:00 AM 0.44 32.792 0.11 7.3 31.35 13.79
12/26/2020 9:30:00 AM 0.43 32.774 0.111 7.3 33.63 13.8
12/26/2020 9:45:00 AM 0.41 32.738 0.111 7.3 33.39 13.8
12/26/2020 10:00:00 AM 0.41 32.738 0.111 7.3 31.17 13.81
12/26/2020 10:15:00 AM 0.41 32.738 0.112 7.31 30.92 13.83
12/26/2020 10:30:00 AM 0.42 32.756 0.112 7.31 31.82 13.83
12/26/2020 10:45:00 AM 0.43 32.774 0.112 7.31 31.49 13.84
12/26/2020 11:00:00 AM 0.44 32.792 0.113 7.31 33.09 13.85
12/26/2020 11:15:00 AM 0.46 32.828 0.113 7.31 30.37 13.85
12/26/2020 11:30:00 AM 0.47 32.846 0.113 7.32 30.35 13.86
12/26/2020 11:45:00 AM 0.49 32.882 0.113 7.32 32.2 13.86
12/26/2020 12:00:00 PM 0.51 32.918 0.114 7.32 36.44 13.87
12/26/2020 12:15:00 PM 0.54 32.972 0.114 7.32 28.98 13.86
12/26/2020 12:30:00 PM 0.57 33.026 0.115 7.32 25.2 13.86
12/26/2020 12:45:00 PM 0.6 33.08 0.115 7.33 29.12 13.86
12/26/2020 1:00:00 PM 0.62 33.116 0.116 7.33 29.17 13.86
12/26/2020 1:15:00 PM 0.66 33.188 0.116 7.34 28.32 13.85
12/26/2020 1:30:00 PM 0.69 33.242 0.116 7.34 27.81 13.84
12/26/2020 1:45:00 PM 0.71 33.278 0.117 7.34 25.65 13.84
12/26/2020 2:00:00 PM 0.73 33.314 0.117 7.35 27.66 13.84
12/26/2020 2:15:00 PM 0.76 33.368 0.117 7.35 34.13 13.83
12/26/2020 2:30:00 PM 0.79 33.422 0.118 7.35 27.21 13.83
12/26/2020 2:45:00 PM 0.81 33.458 0.118 7.35 22.68 13.81
12/26/2020 3:00:00 PM 0.83 33.494 0.118 7.35 25.31 13.8
12/26/2020 3:15:00 PM 0.86 33.548 0.118 7.3 25.21 13.79
12/26/2020 3:30:00 PM 0.88 33.584 0.118 7.36 27.7 13.78
12/26/2020 3:45:00 PM 0.89 33.602 0.118 7.37 27.99 13.77
12/26/2020 4:00:00 PM 0.91 33.638 0.119 7.37 25.65 13.75
12/26/2020 4:15:00 PM 0.91 33.638 0.119 7.37 26.2 13.74
12/26/2020 4:30:00 PM 0.92 33.656 0.119 7.37 25.15 13.73
12/26/2020 4:45:00 PM 0.93 33.674 0.119 7.37 25.19 13.71
12/26/2020 5:00:00 PM 0.93 33.674 0.12 7.38 20.97 13.7
12/26/2020 5:15:00 PM 0.93 33.674 0.12 7.38 28.64 13.69
12/26/2020 5:30:00 PM 0.93 33.674 0.121 7.38 23.29 13.68
12/26/2020 5:45:00 PM 0.93 33.674 0.121 7.38 25.02 13.67
12/26/2020 6:00:00 PM 0.92 33.656 0.121 7.38 24.25 13.65
12/26/2020 6:15:00 PM 0.92 33.656 0.121 7.38 25.81 13.65
12/26/2020 6:30:00 PM 0.91 33.638 0.121 7.38 24.56 13.64
12/26/2020 6:45:00 PM 0.89 33.602 0.121 7.39 24.27 13.64
12/26/2020 7:00:00 PM 0.88 33.584 0.121 7.39 24.84 13.64
12/26/2020 7:15:00 PM 0.87 33.566 0.121 7.39 23.82 13.63
12/26/2020 7:30:00 PM 0.86 33.548 0.122 7.4 25.13 13.63
12/26/2020 7:45:00 PM 0.85 33.53 0.122 7.4 24.44 13.63
12/26/2020 8:00:00 PM 0.83 33.494 0.122 7.4 21.79 13.63
12/26/2020 8:15:00 PM 0.82 33.476 0.122 7.4 23.44 13.63
12/26/2020 8:30:00 PM 0.81 33.458 0.122 7.4 23.53 13.63
12/26/2020 8:45:00 PM 0.79 33.422 0.123 7.4 23.54 13.64
12/26/2020 9:00:00 PM 0.78 33.404 0.123 7.41 23.29 13.65
12/26/2020 9:15:00 PM 0.77 33.386 0.123 7.41 23.03 13.65
12/26/2020 9:30:00 PM 0.75 33.35 0.123 7.41 22.79 13.65
12/26/2020 9:45:00 PM 0.74 33.332 0.123 7.41 22.89 13.66
12/26/2020 10:00:00 PM 0.73 33.314 0.124 7.41 28.68 13.67
12/26/2020 10:15:00 PM 0.72 33.296 0.124 7.41 22.57 13.68
12/26/2020 10:30:00 PM 0.71 33.278 0.124 7.42 21.4 13.68
12/26/2020 10:45:00 PM 0.69 33.242 0.124 7.41 22.77 13.68
12/26/2020 11:00:00 PM 0.68 33.224 0.125 7.41 23.14 13.69
12/26/2020 11:15:00 PM 0.67 33.206 0.125 7.42 20.06 13.7
12/26/2020 11:30:00 PM 0.66 33.188 0.125 7.42 22.25 13.71
12/26/2020 11:45:00 PM 0.65 33.17 0.125 7.41 21.21 13.71
12/27/2020 12:00:00 AM 0.64 33.152 0.126 7.43 21.47 13.71
12/27/2020 12:15:00 AM 0.63 33.134 0.126 7.41 21.67 13.73
12/27/2020 12:30:00 AM 0.62 33.116 0.126 7.43 20.34 13.73
12/27/2020 12:45:00 AM 0.61 33.098 0.126 7.43 21.15 13.74
12/27/2020 1:00:00 AM 0.6 33.08 0.126 7.42 20.86 13.75
12/27/2020 1:15:00 AM 0.59 33.062 0.127 7.44 20.67 13.75
12/27/2020 1:30:00 AM 0.58 33.044 0.127 7.44 20.74 13.77
12/27/2020 1:45:00 AM 0.58 33.044 0.127 7.43 20.88 13.76
12/27/2020 2:00:00 AM 0.57 33.026 0.127 7.44 20.98 13.77
12/27/2020 2:15:00 AM 0.56 33.008 0.128 7.44 20.28 13.77
12/27/2020 2:30:00 AM 0.56 33.008 0.128 7.44 20.76 13.78
12/27/2020 2:45:00 AM 0.56 33.008 0.128 7.45 20.52 13.79
12/27/2020 3:00:00 AM 0.56 33.008 0.128 7.45 19.89 13.79
12/27/2020 3:15:00 AM 0.56 33.008 0.128 7.45 20.28 13.78
12/27/2020 3:30:00 AM 0.56 33.008 0.129 7.45 20.69 13.78
12/27/2020 3:45:00 AM 0.56 33.008 0.129 7.45 19.75 13.79
12/27/2020 4:00:00 AM 0.56 33.008 0.129 7.45 19.5 13.79
12/27/2020 4:15:00 AM 0.56 33.008 0.13 7.45 21.19 13.79
12/27/2020 4:30:00 AM 0.56 33.008 0.13 7.45 20.05 13.79
12/27/2020 4:45:00 AM 0.56 33.008 0.13 7.44 19.59 13.78
12/27/2020 5:00:00 AM 0.56 33.008 0.13 7.44 19 13.79
12/27/2020 5:15:00 AM 0.56 33.008 0.13 7.46 18.96 13.79
12/27/2020 5:30:00 AM 0.57 33.026 0.131 7.46 19.15 13.79
12/27/2020 5:45:00 AM 0.58 33.044 0.131 7.47 18.92 13.79
12/27/2020 6:00:00 AM 0.59 33.062 0.131 7.47 18.67 13.78
12/27/2020 6:15:00 AM 0.6 33.08 0.131 7.47 18.42 13.78
12/27/2020 6:30:00 AM 0.61 33.098 0.132 7.47 18.3 13.78
12/27/2020 6:45:00 AM 0.62 33.116 0.132 7.47 18.76 13.78
12/27/2020 7:00:00 AM 0.63 33.134 0.132 7.47 18.18 13.78
12/27/2020 7:15:00 AM 0.64 33.152 0.132 7.47 18.02 13.78
12/27/2020 7:30:00 AM 0.65 33.17 0.132 7.48 17.81 13.77
12/27/2020 7:45:00 AM 0.66 33.188 0.132 7.48 17.48 13.76
12/27/2020 8:00:00 AM 0.67 33.206 0.133 7.48 17.92 13.76
12/27/2020 8:15:00 AM 0.68 33.224 0.133 7.48 17.34 13.77
12/27/2020 8:30:00 AM 0.69 33.242 0.133 7.48 17.58 13.76
12/27/2020 8:45:00 AM 0.71 33.278 0.133 7.48 16.81 13.76
12/27/2020 9:00:00 AM 0.73 33.314 0.133 7.49 17.17 13.77
12/27/2020 9:15:00 AM 0.75 33.35 0.134 7.49 16.89 13.77
12/27/2020 9:30:00 AM 0.77 33.386 0.134 7.49 17.36 13.78
12/27/2020 9:45:00 AM 0.79 33.422 0.134 7.49 17.1 13.77
12/27/2020 10:00:00 AM 0.82 33.476 0.134 7.49 17 13.77
12/27/2020 10:15:00 AM 0.85 33.53 0.134 7.5 16.91 13.78
12/27/2020 10:30:00 AM 0.88 33.584 0.134 7.5 17.17 13.78
12/27/2020 10:45:00 AM 0.92 33.656 0.134 7.5 16.67 13.78
12/27/2020 11:00:00 AM 0.96 33.728 0.134 7.5 17.13 13.78
12/27/2020 11:15:00 AM 1.02 33.836 0.134 7.5 16.85 13.79
12/27/2020 11:30:00 AM 1.08 33.944 0.134 7.49 16.87 13.79
12/27/2020 11:45:00 AM 1.14 34.052 0.135 7.49 17.2 13.79
12/27/2020 12:00:00 PM 1.19 34.142 0.135 7.51 16.38 13.79
12/27/2020 12:15:00 PM 1.24 34.232 0.135 7.5 17.13 13.79
12/27/2020 12:30:00 PM 1.29 34.322 0.135 7.51 16.85 13.77
12/27/2020 12:45:00 PM 1.36 34.448 0.136 7.51 17 13.76
12/27/2020 1:00:00 PM 1.42 34.556 0.136 7.51 17.49 13.75
12/27/2020 1:15:00 PM 1.47 34.646 0.136 7.52 17.45 13.73
12/27/2020 1:30:00 PM 1.53 34.754 0.136 7.53 16.92 13.72
12/27/2020 1:45:00 PM 1.58 34.844 0.136 7.53 16.79 13.7
12/27/2020 2:00:00 PM 1.63 34.934 0.136 7.52 17.03 13.69
12/27/2020 2:15:00 PM 1.67 35.006 0.136 7.52 16.99 13.68
12/27/2020 2:30:00 PM 1.71 35.078 0.136 7.53 17.1 13.67
12/27/2020 2:45:00 PM 1.75 35.15 0.137 7.53 16.16 13.67
12/27/2020 3:00:00 PM 1.78 35.204 0.137 7.53 15.75 13.66
12/27/2020 3:15:00 PM -99999.99 -179968 -99999.99 -99999.99 -99999.99 -99999.99
12/27/2020 3:30:00 PM -99999.99 -179968 -99999.99 -99999.99 -99999.99 -99999.99
12/27/2020 3:45:00 PM -99999.99 -179968 -99999.99 -99999.99 -99999.99 -99999.99
12/27/2020 4:00:00 PM -99999.99 -179968 -99999.99 -99999.99 -99999.99 -99999.99
12/27/2020 4:15:00 PM -99999.99 -179968 -99999.99 -99999.99 -99999.99 -99999.99
12/27/2020 4:30:00 PM -99999.99 -179968 -99999.99 -99999.99 -99999.99 -99999.99
12/27/2020 4:45:00 PM -99999.99 -179968 -99999.99 -99999.99 -99999.99 -99999.99
12/27/2020 5:00:00 PM -99999.99 -179968 -99999.99 -99999.99 -99999.99 -99999.99
12/27/2020 5:15:00 PM 1.87 35.366 0.138 7.56 15.8 13.51
12/27/2020 5:30:00 PM 1.87 35.366 0.139 7.55 15.38 13.49
12/27/2020 5:45:00 PM 1.87 35.366 0.139 7.55 15.31 13.48
12/27/2020 6:00:00 PM 1.87 35.366 0.139 7.55 15.4 13.46
12/27/2020 6:15:00 PM 1.86 35.348 0.139 7.55 15.27 13.44
12/27/2020 6:30:00 PM 1.85 35.33 0.139 7.55 15.47 13.43
12/27/2020 6:45:00 PM 1.85 35.33 0.14 7.55 15.39 13.41
12/27/2020 7:00:00 PM 1.85 35.33 0.14 7.55 15.32 13.41
12/27/2020 7:15:00 PM 1.85 35.33 0.14 7.55 15.25 13.38
12/27/2020 7:30:00 PM 1.86 35.348 0.14 7.56 15.11 13.37
12/27/2020 7:45:00 PM 1.86 35.348 0.14 7.56 14.95 13.36
12/27/2020 8:00:00 PM 1.86 35.348 0.14 7.56 14.74 13.35
12/27/2020 8:15:00 PM 1.86 35.348 0.14 7.54 14.77 13.35
12/27/2020 8:30:00 PM 1.86 35.348 0.14 7.55 14.79 13.34
12/27/2020 8:45:00 PM 1.85 35.33 0.14 7.55 15.07 13.33
12/27/2020 9:00:00 PM 1.85 35.33 0.14 7.56 14.54 13.33
12/27/2020 9:15:00 PM 1.85 35.33 0.141 7.56 14.96 13.32
12/27/2020 9:30:00 PM 1.85 35.33 0.141 7.55 14.85 13.32
12/27/2020 9:45:00 PM 1.85 35.33 0.142 7.54 15.62 13.31
12/27/2020 10:00:00 PM 1.85 35.33 0.143 7.56 14.55 13.3
12/27/2020 10:15:00 PM 1.85 35.33 0.144 7.55 15.03 13.3
12/27/2020 10:30:00 PM 1.85 35.33 0.146 7.55 15.13 13.3
12/27/2020 10:45:00 PM 1.85 35.33 0.148 7.55 14.68 13.3
12/27/2020 11:00:00 PM 1.85 35.33 0.149 7.56 14.48 13.3
12/27/2020 11:15:00 PM 1.84 35.312 0.15 7.56 14.73 13.3
12/27/2020 11:30:00 PM 1.84 35.312 0.151 7.55 14.61 13.3
12/27/2020 11:45:00 PM 1.84 35.312 0.151 7.56 14.75 13.3
12/28/2020 12:00:00 AM 1.84 35.312 0.15 7.56 14.59 13.29
12/28/2020 12:15:00 AM 1.83 35.294 0.15 7.56 14.64 13.3
12/28/2020 12:30:00 AM 1.82 35.276 0.15 7.56 14.85 13.3
12/28/2020 12:45:00 AM 1.8 35.24 0.149 7.55 15.12 13.3
12/28/2020 1:00:00 AM 1.79 35.222 0.149 7.56 15.37 13.31
12/28/2020 1:15:00 AM 1.77 35.186 0.148 7.56 14.8 13.32
12/28/2020 1:30:00 AM 1.75 35.15 0.148 7.56 14.64 13.31
12/28/2020 1:45:00 AM 1.74 35.132 0.147 7.56 14.73 13.32
12/28/2020 2:00:00 AM 1.73 35.114 0.147 7.56 14.73 13.32
12/28/2020 2:15:00 AM 1.71 35.078 0.146 7.57 14.5 13.33
12/28/2020 2:30:00 AM 1.69 35.042 0.146 7.57 14.61 13.33
12/28/2020 2:45:00 AM 1.67 35.006 0.146 7.57 14.38 13.33
12/28/2020 3:00:00 AM 1.65 34.97 0.145 7.56 14.93 13.34
12/28/2020 3:15:00 AM 1.63 34.934 0.145 7.55 14.85 13.35
12/28/2020 3:30:00 AM 1.62 34.916 0.145 7.57 14.6 13.35
12/28/2020 3:45:00 AM 1.61 34.898 0.145 7.56 14.79 13.36
12/28/2020 4:00:00 AM 1.59 34.862 0.145 7.56 15.44 13.37
12/28/2020 4:15:00 AM 1.58 34.844 0.145 7.57 15.66 13.37
12/28/2020 4:30:00 AM 1.57 34.826 0.145 7.57 15.08 13.37
12/28/2020 4:45:00 AM 1.56 34.808 0.144 7.57 14.55 13.37
12/28/2020 5:00:00 AM 1.56 34.808 0.144 7.56 15.02 13.38
12/28/2020 5:15:00 AM 1.56 34.808 0.144 7.57 14.63 13.38
12/28/2020 5:30:00 AM 1.54 34.772 0.144 7.57 14.55 13.39
12/28/2020 5:45:00 AM 1.48 34.664 0.144 7.57 14.49 13.39
12/28/2020 6:00:00 AM 1.48 34.664 0.144 7.57 14.4 13.38
12/28/2020 6:15:00 AM 1.49 34.682 0.143 7.56 14.08 13.39
12/28/2020 6:30:00 AM 1.49 34.682 0.143 7.57 13.97 13.39
12/28/2020 6:45:00 AM 1.49 34.682 0.143 7.58 14.1 13.38
12/28/2020 7:00:00 AM 1.49 34.682 0.143 7.57 13.79 13.38
12/28/2020 7:15:00 AM 1.49 34.682 0.143 7.58 13.73 13.38
12/28/2020 7:30:00 AM 1.51 34.718 0.142 7.58 13.79 13.38
12/28/2020 7:45:00 AM 1.52 34.736 0.142 7.56 13.86 13.38
12/28/2020 8:00:00 AM 1.54</